Site Date RecNum LOGGERID PROGID Year_RTM Day_RTM Hour_Minute_RTM AIRTEMP_MEAN_150_0_02 AIRTEMP_MEAN_450_0_01 RELHUM_MEAN_150_0_02 RELHUM_MEAN_450_0_01 DEWPT_MEAN_150_0_02 DEWPT_MEAN_450_0_01 WSPD_PRO_MEAN_500_0_01 WMAG_PRO_MEAN_500_0_01 WDIR_PRO_MEAN_500_0_01 WDIR_PRO_STDDEV_500_0_01 SATVP_MEAN_150_0_02 VAP_MEAN_150_0_02 VPD_MEAN_150_0_02 SATVP_MEAN_450_0_01 VAP_MEAN_450_0_01 VPD_MEAN_450_0_01
H15MET 2015-10-01 00:00:00 26208 208 900.0 2015.0 273.00 2400.0 9.7500 10.0000 79.400 77.900 6.3540 6.3310 0.00000 0.00000 0.00 0.000 12.075 9.582 2.487 12.279 9.567 2.714
H15MET 2015-09-30 23:45:00 26207 208 900.0 2015.0 273.00 2345.0 9.8200 10.0800 79.300 76.900 6.4020 6.2230 0.00000 0.00000 0.00 0.000 12.131 9.614 2.511 12.345 9.496 2.852
H15MET 2015-09-30 23:30:00 26206 208 900.0 2015.0 273.00 2330.0 10.0000 10.2400 78.500 76.600 6.4320 6.3110 0.00000 0.00000 0.00 0.000 12.279 9.634 2.640 12.478 9.554 2.920
H15MET 2015-09-30 23:15:00 26205 208 900.0 2015.0 273.00 2315.0 9.9700 10.2700 78.700 75.400 6.4510 6.1080 0.00000 0.00000 0.00 0.000 12.254 9.647 2.610 12.503 9.421 3.076
H15MET 2015-09-30 23:00:00 26204 208 900.0 2015.0 273.00 2300.0 9.9800 10.3500 77.900 74.600 6.3090 6.0320 0.00000 0.00000 0.00 0.000 12.262 9.552 2.710 12.570 9.371 3.193
H15MET 2015-09-30 22:45:00 26203 208 900.0 2015.0 273.00 2245.0 10.1200 10.4800 77.200 73.200 6.3130 5.8820 0.00000 0.00000 0.00 0.000 12.378 9.555 2.822 12.679 9.274 3.398
H15MET 2015-09-30 22:30:00 26202 208 900.0 2015.0 273.00 2230.0 10.2300 10.5800 76.400 72.800 6.2720 5.9140 0.00000 0.00000 0.00 0.000 12.469 9.528 2.943 12.764 9.295 3.472
H15MET 2015-09-30 22:15:00 26201 208 900.0 2015.0 273.00 2215.0 10.3500 10.7200 75.600 72.000 6.2290 5.8830 0.00000 0.00000 0.00 0.000 12.570 9.500 3.067 12.884 9.275 3.607
H15MET 2015-09-30 22:00:00 26200 208 900.0 2015.0 273.00 2200.0 10.4500 10.7500 74.800 71.600 6.1620 5.8240 0.00000 0.00000 0.00 0.000 12.654 9.456 3.189 12.910 9.237 3.666
H15MET 2015-09-30 21:45:00 26199 208 900.0 2015.0 273.00 2145.0 10.8000 10.9400 73.100 71.800 6.1710 6.0590 0.00000 0.00000 0.00 0.000 12.953 9.462 3.484 13.074 9.389 3.687
H15MET 2015-09-30 21:30:00 26198 208 900.0 2015.0 273.00 2130.0 10.8700 11.0100 71.000 73.700 5.8290 6.4960 0.00000 0.00000 0.00 0.000 13.013 9.240 3.774 13.135 9.677 3.454
H15MET 2015-09-30 21:15:00 26197 208 900.0 2015.0 273.00 2115.0 10.7900 11.0600 72.200 71.600 5.9900 6.1270 0.00000 0.00000 0.00 0.000 12.944 9.344 3.598 13.179 9.433 3.743
H15MET 2015-09-30 21:00:00 26196 208 900.0 2015.0 273.00 2100.0 10.8500 11.1800 73.000 71.600 6.2200 6.2330 0.00000 0.00000 0.00 0.000 12.996 9.494 3.509 13.284 9.502 3.773
H15MET 2015-09-30 20:45:00 26195 208 900.0 2015.0 273.00 2045.0 10.9400 11.2600 72.700 70.900 6.2260 6.1780 0.00000 0.00000 0.00 0.000 13.074 9.498 3.569 13.355 9.466 3.886
H15MET 2015-09-30 20:30:00 26194 208 900.0 2015.0 273.00 2030.0 11.1500 11.4100 69.150 68.230 5.7120 5.7690 0.00000 0.00000 0.00 0.000 13.258 9.166 4.090 13.488 9.202 4.285
H15MET 2015-09-30 20:15:00 26193 208 900.0 2015.0 273.00 2015.0 11.1600 11.4400 69.060 68.350 5.7000 5.8210 0.00000 0.00000 0.00 0.000 13.266 9.158 4.105 13.515 9.235 4.277
H15MET 2015-09-30 20:00:00 26192 208 900.0 2015.0 273.00 2000.0 11.2700 11.5800 70.200 67.690 6.0410 5.8190 0.00000 0.00000 0.00 0.000 13.364 9.377 3.982 13.641 9.234 4.407
H15MET 2015-09-30 19:45:00 26191 208 900.0 2015.0 273.00 1945.0 11.6100 11.8000 66.310 65.720 5.5480 5.5940 0.00000 0.00000 0.00 0.000 13.668 9.062 4.605 13.841 9.091 4.745
H15MET 2015-09-30 19:30:00 26190 208 900.0 2015.0 273.00 1930.0 11.7000 11.9800 68.630 68.420 6.1310 6.3580 0.00000 0.00000 0.00 0.000 13.749 9.436 4.313 14.006 9.585 4.423
H15MET 2015-09-30 19:15:00 26189 208 900.0 2015.0 273.00 1915.0 11.8900 12.1900 68.380 67.570 6.2630 6.3750 0.00000 0.00000 0.00 0.000 13.923 9.522 4.402 14.201 9.596 4.605
H15MET 2015-09-30 19:00:00 26188 208 900.0 2015.0 273.00 1900.0 12.1300 12.4400 65.820 66.960 5.9420 6.4740 0.00000 0.00000 0.00 0.000 14.145 9.313 4.835 14.437 9.662 4.770
H15MET 2015-09-30 18:45:00 26187 208 900.0 2015.0 273.00 1845.0 12.3300 12.7600 64.570 63.170 5.8500 5.9370 0.00000 0.00000 0.00 0.000 14.333 9.254 5.078 14.743 9.310 5.430
H15MET 2015-09-30 18:30:00 26186 208 900.0 2015.0 273.00 1830.0 12.6500 13.2700 62.750 60.550 5.7410 5.8010 0.00000 0.00000 0.00 0.000 14.637 9.184 5.452 15.243 9.223 6.013
H15MET 2015-09-30 18:15:00 26185 208 900.0 2015.0 273.00 1815.0 13.0600 13.7100 61.740 57.430 5.8930 5.4610 0.00000 0.00000 0.00 0.000 15.035 9.282 5.753 15.686 9.007 6.678
H15MET 2015-09-30 18:00:00 26184 208 900.0 2015.0 273.00 1800.0 13.5500 14.2900 60.510 55.630 6.0610 5.5430 0.00000 0.00000 0.00 0.000 15.524 9.390 6.130 16.288 9.059 7.227
H15MET 2015-09-30 17:45:00 26183 208 900.0 2015.0 273.00 1745.0 14.1400 14.9700 60.860 57.280 6.7000 6.6000 0.00000 0.00000 0.00 0.000 16.130 9.813 6.313 17.019 9.746 7.271
H15MET 2015-09-30 17:30:00 26182 208 900.0 2015.0 273.00 1730.0 14.6400 15.4900 59.580 54.540 6.8580 6.3610 0.00100 0.00100 313.90 0.000 16.661 9.921 6.734 17.597 9.587 8.000
H15MET 2015-09-30 17:15:00 26181 208 900.0 2015.0 273.00 1715.0 15.1000 15.8600 60.060 55.570 7.4100 6.9780 0.00000 0.00000 0.00 0.000 17.162 10.304 6.854 18.019 10.003 8.006
H15MET 2015-09-30 17:00:00 26180 208 900.0 2015.0 273.00 1700.0 15.6600 16.4400 59.670 54.690 7.8400 7.2800 0.00000 0.00000 0.00 0.000 17.790 10.611 7.175 18.698 10.212 8.472
H15MET 2015-09-30 16:45:00 26179 208 900.0 2015.0 273.00 1645.0 16.2400 17.2100 58.580 50.960 8.1100 6.9480 0.00000 0.00000 0.00 0.000 18.462 10.808 7.647 19.635 9.982 9.629
H15MET 2015-09-30 16:30:00 26178 208 900.0 2015.0 273.00 1630.0 16.9400 17.9100 53.090 44.620 7.2700 5.5500 0.00200 0.00100 329.80 0.181 19.302 10.205 9.054 20.521 9.063 11.365
H15MET 2015-09-30 16:15:00 26177 208 900.0 2015.0 273.00 1615.0 17.8000 18.7900 43.460 34.980 5.1820 2.9810 0.00200 0.00200 90.00 1.851 20.380 8.834 11.523 21.685 7.567 14.100
H15MET 2015-09-30 16:00:00 26176 208 900.0 2015.0 273.00 1600.0 18.0000 18.8500 41.380 35.060 4.6560 3.0830 0.00300 0.00300 277.50 1.792 20.638 8.515 12.098 21.767 7.622 14.135
H15MET 2015-09-30 15:45:00 26175 208 900.0 2015.0 273.00 1545.0 18.5700 19.2800 41.470 36.030 5.2230 3.8580 0.00000 0.00000 42.33 0.000 21.389 8.859 12.519 22.358 8.051 14.303
H15MET 2015-09-30 15:30:00 26174 208 900.0 2015.0 273.00 1530.0 18.9700 19.7600 38.640 34.310 4.5540 3.5770 0.06300 0.05900 279.10 7.930 21.930 8.455 13.457 23.035 7.893 15.132
H15MET 2015-09-30 15:15:00 26173 208 900.0 2015.0 273.00 1515.0 19.0800 19.8300 42.490 35.910 6.0000 4.2810 0.05800 0.04900 260.10 2.193 22.081 9.351 12.699 23.135 8.294 14.827
H15MET 2015-09-30 15:00:00 26172 208 900.0 2015.0 273.00 1500.0 19.6600 20.3000 37.900 33.780 4.8080 3.7760 0.08500 0.07700 303.30 8.430 22.893 8.606 14.216 23.818 8.005 15.772
H15MET 2015-09-30 14:45:00 26171 208 900.0 2015.0 273.00 1445.0 19.6800 20.2300 39.340 35.090 5.3790 4.2710 0.05200 0.03600 285.60 3.609 22.921 8.956 13.904 23.715 8.289 15.394
H15MET 2015-09-30 14:30:00 26170 208 900.0 2015.0 273.00 1430.0 19.5200 20.2500 42.050 38.190 6.1540 5.4810 0.15700 0.08900 299.90 29.600 22.695 9.451 13.151 23.744 9.020 14.676
H15MET 2015-09-30 14:15:00 26169 208 900.0 2015.0 273.00 1415.0 19.5700 20.2900 44.370 40.160 7.0800 6.3050 0.08700 0.07100 276.00 14.240 22.765 10.073 12.664 23.803 9.550 14.244
H15MET 2015-09-30 14:00:00 26168 208 900.0 2015.0 273.00 1400.0 19.1400 20.0500 47.440 41.050 7.6900 6.4150 0.02700 0.02500 277.20 7.510 22.164 10.503 11.650 23.453 9.623 13.825
H15MET 2015-09-30 13:45:00 26167 208 900.0 2015.0 273.00 1345.0 18.8400 19.8000 48.040 40.360 7.5900 5.9410 0.00900 0.00900 259.10 0.007 21.753 10.431 11.303 23.092 9.312 13.772
H15MET 2015-09-30 13:30:00 26166 208 900.0 2015.0 273.00 1330.0 18.9400 19.6700 44.800 39.120 6.6590 5.3690 0.02600 0.02200 311.70 4.722 21.889 9.786 12.083 22.907 8.950 13.946
H15MET 2015-09-30 13:15:00 26165 208 900.0 2015.0 273.00 1315.0 18.9700 19.6800 42.370 37.670 5.8600 4.8520 0.26800 0.25400 285.50 8.500 21.930 9.260 12.639 22.921 8.633 14.287
H15MET 2015-09-30 13:00:00 26164 208 900.0 2015.0 273.00 1300.0 18.0700 19.0300 48.240 41.160 6.9460 5.5370 0.09200 0.08700 313.50 5.941 20.729 9.981 10.729 22.013 9.055 12.952
H15MET 2015-09-30 12:45:00 26163 208 900.0 2015.0 273.00 1245.0 17.6800 18.6900 51.470 43.690 7.5000 6.0830 0.00000 0.00000 307.60 0.000 20.226 10.367 9.816 21.550 9.404 12.135
H15MET 2015-09-30 12:30:00 26162 208 900.0 2015.0 273.00 1230.0 17.2300 18.6200 54.440 44.920 7.9300 6.3870 0.03300 0.03200 269.90 3.655 19.660 10.676 8.957 21.456 9.604 11.818
H15MET 2015-09-30 12:15:00 26161 208 900.0 2015.0 273.00 1215.0 17.0700 18.0800 57.680 48.100 8.6500 6.8960 0.02300 0.02300 112.10 2.636 19.461 11.211 8.236 20.742 9.947 10.765
H15MET 2015-09-30 12:00:00 26160 208 900.0 2015.0 273.00 1200.0 16.7900 17.5800 60.630 53.740 9.1400 8.1000 0.00000 0.00000 0.00 0.000 19.119 11.589 7.527 20.099 10.800 9.298
H15MET 2015-09-30 11:45:00 26159 208 900.0 2015.0 273.00 1145.0 16.4800 17.3800 62.170 55.340 9.2100 8.3300 0.00000 0.00000 0.00 0.000 18.746 11.644 7.092 19.847 10.970 8.864
H15MET 2015-09-30 11:30:00 26158 208 900.0 2015.0 273.00 1130.0 16.1900 17.0800 60.200 52.600 8.4500 7.3000 0.00700 0.00700 284.10 0.610 18.403 11.060 7.324 19.474 10.226 9.231
H15MET 2015-09-30 11:15:00 26157 208 900.0 2015.0 273.00 1115.0 15.6700 16.5000 66.190 59.150 9.3700 8.4900 0.00200 0.00200 114.30 1.778 17.801 11.770 6.019 18.770 11.090 7.668
H15MET 2015-09-30 11:00:00 26156 208 900.0 2015.0 273.00 1100.0 15.3500 16.2600 68.250 59.220 9.5200 8.2700 0.00000 0.00000 0.00 0.000 17.440 11.889 5.537 18.485 10.926 7.538
H15MET 2015-09-30 10:45:00 26155 208 900.0 2015.0 273.00 1045.0 14.7700 15.7500 71.300 63.760 9.6300 8.8900 0.00000 0.00000 0.00 0.000 16.801 11.978 4.822 17.893 11.395 6.484
H15MET 2015-09-30 10:30:00 26154 208 900.0 2015.0 273.00 1030.0 14.3500 15.9800 72.500 63.050 9.4800 8.9600 0.00000 0.00000 0.00 0.000 16.351 11.857 4.497 18.158 11.449 6.709
H15MET 2015-09-30 10:15:00 26153 208 900.0 2015.0 273.00 1015.0 14.3000 16.6500 71.700 59.130 9.2600 8.6400 0.00000 0.00000 0.00 0.000 16.298 11.683 4.612 18.950 11.204 7.745
H15MET 2015-09-30 10:00:00 26152 208 900.0 2015.0 273.00 1000.0 14.5700 16.9400 70.700 59.720 9.3100 9.0600 0.00000 0.00000 0.00 0.000 16.586 11.722 4.860 19.302 11.526 7.775
H15MET 2015-09-30 09:45:00 26151 208 900.0 2015.0 273.00 945.0 13.5300 15.0800 73.400 65.810 8.8700 8.7100 0.00000 0.00000 0.00 0.000 15.504 11.379 4.124 17.140 11.257 5.860
H15MET 2015-09-30 09:30:00 26150 208 900.0 2015.0 273.00 930.0 12.0100 12.7100 80.500 76.600 8.7500 8.7100 0.00000 0.00000 0.00 0.000 14.034 11.287 2.737 14.695 11.257 3.439
H15MET 2015-09-30 09:15:00 26149 208 900.0 2015.0 273.00 915.0 11.9000 12.7500 79.300 74.500 8.4300 8.3300 0.00000 0.00000 0.00 0.000 13.932 11.045 2.884 14.733 10.970 3.757
H15MET 2015-09-30 09:00:00 26148 208 900.0 2015.0 273.00 900.0 12.2200 13.5500 76.800 68.780 8.2700 7.9100 0.00000 0.00000 0.00 0.000 14.229 10.926 3.301 15.524 10.661 4.847
H15MET 2015-09-30 08:45:00 26147 208 900.0 2015.0 273.00 845.0 13.1900 14.6300 71.000 63.300 8.0400 7.7400 0.00000 0.00000 0.00 0.000 15.164 10.756 4.397 16.650 10.539 6.111
H15MET 2015-09-30 08:30:00 26146 208 900.0 2015.0 273.00 830.0 11.3200 13.3000 77.800 68.800 7.5500 7.6800 0.00000 0.00000 0.00 0.000 13.408 10.403 2.977 15.273 10.495 4.765
H15MET 2015-09-30 08:15:00 26145 208 900.0 2015.0 273.00 815.0 9.3800 10.0600 85.200 80.700 7.0200 6.8900 0.00000 0.00000 0.00 0.000 11.778 10.032 1.743 12.328 9.943 2.379
H15MET 2015-09-30 08:00:00 26144 208 900.0 2015.0 273.00 800.0 8.7600 9.1400 87.500 84.700 6.7970 6.7100 0.00000 0.00000 0.00 0.000 11.295 9.879 1.412 11.589 9.820 1.773
H15MET 2015-09-30 07:45:00 26143 208 900.0 2015.0 273.00 745.0 8.4500 8.7500 86.700 84.700 6.3650 6.3220 0.00000 0.00000 0.00 0.000 11.060 9.589 1.471 11.287 9.561 1.727
H15MET 2015-09-30 07:30:00 26142 208 900.0 2015.0 273.00 730.0 8.4000 8.5800 84.200 83.200 5.8950 5.8860 0.00000 0.00000 0.00 0.000 11.023 9.283 1.742 11.158 9.277 1.875
H15MET 2015-09-30 07:15:00 26141 208 900.0 2015.0 273.00 715.0 8.3100 8.5400 82.800 81.300 5.5600 5.5270 0.00000 0.00000 0.00 0.000 10.956 9.070 1.884 11.128 9.049 2.081
H15MET 2015-09-30 07:00:00 26140 208 900.0 2015.0 273.00 700.0 8.2600 8.5600 82.000 79.300 5.3770 5.1950 0.00000 0.00000 0.00 0.000 10.918 8.955 1.965 11.143 8.842 2.307
H15MET 2015-09-30 06:45:00 26139 208 900.0 2015.0 273.00 645.0 8.2900 8.4900 80.500 79.900 5.1390 5.2240 0.00000 0.00000 0.00 0.000 10.941 8.808 2.133 11.090 8.860 2.229
H15MET 2015-09-30 06:30:00 26138 208 900.0 2015.0 273.00 630.0 8.1800 8.4500 82.000 80.600 5.2970 5.3010 0.00000 0.00000 0.00 0.000 10.859 8.905 1.955 11.060 8.908 2.146
H15MET 2015-09-30 06:15:00 26137 208 900.0 2015.0 273.00 615.0 8.1700 8.3600 81.600 80.100 5.2170 5.1310 0.00000 0.00000 0.00 0.000 10.852 8.856 1.997 10.993 8.803 2.188
H15MET 2015-09-30 06:00:00 26136 208 900.0 2015.0 273.00 600.0 8.2100 8.4500 81.200 80.600 5.1850 5.3110 0.00000 0.00000 0.00 0.000 10.881 8.836 2.046 11.060 8.914 2.146
H15MET 2015-09-30 05:45:00 26135 208 900.0 2015.0 273.00 545.0 8.2800 8.5000 80.900 79.900 5.1930 5.2450 0.00000 0.00000 0.00 0.000 10.933 8.841 2.088 11.098 8.873 2.231
H15MET 2015-09-30 05:30:00 26134 208 900.0 2015.0 273.00 530.0 8.3900 8.6300 79.400 78.500 5.0300 5.1090 0.00000 0.00000 0.00 0.000 11.015 8.741 2.269 11.196 8.789 2.407
H15MET 2015-09-30 05:15:00 26133 208 900.0 2015.0 273.00 515.0 8.4900 8.7500 79.200 78.400 5.1000 5.2000 0.00000 0.00000 0.00 0.000 11.090 8.784 2.307 11.287 8.845 2.438
H15MET 2015-09-30 05:00:00 26132 208 900.0 2015.0 273.00 500.0 8.5400 8.7700 79.500 78.900 5.1930 5.3200 0.00000 0.00000 0.00 0.000 11.128 8.841 2.281 11.303 8.919 2.385
H15MET 2015-09-30 04:45:00 26131 208 900.0 2015.0 273.00 445.0 8.5800 8.8100 79.200 78.300 5.1930 5.2330 0.00000 0.00000 0.00 0.000 11.158 8.841 2.321 11.333 8.866 2.459
H15MET 2015-09-30 04:30:00 26130 208 900.0 2015.0 273.00 430.0 8.6600 8.8700 77.600 76.500 4.9850 4.9740 0.00000 0.00000 0.00 0.000 11.219 8.714 2.513 11.379 8.707 2.674
H15MET 2015-09-30 04:15:00 26129 208 900.0 2015.0 273.00 415.0 8.7400 8.9300 76.600 76.100 4.8660 4.9630 0.00000 0.00000 0.00 0.000 11.280 8.641 2.639 11.426 8.700 2.731
H15MET 2015-09-30 04:00:00 26128 208 900.0 2015.0 273.00 400.0 8.8300 9.0500 76.000 75.100 4.8470 4.8790 0.00000 0.00000 0.00 0.000 11.349 8.630 2.724 11.519 8.649 2.868
H15MET 2015-09-30 03:45:00 26127 208 900.0 2015.0 273.00 345.0 8.8600 9.0400 76.500 75.800 4.9580 5.0110 0.00000 0.00000 0.00 0.000 11.372 8.697 2.672 11.511 8.729 2.786
H15MET 2015-09-30 03:30:00 26126 208 900.0 2015.0 273.00 330.0 8.9000 9.1100 77.300 76.700 5.1470 5.2410 0.00000 0.00000 0.00 0.000 11.402 8.813 2.588 11.565 8.870 2.695
H15MET 2015-09-30 03:15:00 26125 208 900.0 2015.0 273.00 315.0 8.9500 9.1900 77.000 76.100 5.1430 5.2000 0.00000 0.00000 0.00 0.000 11.441 8.810 2.631 11.628 8.845 2.779
H15MET 2015-09-30 03:00:00 26124 208 900.0 2015.0 273.00 300.0 9.0300 9.2800 76.400 75.200 5.1040 5.1220 0.00000 0.00000 0.00 0.000 11.503 8.786 2.715 11.699 8.797 2.901
H15MET 2015-09-30 02:45:00 26123 208 900.0 2015.0 273.00 245.0 9.1800 9.4500 76.000 75.300 5.1850 5.3060 0.00000 0.00000 0.00 0.000 11.620 8.836 2.789 11.833 8.911 2.923
H15MET 2015-09-30 02:30:00 26122 208 900.0 2015.0 273.00 230.0 9.3400 9.5900 76.000 74.600 5.3240 5.3080 0.00000 0.00000 0.00 0.000 11.746 8.922 2.819 11.945 8.912 3.034
H15MET 2015-09-30 02:15:00 26121 208 900.0 2015.0 273.00 215.0 9.4100 9.6600 75.400 74.200 5.2760 5.2890 0.00000 0.00000 0.00 0.000 11.802 8.892 2.903 12.002 8.900 3.096
H15MET 2015-09-30 02:00:00 26120 208 900.0 2015.0 273.00 200.0 9.5800 9.8500 75.000 74.300 5.3790 5.4910 0.00000 0.00000 0.00 0.000 11.937 8.956 2.984 12.156 9.026 3.124
H15MET 2015-09-30 01:45:00 26119 208 900.0 2015.0 273.00 145.0 9.6700 9.9400 76.300 74.900 5.7030 5.7100 0.00000 0.00000 0.00 0.000 12.010 9.160 2.846 12.229 9.164 3.070
H15MET 2015-09-30 01:30:00 26118 208 900.0 2015.0 273.00 130.0 9.8700 10.1300 74.600 74.000 5.5670 5.7050 0.00000 0.00000 0.00 0.000 12.172 9.074 3.092 12.386 9.161 3.220
H15MET 2015-09-30 01:15:00 26117 208 900.0 2015.0 273.00 115.0 10.0100 10.2600 73.500 72.600 5.5040 5.5640 0.00000 0.00000 0.00 0.000 12.287 9.034 3.256 12.494 9.072 3.423
H15MET 2015-09-30 01:00:00 26116 208 900.0 2015.0 273.00 100.0 10.1600 10.4100 73.000 72.300 5.5380 5.6380 0.00000 0.00000 0.00 0.000 12.411 9.056 3.351 12.620 9.119 3.496
H15MET 2015-09-30 00:45:00 26115 208 900.0 2015.0 273.00 45.0 10.2600 10.4500 72.900 72.700 5.6080 5.7650 0.00000 0.00000 0.00 0.000 12.494 9.100 3.386 12.654 9.200 3.455
H15MET 2015-09-30 00:30:00 26114 208 900.0 2015.0 273.00 30.0 10.4100 10.6100 71.800 71.700 5.5450 5.7180 0.00000 0.00000 0.00 0.000 12.620 9.060 3.559 12.790 9.170 3.619
H15MET 2015-09-30 00:15:00 26113 208 900.0 2015.0 273.00 15.0 10.5900 10.8200 72.000 71.900 5.7530 5.9580 0.00000 0.00000 0.00 0.000 12.773 9.192 3.576 12.970 9.323 3.645
H15MET 2015-09-30 00:00:00 26112 208 900.0 2015.0 272.00 2400.0 10.6400 10.8500 73.000 70.900 6.0080 5.7880 0.00000 0.00000 0.00 0.000 12.815 9.356 3.460 12.996 9.214 3.782
H15MET 2015-09-29 23:45:00 26111 208 900.0 2015.0 272.00 2345.0 10.7400 11.0000 72.300 68.900 5.9650 5.5150 0.00000 0.00000 0.00 0.000 12.901 9.328 3.574 13.126 9.041 4.082
H15MET 2015-09-29 23:30:00 26110 208 900.0 2015.0 272.00 2330.0 10.8100 11.1300 71.000 67.700 5.7650 5.3840 0.00000 0.00000 0.00 0.000 12.961 9.200 3.759 13.240 8.959 4.277
H15MET 2015-09-29 23:15:00 26109 208 900.0 2015.0 272.00 2315.0 10.8300 11.2400 70.800 65.550 5.7440 5.0280 0.00000 0.00000 0.00 0.000 12.979 9.186 3.790 13.337 8.740 4.595
H15MET 2015-09-29 23:00:00 26108 208 900.0 2015.0 272.00 2300.0 11.0900 11.4200 69.710 65.610 5.7720 5.2180 0.00000 0.00000 0.00 0.000 13.205 9.204 4.000 13.497 8.856 4.642
H15MET 2015-09-29 22:45:00 26107 208 900.0 2015.0 272.00 2245.0 11.1900 11.5800 65.430 61.150 4.9510 4.3510 0.00000 0.00000 0.00 0.000 13.293 8.693 4.595 13.641 8.335 5.299
H15MET 2015-09-29 22:30:00 26106 208 900.0 2015.0 272.00 2230.0 11.3700 11.7000 62.490 59.330 4.4620 4.0460 0.00000 0.00000 0.00 0.000 13.452 8.400 5.046 13.749 8.159 5.592
H15MET 2015-09-29 22:15:00 26105 208 900.0 2015.0 272.00 2215.0 11.7100 11.9400 61.300 60.470 4.5150 4.5290 0.00000 0.00000 0.00 0.000 13.759 8.432 5.325 13.969 8.440 5.522
H15MET 2015-09-29 22:00:00 26104 208 900.0 2015.0 272.00 2200.0 11.7700 12.1200 60.660 62.710 4.4190 5.2220 0.00000 0.00000 0.00 0.000 13.813 8.375 5.434 14.136 8.859 5.271
H15MET 2015-09-29 21:45:00 26103 208 900.0 2015.0 272.00 2145.0 11.9200 12.1500 57.980 59.890 3.9140 4.5840 0.00000 0.00000 0.00 0.000 13.951 8.083 5.862 14.164 8.473 5.681
H15MET 2015-09-29 21:30:00 26102 208 900.0 2015.0 272.00 2130.0 11.9600 12.2500 55.250 58.530 3.2630 4.3580 0.00000 0.00000 0.00 0.000 13.988 7.720 6.259 14.257 8.339 5.913
H15MET 2015-09-29 21:15:00 26101 208 900.0 2015.0 272.00 2115.0 12.0100 12.3300 55.210 57.150 3.2800 4.1010 0.00000 0.00000 0.00 0.000 14.034 7.729 6.286 14.333 8.190 6.142
H15MET 2015-09-29 21:00:00 26100 208 900.0 2015.0 272.00 2100.0 12.0600 12.5000 58.550 55.150 4.1850 3.7490 0.00000 0.00000 0.00 0.000 14.080 8.239 5.836 14.494 7.990 6.500
H15MET 2015-09-29 20:45:00 26099 208 900.0 2015.0 272.00 2045.0 12.2100 12.6800 53.670 48.790 3.0780 2.1860 0.00000 0.00000 0.00 0.000 14.220 7.619 6.588 14.666 7.151 7.510
H15MET 2015-09-29 20:30:00 26098 208 900.0 2015.0 272.00 2030.0 12.4900 12.8600 54.260 48.910 3.5060 2.3770 0.00000 0.00000 0.00 0.000 14.484 7.854 6.625 14.840 7.249 7.582
H15MET 2015-09-29 20:15:00 26097 208 900.0 2015.0 272.00 2015.0 12.9300 13.1600 54.260 53.820 3.9090 4.0180 0.00000 0.00000 0.00 0.000 14.908 8.080 6.819 15.134 8.143 6.989
H15MET 2015-09-29 20:00:00 26096 208 900.0 2015.0 272.00 2000.0 13.1500 13.4400 51.140 54.650 3.2600 4.4600 0.00000 0.00000 0.00 0.000 15.124 7.718 7.390 15.413 8.399 6.990
H15MET 2015-09-29 19:45:00 26095 208 900.0 2015.0 272.00 1945.0 13.2100 13.6800 52.360 51.630 3.6690 3.9010 0.00000 0.00000 0.00 0.000 15.183 7.945 7.233 15.656 8.076 7.573
H15MET 2015-09-29 19:30:00 26094 208 900.0 2015.0 272.00 1930.0 13.5500 14.2400 51.030 45.710 3.6260 2.6600 0.00000 0.00000 0.00 0.000 15.524 7.921 7.602 16.235 7.396 8.814
H15MET 2015-09-29 19:15:00 26093 208 900.0 2015.0 272.00 1915.0 13.8400 14.6600 50.400 40.770 3.7140 1.4790 0.00000 0.00000 0.00 0.000 15.819 7.970 7.846 16.682 6.797 9.881
H15MET 2015-09-29 19:00:00 26092 208 900.0 2015.0 272.00 1900.0 14.0700 14.9200 51.650 40.830 4.2790 1.7270 0.00000 0.00000 0.00 0.000 16.057 8.293 7.764 16.964 6.919 10.038
H15MET 2015-09-29 18:45:00 26091 208 900.0 2015.0 272.00 1845.0 14.4100 15.1800 55.640 46.870 5.6560 3.9110 0.00000 0.00000 0.00 0.000 16.415 9.130 7.282 17.250 8.081 9.165
H15MET 2015-09-29 18:30:00 26090 208 900.0 2015.0 272.00 1830.0 14.7300 15.4900 57.210 52.130 6.3580 5.7100 0.00000 0.00000 0.00 0.000 16.758 9.585 7.171 17.597 9.164 8.424
H15MET 2015-09-29 18:15:00 26089 208 900.0 2015.0 272.00 1815.0 15.0200 15.7100 56.510 51.300 6.4510 5.6970 0.00000 0.00000 0.00 0.000 17.074 9.647 7.425 17.847 9.156 8.692
H15MET 2015-09-29 18:00:00 26088 208 900.0 2015.0 272.00 1800.0 15.5900 16.4800 56.560 51.920 6.9920 6.5710 0.01100 0.01100 318.00 0.398 17.710 10.012 7.693 18.746 9.727 9.013
H15MET 2015-09-29 17:45:00 26087 208 900.0 2015.0 272.00 1745.0 16.3000 17.1300 58.680 55.850 8.1900 8.2400 0.00000 0.00000 0.00 0.000 18.532 10.867 7.658 19.536 10.904 8.625
H15MET 2015-09-29 17:30:00 26086 208 900.0 2015.0 272.00 1730.0 16.8100 17.7100 59.880 54.850 8.9700 8.5100 0.00600 0.00600 324.70 0.750 19.143 11.457 7.680 20.264 11.105 9.149
H15MET 2015-09-29 17:15:00 26085 208 900.0 2015.0 272.00 1715.0 17.2700 18.1800 61.250 54.630 9.7500 8.8900 0.00000 0.00000 0.00 0.000 19.709 12.075 7.637 20.872 11.395 9.470
H15MET 2015-09-29 17:00:00 26084 208 900.0 2015.0 272.00 1700.0 18.0300 19.0200 58.980 51.000 9.8600 8.6100 0.00000 0.00000 0.00 0.000 20.677 12.164 8.482 21.999 11.181 10.780
H15MET 2015-09-29 16:45:00 26083 208 900.0 2015.0 272.00 1645.0 18.7500 19.7200 56.530 48.900 9.8400 8.5600 0.00400 0.00400 341.20 4.868 21.631 12.148 9.403 22.978 11.143 11.742
H15MET 2015-09-29 16:30:00 26082 208 900.0 2015.0 272.00 1630.0 18.7100 19.6900 59.340 51.590 10.6100 9.4200 0.00000 0.00000 0.00 0.000 21.577 12.790 8.773 22.935 11.810 11.103
H15MET 2015-09-29 16:15:00 26081 208 900.0 2015.0 272.00 1615.0 19.7100 20.8900 53.640 44.310 9.9900 8.2000 0.03400 0.02100 60.10 12.970 22.964 12.271 10.646 24.700 10.874 13.755
H15MET 2015-09-29 16:00:00 26080 208 900.0 2015.0 272.00 1600.0 20.2700 21.4300 46.800 39.280 8.5000 6.9720 0.04900 0.04400 115.70 9.050 23.774 11.098 12.648 25.532 9.999 15.503
H15MET 2015-09-29 15:45:00 26079 208 900.0 2015.0 272.00 1545.0 20.3800 21.5100 46.220 39.190 8.4100 7.0400 0.01900 0.01600 63.87 7.600 23.936 11.030 12.873 25.657 10.046 15.602
H15MET 2015-09-29 15:30:00 26078 208 900.0 2015.0 272.00 1530.0 20.3500 21.5700 48.710 41.020 9.2000 7.7600 0.01600 0.01600 275.30 0.106 23.892 11.636 12.254 25.751 10.553 15.188
H15MET 2015-09-29 15:15:00 26077 208 900.0 2015.0 272.00 1515.0 20.5800 21.7700 49.440 41.990 9.6300 8.2900 0.01000 0.00900 139.90 3.753 24.233 11.978 12.252 26.068 10.941 15.122
H15MET 2015-09-29 15:00:00 26076 208 900.0 2015.0 272.00 1500.0 21.4200 22.4100 45.210 38.810 9.0300 7.6900 0.00000 0.00000 0.00 0.000 25.516 11.503 13.980 27.104 10.503 16.585
H15MET 2015-09-29 14:45:00 26075 208 900.0 2015.0 272.00 1445.0 22.3400 23.1900 37.960 33.910 7.3100 6.4310 0.03400 0.01900 207.20 4.403 26.989 10.233 16.744 28.415 9.633 18.780
H15MET 2015-09-29 14:30:00 26074 208 900.0 2015.0 272.00 1430.0 22.8100 23.6600 35.270 32.090 6.6360 6.0360 0.09100 0.05900 290.40 21.030 27.770 9.770 17.975 29.232 9.374 19.851
H15MET 2015-09-29 14:15:00 26073 208 900.0 2015.0 272.00 1415.0 22.4100 23.5000 37.310 31.810 7.1000 5.7710 0.06200 0.05300 293.30 10.510 27.104 10.087 16.992 28.952 9.203 19.742
H15MET 2015-09-29 14:00:00 26072 208 900.0 2015.0 272.00 1400.0 22.0900 23.3000 44.120 35.190 9.2800 7.0200 0.11500 0.01800 173.80 13.360 26.582 11.699 14.854 28.605 10.032 18.539
H15MET 2015-09-29 13:45:00 26071 208 900.0 2015.0 272.00 1345.0 21.7900 23.0500 43.630 34.980 8.8200 6.7330 0.01500 0.01400 253.50 7.200 26.100 11.341 14.712 28.176 9.836 18.320
H15MET 2015-09-29 13:30:00 26070 208 900.0 2015.0 272.00 1330.0 21.9000 22.9900 42.970 34.650 8.6800 6.5420 0.09500 0.06500 313.40 17.020 26.276 11.234 14.985 28.074 9.707 18.346
H15MET 2015-09-29 13:15:00 26069 208 900.0 2015.0 272.00 1315.0 21.1700 22.3800 49.080 39.590 10.0200 7.9300 0.01400 0.01400 237.10 1.253 25.128 12.295 12.795 27.055 10.676 16.344
H15MET 2015-09-29 13:00:00 26068 208 900.0 2015.0 272.00 1300.0 21.1700 22.3700 44.730 36.160 8.6400 6.5940 0.02000 0.02000 265.30 1.998 25.128 11.204 13.888 27.038 9.742 17.261
H15MET 2015-09-29 12:45:00 26067 208 900.0 2015.0 272.00 1245.0 20.6300 22.0600 49.210 38.790 9.5500 7.3400 0.00000 0.00000 0.00 0.000 24.308 11.913 12.346 26.533 10.254 16.241
H15MET 2015-09-29 12:30:00 26066 208 900.0 2015.0 272.00 1230.0 20.6800 22.1100 47.230 35.910 9.0100 6.2850 0.00000 0.00000 0.00 0.000 24.383 11.488 12.867 26.614 9.537 17.057
H15MET 2015-09-29 12:15:00 26065 208 900.0 2015.0 272.00 1215.0 20.2900 21.6000 49.060 41.020 9.2300 7.7700 0.01300 0.00800 279.80 4.931 23.803 11.659 12.125 25.799 10.560 15.216
H15MET 2015-09-29 12:00:00 26064 208 900.0 2015.0 272.00 1200.0 19.8900 20.9500 49.940 43.330 9.1200 7.9700 0.00600 0.00600 2.52 5.750 23.222 11.573 11.625 24.791 10.705 14.049
H15MET 2015-09-29 11:45:00 26063 208 900.0 2015.0 272.00 1145.0 19.4500 20.8000 52.080 43.070 9.3700 7.7700 0.00000 0.00000 0.00 0.000 22.596 11.770 10.828 24.563 10.560 13.984
H15MET 2015-09-29 11:30:00 26062 208 900.0 2015.0 272.00 1130.0 19.1100 20.1900 50.960 45.450 8.7100 8.0000 0.00000 0.00000 0.00 0.000 22.123 11.257 10.849 23.657 10.727 12.905
H15MET 2015-09-29 11:15:00 26061 208 900.0 2015.0 272.00 1115.0 18.6100 19.6800 56.790 50.330 9.8300 9.0400 0.00000 0.00000 0.00 0.000 21.443 12.140 9.265 22.921 11.511 11.385
H15MET 2015-09-29 11:00:00 26060 208 900.0 2015.0 272.00 1100.0 18.0400 19.1500 62.610 56.490 10.7900 10.2900 0.00000 0.00000 0.00 0.000 20.690 12.944 7.736 22.178 12.519 9.650
H15MET 2015-09-29 10:45:00 26059 208 900.0 2015.0 272.00 1045.0 17.4600 18.6000 66.050 58.390 11.0500 10.2800 0.00000 0.00000 0.00 0.000 19.947 13.170 6.772 21.429 12.511 8.917
H15MET 2015-09-29 10:30:00 26058 208 900.0 2015.0 272.00 1030.0 17.2400 18.3200 66.340 57.880 10.9200 9.8900 0.00000 0.00000 0.00 0.000 19.672 13.056 6.622 21.057 12.189 8.869
H15MET 2015-09-29 10:15:00 26057 208 900.0 2015.0 272.00 1015.0 17.2300 18.3900 66.050 58.390 10.8300 10.0900 0.00000 0.00000 0.00 0.000 19.660 12.979 6.674 21.149 12.353 8.800
H15MET 2015-09-29 10:00:00 26056 208 900.0 2015.0 272.00 1000.0 17.1100 17.8000 65.110 60.540 10.5100 10.0700 0.00000 0.00000 0.00 0.000 19.511 12.705 6.807 20.380 12.336 8.042
H15MET 2015-09-29 09:45:00 26055 208 900.0 2015.0 272.00 945.0 15.7800 16.8400 68.340 62.630 9.9700 9.6700 0.00000 0.00000 0.00 0.000 17.927 12.254 5.676 19.180 12.010 7.167
H15MET 2015-09-29 09:30:00 26054 208 900.0 2015.0 272.00 930.0 14.5300 15.4800 71.000 65.070 9.3400 8.9500 0.00000 0.00000 0.00 0.000 16.543 11.746 4.797 17.586 11.441 6.143
H15MET 2015-09-29 09:15:00 26053 208 900.0 2015.0 272.00 915.0 14.2300 15.2200 71.000 64.920 9.0500 8.6700 0.00000 0.00000 0.00 0.000 16.225 11.519 4.705 17.295 11.226 6.067
H15MET 2015-09-29 09:00:00 26052 208 900.0 2015.0 272.00 900.0 14.6500 15.3000 68.090 62.330 8.8300 8.1500 0.00000 0.00000 0.00 0.000 16.671 11.349 5.320 17.384 10.837 6.549
H15MET 2015-09-29 08:45:00 26051 208 900.0 2015.0 272.00 845.0 15.0900 15.7100 65.450 62.220 8.6600 8.5000 0.00000 0.00000 0.00 0.000 17.151 11.219 5.926 17.847 11.098 6.743
H15MET 2015-09-29 08:30:00 26050 208 900.0 2015.0 272.00 830.0 13.4200 14.7900 70.100 63.340 8.0800 7.9000 0.00000 0.00000 0.00 0.000 15.393 10.786 4.602 16.823 10.654 6.167
H15MET 2015-09-29 08:15:00 26049 208 900.0 2015.0 272.00 815.0 11.9600 12.7300 73.700 68.340 7.4200 7.0500 0.00000 0.00000 0.00 0.000 13.988 10.311 3.679 14.714 10.052 4.658
H15MET 2015-09-29 08:00:00 26048 208 900.0 2015.0 272.00 800.0 11.3500 11.9300 73.800 67.710 6.8380 6.1530 0.00000 0.00000 0.00 0.000 13.435 9.907 3.520 13.960 9.450 4.508
H15MET 2015-09-29 07:45:00 26047 208 900.0 2015.0 272.00 745.0 10.6500 11.2000 81.500 75.200 7.6100 6.9640 0.00000 0.00000 0.00 0.000 12.824 10.445 2.372 13.302 9.993 3.299
H15MET 2015-09-29 07:30:00 26046 208 900.0 2015.0 272.00 730.0 10.4300 10.9000 79.400 75.400 7.0200 6.7200 0.00000 0.00000 0.00 0.000 12.637 10.032 2.603 13.039 9.827 3.208
H15MET 2015-09-29 07:15:00 26045 208 900.0 2015.0 272.00 715.0 10.4600 10.8900 75.900 70.400 6.4050 5.7270 0.00000 0.00000 0.00 0.000 12.662 9.616 3.052 13.030 9.175 3.857
H15MET 2015-09-29 07:00:00 26044 208 900.0 2015.0 272.00 700.0 10.4700 10.8800 74.400 69.370 6.1260 5.5020 0.00000 0.00000 0.00 0.000 12.671 9.432 3.244 13.022 9.033 3.989
H15MET 2015-09-29 06:45:00 26043 208 900.0 2015.0 272.00 645.0 10.5200 10.8800 73.000 68.820 5.8990 5.3860 0.00000 0.00000 0.00 0.000 12.713 9.285 3.433 13.022 8.960 4.060
H15MET 2015-09-29 06:30:00 26042 208 900.0 2015.0 272.00 630.0 10.5300 10.8700 72.300 68.980 5.7620 5.4080 0.00000 0.00000 0.00 0.000 12.722 9.198 3.524 13.013 8.974 4.037
H15MET 2015-09-29 06:15:00 26041 208 900.0 2015.0 272.00 615.0 10.4500 10.8900 72.500 68.600 5.7290 5.3480 0.00000 0.00000 0.00 0.000 12.654 9.177 3.480 13.030 8.937 4.092
H15MET 2015-09-29 06:00:00 26040 208 900.0 2015.0 272.00 600.0 10.3300 10.8200 73.800 67.790 5.8720 5.1090 0.00000 0.00000 0.00 0.000 12.553 9.268 3.289 12.970 8.789 4.178
H15MET 2015-09-29 05:45:00 26039 208 900.0 2015.0 272.00 545.0 10.4900 10.8600 71.800 69.460 5.6290 5.4980 0.00000 0.00000 0.00 0.000 12.688 9.113 3.578 13.004 9.031 3.972
H15MET 2015-09-29 05:30:00 26038 208 900.0 2015.0 272.00 530.0 10.5100 10.8900 72.400 69.930 5.7450 5.6120 0.00000 0.00000 0.00 0.000 12.705 9.187 3.506 13.030 9.102 3.918
H15MET 2015-09-29 05:15:00 26037 208 900.0 2015.0 272.00 515.0 10.5100 10.9100 74.800 71.500 6.2300 5.9530 0.00000 0.00000 0.00 0.000 12.705 9.500 3.202 13.048 9.320 3.719
H15MET 2015-09-29 05:00:00 26036 208 900.0 2015.0 272.00 500.0 10.6600 10.9500 71.200 70.000 5.6610 5.7100 0.00000 0.00000 0.00 0.000 12.832 9.133 3.696 13.083 9.164 3.925
H15MET 2015-09-29 04:45:00 26035 208 900.0 2015.0 272.00 445.0 10.6300 11.0100 73.400 72.500 6.0820 6.2590 0.00000 0.00000 0.00 0.000 12.807 9.404 3.407 13.135 9.520 3.612
H15MET 2015-09-29 04:30:00 26034 208 900.0 2015.0 272.00 430.0 10.6600 11.0200 73.400 71.500 6.1070 6.0570 0.00000 0.00000 0.00 0.000 12.832 9.420 3.413 13.144 9.388 3.746
H15MET 2015-09-29 04:15:00 26033 208 900.0 2015.0 272.00 415.0 10.6400 10.9500 74.800 73.600 6.3560 6.4160 0.00000 0.00000 0.00 0.000 12.815 9.584 3.229 13.083 9.623 3.454
H15MET 2015-09-29 04:00:00 26032 208 900.0 2015.0 272.00 400.0 10.5800 10.9800 76.300 73.800 6.5800 6.4910 0.00000 0.00000 0.00 0.000 12.764 9.733 3.025 13.109 9.673 3.434
H15MET 2015-09-29 03:45:00 26031 208 900.0 2015.0 272.00 345.0 10.7000 10.9700 74.900 74.100 6.4430 6.5540 0.00000 0.00000 0.00 0.000 12.867 9.641 3.230 13.100 9.715 3.393
H15MET 2015-09-29 03:30:00 26030 208 900.0 2015.0 272.00 330.0 10.9400 11.1500 70.800 74.400 5.8510 6.7650 0.00000 0.00000 0.00 0.000 13.074 9.255 3.818 13.258 9.857 3.394
H15MET 2015-09-29 03:15:00 26029 208 900.0 2015.0 272.00 315.0 11.0500 11.3300 70.100 70.400 5.8020 6.1470 0.00000 0.00000 0.00 0.000 13.170 9.223 3.938 13.417 9.446 3.971
H15MET 2015-09-29 03:00:00 26028 208 900.0 2015.0 272.00 300.0 11.0100 11.4000 74.100 71.900 6.5760 6.5190 0.00000 0.00000 0.00 0.000 13.135 9.730 3.402 13.479 9.692 3.788
H15MET 2015-09-29 02:45:00 26027 208 900.0 2015.0 272.00 245.0 11.2200 11.5300 71.700 71.200 6.3020 6.4880 0.00000 0.00000 0.00 0.000 13.319 9.548 3.769 13.596 9.671 3.916
H15MET 2015-09-29 02:30:00 26026 208 900.0 2015.0 272.00 230.0 11.2600 11.5700 70.500 69.030 6.0870 6.0850 0.00000 0.00000 0.00 0.000 13.355 9.407 3.940 13.632 9.406 4.222
H15MET 2015-09-29 02:15:00 26025 208 900.0 2015.0 272.00 215.0 11.1300 11.4800 72.600 70.200 6.3940 6.2390 0.00000 0.00000 0.00 0.000 13.240 9.609 3.628 13.551 9.506 4.038
H15MET 2015-09-29 02:00:00 26024 208 900.0 2015.0 272.00 200.0 11.3200 11.5800 71.600 71.800 6.3590 6.6660 0.00000 0.00000 0.00 0.000 13.408 9.586 3.808 13.641 9.791 3.847
H15MET 2015-09-29 01:45:00 26023 208 900.0 2015.0 272.00 145.0 11.4300 11.7200 69.340 69.430 6.0080 6.3170 0.00000 0.00000 0.00 0.000 13.506 9.356 4.141 13.768 9.558 4.209
H15MET 2015-09-29 01:30:00 26022 208 900.0 2015.0 272.00 130.0 11.4400 11.7800 70.600 69.940 6.2990 6.4720 0.00000 0.00000 0.00 0.000 13.515 9.546 3.973 13.822 9.661 4.155
H15MET 2015-09-29 01:15:00 26021 208 900.0 2015.0 272.00 115.0 11.5000 11.8000 70.400 69.680 6.2980 6.4390 0.00000 0.00000 0.00 0.000 13.569 9.545 4.016 13.841 9.639 4.196
H15MET 2015-09-29 01:00:00 26020 208 900.0 2015.0 272.00 100.0 11.3600 11.8500 74.100 70.700 6.9250 6.7110 0.00000 0.00000 0.00 0.000 13.444 9.966 3.482 13.886 9.821 4.069
H15MET 2015-09-29 00:45:00 26019 208 900.0 2015.0 272.00 45.0 11.5100 11.9500 73.500 70.500 6.9510 6.7650 0.00000 0.00000 0.00 0.000 13.578 9.984 3.598 13.978 9.857 4.124
H15MET 2015-09-29 00:30:00 26018 208 900.0 2015.0 272.00 30.0 11.9000 12.0800 69.050 69.930 6.3990 6.7660 0.00000 0.00000 0.00 0.000 13.932 9.612 4.312 14.099 9.858 4.239
H15MET 2015-09-29 00:15:00 26017 208 900.0 2015.0 272.00 15.0 11.8800 12.2300 70.500 70.400 6.6830 6.9930 0.00000 0.00000 0.00 0.000 13.914 9.802 4.105 14.239 10.013 4.215
H15MET 2015-09-29 00:00:00 26016 208 900.0 2015.0 271.00 2400.0 11.7300 12.2700 74.700 69.310 7.3900 6.8170 0.00000 0.00000 0.00 0.000 13.777 10.289 3.486 14.276 9.893 4.381
H15MET 2015-09-28 23:45:00 26015 208 900.0 2015.0 271.00 2345.0 11.8300 12.2900 72.900 69.170 7.1200 6.8100 0.00000 0.00000 0.00 0.000 13.868 10.101 3.758 14.295 9.888 4.407
H15MET 2015-09-28 23:30:00 26014 208 900.0 2015.0 271.00 2330.0 12.0200 12.4300 70.800 66.690 6.8840 6.4060 0.00000 0.00000 0.00 0.000 14.043 9.938 4.101 14.427 9.617 4.806
H15MET 2015-09-28 23:15:00 26013 208 900.0 2015.0 271.00 2315.0 12.3300 12.7100 69.530 68.300 6.9150 7.0200 0.00000 0.00000 0.00 0.000 14.333 9.960 4.367 14.695 10.032 4.658
H15MET 2015-09-28 23:00:00 26012 208 900.0 2015.0 271.00 2300.0 12.4200 12.7600 71.300 69.590 7.3700 7.3400 0.00000 0.00000 0.00 0.000 14.418 10.275 4.138 14.743 10.254 4.483
H15MET 2015-09-28 22:45:00 26011 208 900.0 2015.0 271.00 2245.0 12.6700 12.9200 70.400 70.600 7.4100 7.7100 0.00000 0.00000 0.00 0.000 14.656 10.304 4.338 14.898 10.517 4.380
H15MET 2015-09-28 22:30:00 26010 208 900.0 2015.0 271.00 2230.0 12.6400 13.0700 69.970 70.100 7.3000 7.7500 0.00000 0.00000 0.00 0.000 14.627 10.226 4.393 15.045 10.546 4.499
H15MET 2015-09-28 22:15:00 26009 208 900.0 2015.0 271.00 2215.0 12.4800 13.1600 72.800 66.800 7.7500 7.1200 0.00000 0.00000 0.00 0.000 14.475 10.546 3.937 15.134 10.101 5.024
H15MET 2015-09-28 22:00:00 26008 208 900.0 2015.0 271.00 2200.0 12.8100 13.3300 71.600 66.620 7.8100 7.2500 0.00000 0.00000 0.00 0.000 14.791 10.589 4.201 15.303 10.191 5.108
H15MET 2015-09-28 21:45:00 26007 208 900.0 2015.0 271.00 2145.0 13.2300 13.6300 67.180 67.680 7.2800 7.7700 0.00000 0.00000 0.00 0.000 15.203 10.212 4.990 15.605 10.560 5.043
H15MET 2015-09-28 21:30:00 26006 208 900.0 2015.0 271.00 2130.0 13.2400 13.7700 67.580 64.370 7.3600 7.1500 0.00000 0.00000 0.00 0.000 15.213 10.268 4.932 15.748 10.122 5.611
H15MET 2015-09-28 21:15:00 26005 208 900.0 2015.0 271.00 2115.0 13.5100 14.0700 65.450 63.800 7.1700 7.3200 0.00000 0.00000 0.00 0.000 15.483 10.136 5.350 16.057 10.240 5.813
H15MET 2015-09-28 21:00:00 26004 208 900.0 2015.0 271.00 2100.0 13.7400 14.3800 65.470 63.610 7.3800 7.5600 0.00000 0.00000 0.00 0.000 15.717 10.282 5.427 16.383 10.410 5.962
H15MET 2015-09-28 20:45:00 26003 208 900.0 2015.0 271.00 2045.0 14.0500 14.6100 63.690 60.020 7.2700 6.9190 0.00000 0.00000 0.00 0.000 16.037 10.205 5.823 16.628 9.962 6.648
H15MET 2015-09-28 20:30:00 26002 208 900.0 2015.0 271.00 2030.0 14.0600 14.6800 67.450 64.190 8.1100 7.9800 0.00000 0.00000 0.00 0.000 16.047 10.808 5.223 16.704 10.712 5.982
H15MET 2015-09-28 20:15:00 26001 208 900.0 2015.0 271.00 2015.0 14.4400 15.0500 67.760 62.740 8.5500 8.0000 0.00000 0.00000 0.00 0.000 16.447 11.135 5.302 17.107 10.727 6.374
H15MET 2015-09-28 20:00:00 26000 208 900.0 2015.0 271.00 2000.0 14.6100 15.2700 67.030 63.330 8.5500 8.3500 0.00000 0.00000 0.00 0.000 16.628 11.135 5.482 17.351 10.985 6.362
H15MET 2015-09-28 19:45:00 25999 208 900.0 2015.0 271.00 1945.0 14.9300 15.8200 67.210 59.710 8.9000 8.0000 0.00000 0.00000 0.00 0.000 16.975 11.402 5.566 17.973 10.727 7.241
H15MET 2015-09-28 19:30:00 25998 208 900.0 2015.0 271.00 1930.0 14.6000 15.5000 69.280 61.820 9.0400 8.2100 0.00000 0.00000 0.00 0.000 16.618 11.511 5.105 17.609 10.881 6.723
H15MET 2015-09-28 19:15:00 25997 208 900.0 2015.0 271.00 1915.0 14.5800 15.2900 71.100 65.110 9.4000 8.7800 0.00000 0.00000 0.00 0.000 16.596 11.794 4.796 17.373 11.310 6.061
H15MET 2015-09-28 19:00:00 25996 208 900.0 2015.0 271.00 1900.0 14.8000 15.6000 69.990 63.850 9.3800 8.7900 0.00000 0.00000 0.00 0.000 16.834 11.778 5.052 17.722 11.318 6.406
H15MET 2015-09-28 18:45:00 25995 208 900.0 2015.0 271.00 1845.0 14.9300 15.6700 68.960 62.310 9.2900 8.4900 0.00000 0.00000 0.00 0.000 16.975 11.707 5.269 17.801 11.090 6.709
H15MET 2015-09-28 18:30:00 25994 208 900.0 2015.0 271.00 1830.0 15.3200 16.0000 68.160 62.710 9.4900 8.9000 0.00000 0.00000 0.00 0.000 17.406 11.865 5.542 18.181 11.402 6.780
H15MET 2015-09-28 18:15:00 25993 208 900.0 2015.0 271.00 1815.0 15.8700 16.6100 63.300 58.640 8.9000 8.4800 0.00000 0.00000 0.00 0.000 18.031 11.402 6.617 18.902 11.083 7.818
H15MET 2015-09-28 18:00:00 25992 208 900.0 2015.0 271.00 1800.0 16.3200 17.2600 60.380 52.080 8.6400 7.3400 0.00000 0.00000 0.00 0.000 18.556 11.204 7.352 19.697 10.254 9.439
H15MET 2015-09-28 17:45:00 25991 208 900.0 2015.0 271.00 1745.0 16.5300 17.7600 59.550 48.220 8.6300 6.6790 0.00000 0.00000 0.00 0.000 18.806 11.196 7.607 20.328 9.799 10.526
H15MET 2015-09-28 17:30:00 25990 208 900.0 2015.0 271.00 1730.0 16.8600 18.0900 58.660 43.680 8.7100 5.5490 0.00000 0.00000 0.00 0.000 19.204 11.257 7.939 20.755 9.063 11.689
H15MET 2015-09-28 17:15:00 25989 208 900.0 2015.0 271.00 1715.0 17.2300 18.4500 58.330 46.680 8.9800 6.8350 0.00000 0.00000 0.00 0.000 19.660 11.464 8.192 21.229 9.905 11.319
H15MET 2015-09-28 17:00:00 25988 208 900.0 2015.0 271.00 1700.0 17.6800 18.9600 59.350 45.910 9.6600 7.0500 0.00000 0.00000 0.00 0.000 20.226 12.002 8.222 21.917 10.052 11.855
H15MET 2015-09-28 16:45:00 25987 208 900.0 2015.0 271.00 1645.0 18.3000 19.4700 56.760 46.280 9.5700 7.6300 0.00000 0.00000 0.00 0.000 21.030 11.929 9.093 22.624 10.460 12.154
H15MET 2015-09-28 16:30:00 25986 208 900.0 2015.0 271.00 1630.0 18.7900 19.9500 55.090 45.910 9.5800 7.9500 0.00000 0.00000 0.00 0.000 21.685 11.937 9.739 23.308 10.691 12.607
H15MET 2015-09-28 16:15:00 25985 208 900.0 2015.0 271.00 1615.0 19.2300 20.4000 55.230 45.560 10.0200 8.2300 0.00000 0.00000 0.00 0.000 22.289 12.295 9.979 23.965 10.896 13.047
H15MET 2015-09-28 16:00:00 25984 208 900.0 2015.0 271.00 1600.0 19.5900 20.7700 54.520 46.080 10.1700 8.7400 0.00000 0.00000 0.00 0.000 22.793 12.419 10.366 24.518 11.280 13.220
H15MET 2015-09-28 15:45:00 25983 208 900.0 2015.0 271.00 1545.0 19.8700 21.0700 52.730 43.150 9.9300 8.0400 0.00000 0.00000 0.00 0.000 23.193 12.221 10.963 24.974 10.756 14.198
H15MET 2015-09-28 15:30:00 25982 208 900.0 2015.0 271.00 1530.0 20.1600 21.3300 51.450 42.780 9.8300 8.1400 0.00000 0.00000 0.00 0.000 23.613 12.140 11.464 25.376 10.830 14.520
H15MET 2015-09-28 15:15:00 25981 208 900.0 2015.0 271.00 1515.0 20.7200 22.2300 46.610 36.320 8.8700 6.5320 0.00000 0.00000 0.00 0.000 24.443 11.379 13.050 26.809 9.701 17.072
H15MET 2015-09-28 15:00:00 25980 208 900.0 2015.0 271.00 1500.0 21.2600 22.6900 45.020 34.150 8.8000 6.0160 0.02900 0.01900 303.90 9.630 25.267 11.326 13.892 27.569 9.361 18.154
H15MET 2015-09-28 14:45:00 25979 208 900.0 2015.0 271.00 1445.0 20.7600 22.2400 46.580 35.200 8.8600 6.0730 0.03200 0.03100 355.60 2.750 24.503 11.372 13.090 26.825 9.398 17.383
H15MET 2015-09-28 14:30:00 25978 208 900.0 2015.0 271.00 1430.0 20.8500 22.2100 48.670 39.460 9.6300 7.7600 0.00000 0.00000 0.00 0.000 24.639 11.978 12.647 26.776 10.553 16.210
H15MET 2015-09-28 14:15:00 25977 208 900.0 2015.0 271.00 1415.0 20.7400 22.0200 48.820 39.390 9.4800 7.4800 0.00500 0.00300 336.80 1.657 24.473 11.857 12.525 26.468 10.353 16.043
H15MET 2015-09-28 14:00:00 25976 208 900.0 2015.0 271.00 1400.0 20.7500 22.0400 49.440 41.430 9.7700 8.2900 0.00300 0.00300 90.10 2.128 24.488 12.091 12.381 26.501 10.941 15.521
H15MET 2015-09-28 13:45:00 25975 208 900.0 2015.0 271.00 1345.0 21.7200 22.8600 42.730 34.280 8.3200 6.1840 0.01400 0.00800 214.60 3.113 25.988 10.963 14.884 27.854 9.470 18.306
H15MET 2015-09-28 13:30:00 25974 208 900.0 2015.0 271.00 1330.0 20.4800 21.6800 47.240 40.070 8.7000 7.4200 0.07200 0.06600 307.40 8.630 24.084 11.249 12.707 25.925 10.311 15.537
H15MET 2015-09-28 13:15:00 25973 208 900.0 2015.0 271.00 1315.0 20.4400 21.8100 51.880 40.810 10.2100 7.8700 0.01000 0.01000 319.60 1.291 24.025 12.453 11.561 26.132 10.632 15.467
H15MET 2015-09-28 13:00:00 25972 208 900.0 2015.0 271.00 1300.0 19.8700 21.0700 55.710 47.220 10.7500 9.3700 0.00000 0.00000 0.00 0.000 23.193 12.910 10.272 24.974 11.770 13.181
H15MET 2015-09-28 12:45:00 25971 208 900.0 2015.0 271.00 1245.0 19.6800 20.7900 54.970 46.880 10.3600 9.0300 0.00000 0.00000 0.00 0.000 22.921 12.578 10.321 24.548 11.503 13.040
H15MET 2015-09-28 12:30:00 25970 208 900.0 2015.0 271.00 1230.0 19.4300 20.3500 55.980 48.940 10.4100 9.2700 0.00000 0.00000 0.00 0.000 22.568 12.620 9.934 23.892 11.691 12.199
H15MET 2015-09-28 12:15:00 25969 208 900.0 2015.0 271.00 1215.0 19.8900 20.9600 50.580 43.940 9.2600 8.1400 0.00200 0.00200 284.60 1.731 23.222 11.683 11.476 24.806 10.830 13.906
H15MET 2015-09-28 12:00:00 25968 208 900.0 2015.0 271.00 1200.0 18.5400 19.6200 54.820 48.660 9.2300 8.4100 0.04000 0.02300 249.70 16.910 21.349 11.659 9.645 22.836 11.030 11.724
H15MET 2015-09-28 11:45:00 25967 208 900.0 2015.0 271.00 1145.0 17.8200 18.9000 60.970 55.630 10.1900 9.8300 0.00000 0.00000 0.00 0.000 20.405 12.436 7.964 21.835 12.140 9.688
H15MET 2015-09-28 11:30:00 25966 208 900.0 2015.0 271.00 1130.0 17.2800 18.4400 60.780 54.750 9.6400 9.1700 0.00000 0.00000 0.00 0.000 19.722 11.986 7.735 21.216 11.612 9.600
H15MET 2015-09-28 11:15:00 25965 208 900.0 2015.0 271.00 1115.0 16.9300 18.1400 61.260 54.900 9.4200 8.9300 0.00000 0.00000 0.00 0.000 19.290 11.810 7.473 20.820 11.426 9.390
H15MET 2015-09-28 11:00:00 25964 208 900.0 2015.0 271.00 1100.0 16.2500 17.4300 62.600 55.060 9.1000 8.3100 0.00000 0.00000 0.00 0.000 18.473 11.558 6.909 19.910 10.956 8.947
H15MET 2015-09-28 10:45:00 25963 208 900.0 2015.0 271.00 1045.0 15.6600 16.7100 63.700 56.420 8.8000 8.0000 0.00000 0.00000 0.00 0.000 17.790 11.326 6.458 19.022 10.727 8.290
H15MET 2015-09-28 10:30:00 25962 208 900.0 2015.0 271.00 1030.0 15.3400 16.2200 66.000 58.140 9.0200 7.9900 0.00000 0.00000 0.00 0.000 17.429 11.495 5.926 18.438 10.720 7.718
H15MET 2015-09-28 10:15:00 25961 208 900.0 2015.0 271.00 1015.0 15.5500 16.4900 63.430 56.550 8.6400 7.8300 0.00000 0.00000 0.00 0.000 17.665 11.204 6.460 18.758 10.603 8.150
H15MET 2015-09-28 10:00:00 25960 208 900.0 2015.0 271.00 1000.0 15.6000 16.0500 61.660 57.490 8.2600 7.6600 0.00000 0.00000 0.00 0.000 17.722 10.918 6.795 18.239 10.481 7.754
H15MET 2015-09-28 09:45:00 25959 208 900.0 2015.0 271.00 945.0 14.1100 14.9700 66.490 61.140 7.9600 7.5500 0.00000 0.00000 0.00 0.000 16.099 10.698 5.395 17.019 10.403 6.614
H15MET 2015-09-28 09:30:00 25958 208 900.0 2015.0 271.00 930.0 12.6700 13.5800 71.600 64.130 7.6700 6.9340 0.00000 0.00000 0.00 0.000 14.656 10.488 4.162 15.554 9.973 5.579
H15MET 2015-09-28 09:15:00 25957 208 900.0 2015.0 271.00 915.0 12.3400 13.5600 72.200 63.350 7.4800 6.7380 0.00000 0.00000 0.00 0.000 14.342 10.353 3.987 15.534 9.839 5.693
H15MET 2015-09-28 09:00:00 25956 208 900.0 2015.0 271.00 900.0 12.2600 13.3000 71.900 63.560 7.3400 6.5370 0.00000 0.00000 0.00 0.000 14.267 10.254 4.009 15.273 9.704 5.565
H15MET 2015-09-28 08:45:00 25955 208 900.0 2015.0 271.00 845.0 12.5400 13.1700 70.200 64.010 7.2600 6.5180 0.00000 0.00000 0.00 0.000 14.532 10.198 4.330 15.144 9.691 5.450
H15MET 2015-09-28 08:30:00 25954 208 900.0 2015.0 271.00 830.0 11.5900 12.6200 74.200 68.570 7.1500 6.9910 0.00000 0.00000 0.00 0.000 13.650 10.122 3.522 14.608 10.012 4.591
H15MET 2015-09-28 08:15:00 25953 208 900.0 2015.0 271.00 815.0 9.8800 10.4800 77.400 70.600 6.1150 5.3590 0.00000 0.00000 0.00 0.000 12.180 9.425 2.753 12.679 8.944 3.728
H15MET 2015-09-28 08:00:00 25952 208 900.0 2015.0 271.00 800.0 9.4800 9.9800 79.800 74.300 6.1690 5.6290 0.00000 0.00000 0.00 0.000 11.857 9.461 2.395 12.262 9.113 3.151
H15MET 2015-09-28 07:45:00 25951 208 900.0 2015.0 271.00 745.0 9.1000 9.5800 81.200 73.600 6.0510 5.1000 0.00000 0.00000 0.00 0.000 11.558 9.384 2.173 11.937 8.784 3.151
H15MET 2015-09-28 07:30:00 25950 208 900.0 2015.0 271.00 730.0 8.8300 9.2900 78.800 73.800 5.3600 4.8600 0.00000 0.00000 0.00 0.000 11.349 8.944 2.406 11.707 8.638 3.067
H15MET 2015-09-28 07:15:00 25949 208 900.0 2015.0 271.00 715.0 8.6800 9.1900 78.300 72.300 5.1080 4.4730 0.00000 0.00000 0.00 0.000 11.234 8.789 2.438 11.628 8.407 3.221
H15MET 2015-09-28 07:00:00 25948 208 900.0 2015.0 271.00 700.0 8.5800 9.0300 80.200 76.000 5.3720 5.0170 0.00000 0.00000 0.00 0.000 11.158 8.952 2.209 11.503 8.733 2.761
H15MET 2015-09-28 06:45:00 25947 208 900.0 2015.0 271.00 645.0 8.4700 8.9300 79.200 75.600 5.0700 4.8630 0.00000 0.00000 0.00 0.000 11.075 8.765 2.304 11.426 8.640 2.788
H15MET 2015-09-28 06:30:00 25946 208 900.0 2015.0 271.00 630.0 8.3400 8.8200 78.900 75.100 4.8970 4.6430 0.00000 0.00000 0.00 0.000 10.978 8.660 2.316 11.341 8.508 2.824
H15MET 2015-09-28 06:15:00 25945 208 900.0 2015.0 271.00 615.0 8.3400 8.7900 78.300 74.100 4.7770 4.4270 0.00000 0.00000 0.00 0.000 10.978 8.588 2.382 11.318 8.380 2.931
H15MET 2015-09-28 06:00:00 25944 208 900.0 2015.0 271.00 600.0 8.4100 8.8700 77.300 74.000 4.6730 4.4910 0.00000 0.00000 0.00 0.000 11.030 8.526 2.504 11.379 8.418 2.959
H15MET 2015-09-28 05:45:00 25943 208 900.0 2015.0 271.00 545.0 8.3700 8.8700 75.600 70.500 4.3140 3.8010 0.00000 0.00000 0.00 0.000 11.000 8.314 2.684 11.379 8.019 3.357
H15MET 2015-09-28 05:30:00 25942 208 900.0 2015.0 271.00 530.0 8.3600 8.8500 75.500 70.700 4.2860 3.8240 0.00000 0.00000 0.00 0.000 10.993 8.297 2.693 11.364 8.032 3.330
H15MET 2015-09-28 05:15:00 25941 208 900.0 2015.0 271.00 515.0 8.4000 8.9000 78.300 72.800 4.8460 4.2920 0.00000 0.00000 0.00 0.000 11.023 8.629 2.392 11.402 8.301 3.101
H15MET 2015-09-28 05:00:00 25940 208 900.0 2015.0 271.00 500.0 8.3100 8.8400 77.000 71.900 4.5160 4.0560 0.00000 0.00000 0.00 0.000 10.956 8.432 2.520 11.356 8.164 3.191
H15MET 2015-09-28 04:45:00 25939 208 900.0 2015.0 271.00 445.0 8.2800 8.7700 74.400 69.680 3.9970 3.5390 0.00000 0.00000 0.00 0.000 10.933 8.130 2.799 11.303 7.872 3.427
H15MET 2015-09-28 04:30:00 25938 208 900.0 2015.0 271.00 430.0 8.4900 9.0100 73.300 68.560 3.9890 3.5420 0.00000 0.00000 0.00 0.000 11.090 8.126 2.961 11.488 7.874 3.612
H15MET 2015-09-28 04:15:00 25937 208 900.0 2015.0 271.00 415.0 8.5100 9.0700 74.500 68.470 4.2360 3.5770 0.00000 0.00000 0.00 0.000 11.105 8.268 2.832 11.534 7.893 3.637
H15MET 2015-09-28 04:00:00 25936 208 900.0 2015.0 271.00 400.0 8.3400 8.9500 71.000 64.960 3.3870 2.7190 0.00000 0.00000 0.00 0.000 10.978 7.788 3.184 11.441 7.428 4.009
H15MET 2015-09-28 03:45:00 25935 208 900.0 2015.0 271.00 345.0 8.4700 9.0100 70.800 65.040 3.4710 2.7980 0.00000 0.00000 0.00 0.000 11.075 7.834 3.234 11.488 7.469 4.016
H15MET 2015-09-28 03:30:00 25934 208 900.0 2015.0 271.00 330.0 8.5600 9.1800 71.400 65.200 3.6810 2.9980 0.00100 0.00100 286.10 0.492 11.143 7.951 3.187 11.620 7.576 4.044
H15MET 2015-09-28 03:15:00 25933 208 900.0 2015.0 271.00 315.0 8.5400 9.1200 76.700 69.940 4.6870 3.9170 0.00700 0.00700 275.10 0.571 11.128 8.534 2.593 11.573 8.085 3.479
H15MET 2015-09-28 03:00:00 25932 208 900.0 2015.0 271.00 300.0 8.6500 9.2100 77.700 72.900 4.9740 4.6030 0.00100 0.00100 116.60 0.005 11.211 8.707 2.500 11.644 8.484 3.155
H15MET 2015-09-28 02:45:00 25931 208 900.0 2015.0 271.00 245.0 8.7300 9.3000 77.400 71.200 5.0040 4.3640 0.07800 0.05400 278.70 15.530 11.272 8.725 2.547 11.715 8.343 3.374
H15MET 2015-09-28 02:30:00 25930 208 900.0 2015.0 271.00 230.0 8.6900 9.2700 76.500 71.500 4.7960 4.3880 0.05600 0.04000 244.10 11.270 11.242 8.599 2.642 11.691 8.357 3.332
H15MET 2015-09-28 02:15:00 25929 208 900.0 2015.0 271.00 215.0 8.6000 9.2100 72.500 67.810 3.9370 3.5800 0.02200 0.01700 260.50 7.050 11.173 8.096 3.073 11.644 7.895 3.748
H15MET 2015-09-28 02:00:00 25928 208 900.0 2015.0 271.00 200.0 8.4700 9.1100 69.720 63.200 3.2600 2.4910 0.06900 0.06100 259.30 13.220 11.075 7.718 3.354 11.565 7.308 4.256
H15MET 2015-09-28 01:45:00 25927 208 900.0 2015.0 271.00 145.0 8.5300 9.2300 68.090 61.120 2.9870 2.1330 0.12100 0.11200 260.20 7.800 11.120 7.570 3.549 11.659 7.124 4.533
H15MET 2015-09-28 01:30:00 25926 208 900.0 2015.0 271.00 130.0 8.4800 9.1100 66.950 59.110 2.6960 1.5520 0.03200 0.02500 308.50 5.952 11.083 7.415 3.663 11.565 6.833 4.729
H15MET 2015-09-28 01:15:00 25925 208 900.0 2015.0 271.00 115.0 8.5900 9.2400 67.300 60.100 2.8770 1.9060 0.00900 0.00900 317.50 1.024 11.166 7.511 3.651 11.667 7.009 4.655
H15MET 2015-09-28 01:00:00 25924 208 900.0 2015.0 271.00 100.0 8.6700 9.2800 65.470 59.180 2.5610 1.7220 0.01700 0.01600 339.60 4.099 11.226 7.344 3.876 11.699 6.917 4.775
H15MET 2015-09-28 00:45:00 25923 208 900.0 2015.0 271.00 45.0 8.9100 9.5100 65.280 58.350 2.7530 1.7490 0.00000 0.00000 0.00 0.000 11.410 7.446 3.962 11.881 6.930 4.949
H15MET 2015-09-28 00:30:00 25922 208 900.0 2015.0 271.00 30.0 9.0000 9.6600 66.180 57.990 3.0250 1.7970 0.06000 0.05700 313.90 4.934 11.480 7.591 3.882 12.002 6.954 5.042
H15MET 2015-09-28 00:15:00 25921 208 900.0 2015.0 271.00 15.0 9.1900 9.8100 64.570 57.420 2.8690 1.8010 0.03500 0.03100 301.40 7.360 11.628 7.507 4.120 12.123 6.956 5.162
H15MET 2015-09-28 00:00:00 25920 208 900.0 2015.0 270.00 2400.0 9.9800 10.6000 62.130 56.310 3.0750 2.2720 0.06000 0.05800 287.20 3.923 12.262 7.618 4.644 12.781 7.195 5.584
H15MET 2015-09-27 23:45:00 25919 208 900.0 2015.0 270.00 2345.0 10.2900 11.1100 61.280 53.800 3.1400 2.0800 0.14800 0.09300 251.40 13.370 12.519 7.653 4.848 13.222 7.097 6.109
H15MET 2015-09-27 23:30:00 25918 208 900.0 2015.0 270.00 2330.0 10.0400 10.6900 66.280 59.370 4.0440 3.0940 0.05600 0.05300 266.90 2.820 12.312 8.157 4.151 12.858 7.628 5.224
H15MET 2015-09-27 23:15:00 25917 208 900.0 2015.0 270.00 2315.0 10.4600 11.3200 62.010 54.980 3.4910 2.5960 0.06500 0.04400 231.00 9.590 12.662 7.845 4.810 13.408 7.363 6.036
H15MET 2015-09-27 23:00:00 25916 208 900.0 2015.0 270.00 2300.0 10.6600 11.3600 60.180 51.970 3.2600 1.8520 0.15400 0.08200 300.60 28.010 12.832 7.718 5.110 13.444 6.982 6.457
H15MET 2015-09-27 22:45:00 25915 208 900.0 2015.0 270.00 2245.0 10.8500 11.4900 60.540 52.150 3.5140 2.0160 0.06400 0.05500 312.60 9.990 12.996 7.858 5.128 13.560 7.064 6.488
H15MET 2015-09-27 22:30:00 25914 208 900.0 2015.0 270.00 2230.0 10.9100 11.5900 63.700 55.750 4.3000 3.0450 0.05000 0.03200 302.20 10.080 13.048 8.306 4.736 13.650 7.602 6.040
H15MET 2015-09-27 22:15:00 25913 208 900.0 2015.0 270.00 2215.0 10.7100 11.3300 61.640 55.630 3.6390 2.7660 0.11700 0.02000 200.50 29.860 12.875 7.928 4.939 13.417 7.452 5.953
H15MET 2015-09-27 22:00:00 25912 208 900.0 2015.0 270.00 2200.0 10.9100 11.5700 62.150 54.280 3.9490 2.6550 0.16300 0.15000 316.20 12.150 13.048 8.103 4.939 13.632 7.394 6.232
H15MET 2015-09-27 21:45:00 25911 208 900.0 2015.0 270.00 2145.0 11.1500 11.7900 62.020 52.930 4.1480 2.5120 0.08600 0.07800 302.30 5.790 13.258 8.217 5.035 13.831 7.319 6.510
H15MET 2015-09-27 21:30:00 25910 208 900.0 2015.0 270.00 2130.0 11.1500 11.7900 60.820 52.750 3.8610 2.4600 0.06100 0.03000 134.80 11.370 13.258 8.053 5.194 13.831 7.292 6.535
H15MET 2015-09-27 21:15:00 25909 208 900.0 2015.0 270.00 2115.0 11.2200 11.8800 64.840 55.650 4.8490 3.2970 0.00000 0.00000 0.00 0.000 13.319 8.631 4.683 13.914 7.739 6.171
H15MET 2015-09-27 21:00:00 25908 208 900.0 2015.0 270.00 2100.0 11.2400 11.8600 65.370 56.660 4.9820 3.5360 0.00100 0.00100 337.50 0.000 13.337 8.712 4.619 13.896 7.870 6.022
H15MET 2015-09-27 20:45:00 25907 208 900.0 2015.0 270.00 2045.0 11.2900 11.9400 66.680 58.670 5.3120 4.0980 0.02000 0.00200 272.70 17.260 13.381 8.914 4.459 13.969 8.188 5.773
H15MET 2015-09-27 20:30:00 25906 208 900.0 2015.0 270.00 2030.0 11.1100 11.7100 70.600 62.880 5.9700 4.8720 0.01300 0.01300 248.50 0.316 13.222 9.331 3.887 13.759 8.645 5.107
H15MET 2015-09-27 20:15:00 25905 208 900.0 2015.0 270.00 2015.0 11.0700 11.6700 71.500 64.600 6.1180 5.2270 0.00000 0.00000 0.00 0.000 13.187 9.427 3.758 13.722 8.862 4.858
H15MET 2015-09-27 20:00:00 25904 208 900.0 2015.0 270.00 2000.0 11.0600 11.6800 73.700 67.120 6.5470 5.7940 0.00000 0.00000 0.00 0.000 13.179 9.711 3.466 13.731 9.218 4.515
H15MET 2015-09-27 19:45:00 25903 208 900.0 2015.0 270.00 1945.0 11.0900 11.7300 75.500 68.640 6.9150 6.1570 0.03300 0.03300 259.80 2.251 13.205 9.960 3.235 13.777 9.453 4.320
H15MET 2015-09-27 19:30:00 25902 208 900.0 2015.0 270.00 1930.0 11.1300 11.7200 74.100 68.670 6.7020 6.1530 0.02800 0.02800 293.50 2.239 13.240 9.815 3.429 13.768 9.450 4.313
H15MET 2015-09-27 19:15:00 25901 208 900.0 2015.0 270.00 1915.0 11.2500 11.8800 73.300 67.680 6.6540 6.1000 0.02000 0.01900 250.00 3.065 13.346 9.782 3.563 13.914 9.415 4.497
H15MET 2015-09-27 19:00:00 25900 208 900.0 2015.0 270.00 1900.0 11.4700 12.0600 71.600 65.720 6.5210 5.8440 0.02500 0.02500 251.70 1.283 13.542 9.693 3.846 14.080 9.250 4.827
H15MET 2015-09-27 18:45:00 25899 208 900.0 2015.0 270.00 1845.0 11.6900 12.2800 72.300 66.000 6.8690 6.1200 0.04100 0.04000 273.80 2.127 13.740 9.928 3.806 14.286 9.429 4.857
H15MET 2015-09-27 18:30:00 25898 208 900.0 2015.0 270.00 1830.0 12.1800 12.7600 72.600 66.570 7.4000 6.7050 0.04800 0.04800 264.20 0.940 14.192 10.296 3.889 14.743 9.817 4.929
H15MET 2015-09-27 18:15:00 25897 208 900.0 2015.0 270.00 1815.0 12.6400 13.2900 72.100 66.540 7.7400 7.2000 0.00000 0.00000 0.00 0.000 14.627 10.539 4.081 15.263 10.156 5.107
H15MET 2015-09-27 18:00:00 25896 208 900.0 2015.0 270.00 1800.0 13.0900 13.8600 69.200 61.870 7.5700 6.6690 0.00000 0.00000 0.00 0.000 15.065 10.417 4.640 15.840 9.793 6.040
H15MET 2015-09-27 17:45:00 25895 208 900.0 2015.0 270.00 1745.0 13.5800 14.4400 67.860 60.040 7.7600 6.7800 0.01700 0.01500 187.20 6.579 15.554 10.553 4.999 16.447 9.868 6.572
H15MET 2015-09-27 17:30:00 25894 208 900.0 2015.0 270.00 1730.0 14.1800 15.0300 63.840 55.620 7.4100 6.2080 0.02300 0.01200 282.30 7.360 16.172 10.304 5.848 17.085 9.486 7.582
H15MET 2015-09-27 17:15:00 25893 208 900.0 2015.0 270.00 1715.0 14.4400 15.3700 62.130 54.130 7.2800 6.1390 0.00000 0.00000 0.00 0.000 16.447 10.212 6.228 17.462 9.441 8.010
H15MET 2015-09-27 17:00:00 25892 208 900.0 2015.0 270.00 1700.0 14.5900 15.6000 59.690 50.200 6.8380 5.2650 0.05000 0.04300 309.00 8.240 16.607 9.907 6.694 17.722 8.885 8.825
H15MET 2015-09-27 16:45:00 25891 208 900.0 2015.0 270.00 1645.0 15.0300 15.9400 57.890 48.370 6.8030 5.0520 0.03800 0.03200 130.10 7.600 17.085 9.883 7.194 18.112 8.754 9.351
H15MET 2015-09-27 16:30:00 25890 208 900.0 2015.0 270.00 1630.0 15.1400 16.0400 57.980 48.850 6.8960 5.2700 0.00200 0.00100 156.00 0.000 17.206 9.947 7.230 18.228 8.888 9.323
H15MET 2015-09-27 16:15:00 25889 208 900.0 2015.0 270.00 1615.0 15.3400 16.4700 58.150 48.290 7.1500 5.4950 0.03800 0.02900 291.10 7.540 17.429 10.122 7.294 18.734 9.029 9.687
H15MET 2015-09-27 16:00:00 25888 208 900.0 2015.0 270.00 1600.0 15.4000 16.4100 58.070 47.840 7.1900 5.2880 0.08300 0.03500 295.40 21.770 17.496 10.149 7.336 18.663 8.900 9.734
H15MET 2015-09-27 15:45:00 25887 208 900.0 2015.0 270.00 1545.0 15.7400 16.6400 57.770 48.880 7.4400 5.8260 0.00000 0.00000 0.00 0.000 17.881 10.325 7.551 18.938 9.239 9.681
H15MET 2015-09-27 15:30:00 25886 208 900.0 2015.0 270.00 1530.0 16.0600 16.9900 55.850 46.710 7.2100 5.4550 0.02100 0.00600 6.88 17.690 18.251 10.163 8.058 19.363 9.004 10.319
H15MET 2015-09-27 15:15:00 25885 208 900.0 2015.0 270.00 1515.0 16.5300 17.5400 52.870 43.780 6.7870 4.9750 0.04300 0.03600 211.60 8.920 18.806 9.872 8.863 20.048 8.707 11.271
H15MET 2015-09-27 15:00:00 25884 208 900.0 2015.0 270.00 1500.0 15.9600 16.8700 56.730 49.100 7.3300 6.0430 0.06900 0.06800 270.10 3.610 18.135 10.247 7.847 19.216 9.378 9.781
H15MET 2015-09-27 14:45:00 25883 208 900.0 2015.0 270.00 1445.0 16.3300 17.4400 57.020 45.640 7.7800 5.5050 0.00400 0.00400 291.60 1.133 18.568 10.567 7.980 19.922 9.035 10.830
H15MET 2015-09-27 14:30:00 25882 208 900.0 2015.0 270.00 1430.0 16.8100 17.6600 50.460 42.360 6.3550 4.5920 0.14900 0.10300 262.00 20.240 19.143 9.583 9.484 20.201 8.477 11.644
H15MET 2015-09-27 14:15:00 25881 208 900.0 2015.0 270.00 1415.0 16.8100 17.7500 49.490 40.190 6.0000 3.8640 0.06800 0.02800 194.90 22.260 19.143 9.351 9.669 20.316 8.055 12.151
H15MET 2015-09-27 14:00:00 25880 208 900.0 2015.0 270.00 1400.0 16.2100 17.1900 56.430 45.140 7.4600 5.0850 0.00000 0.00000 0.00 0.000 18.426 10.339 8.028 19.610 8.775 10.758
H15MET 2015-09-27 13:45:00 25879 208 900.0 2015.0 270.00 1345.0 15.9200 17.1100 59.300 44.520 7.9500 4.8230 0.01400 0.01400 265.20 1.571 18.088 10.691 7.362 19.511 8.615 10.825
H15MET 2015-09-27 13:30:00 25878 208 900.0 2015.0 270.00 1330.0 16.0600 17.0400 58.670 47.560 7.9400 5.7850 0.00300 0.00200 259.30 0.626 18.251 10.683 7.543 19.425 9.212 10.186
H15MET 2015-09-27 13:15:00 25877 208 900.0 2015.0 270.00 1315.0 16.3300 17.1600 56.770 49.360 7.6800 6.4130 0.00400 0.00400 4.69 0.643 18.568 10.495 8.027 19.573 9.621 9.912
H15MET 2015-09-27 13:00:00 25876 208 900.0 2015.0 270.00 1300.0 16.4300 17.2200 53.270 45.420 6.7620 5.1900 0.02400 0.02300 154.90 2.854 18.686 9.855 8.732 19.647 8.839 10.723
H15MET 2015-09-27 12:45:00 25875 208 900.0 2015.0 270.00 1245.0 16.0200 16.9100 47.040 39.840 4.5880 3.1220 0.05100 0.05000 273.60 3.208 18.204 8.475 9.641 19.265 7.643 11.590
H15MET 2015-09-27 12:30:00 25874 208 900.0 2015.0 270.00 1230.0 15.4500 16.3000 59.800 49.760 7.4900 5.6650 0.07600 0.07500 127.20 3.610 17.552 10.360 7.056 18.532 9.136 9.311
H15MET 2015-09-27 12:15:00 25873 208 900.0 2015.0 270.00 1215.0 15.3200 16.0900 63.530 52.950 8.4100 6.4690 0.00000 0.00000 0.00 0.000 17.406 11.030 6.348 18.286 9.659 8.604
H15MET 2015-09-27 12:00:00 25872 208 900.0 2015.0 270.00 1200.0 14.7100 15.5200 58.990 52.160 6.6600 5.6360 0.03500 0.02700 322.10 9.390 16.736 9.786 6.863 17.631 9.118 8.435
H15MET 2015-09-27 11:45:00 25871 208 900.0 2015.0 270.00 1145.0 14.0200 14.6700 70.400 62.860 8.6800 7.6300 0.00000 0.00000 0.00 0.000 16.005 11.234 4.738 16.693 10.460 6.200
H15MET 2015-09-27 11:30:00 25870 208 900.0 2015.0 270.00 1130.0 13.0100 13.8700 72.700 65.020 8.1400 7.3600 0.02700 0.02600 298.50 3.329 14.986 10.830 4.091 15.850 10.268 5.544
H15MET 2015-09-27 11:15:00 25869 208 900.0 2015.0 270.00 1115.0 12.2700 13.0400 80.100 72.400 8.9400 8.2000 0.00000 0.00000 0.00 0.000 14.276 11.433 2.841 15.016 10.874 4.144
H15MET 2015-09-27 11:00:00 25868 208 900.0 2015.0 270.00 1100.0 11.6900 12.3900 80.400 73.400 8.4200 7.7800 0.00000 0.00000 0.00 0.000 13.740 11.038 2.693 14.389 10.567 3.828
H15MET 2015-09-27 10:45:00 25867 208 900.0 2015.0 270.00 1045.0 11.0800 11.8600 83.800 76.100 8.4500 7.7800 0.00000 0.00000 0.00 0.000 13.196 11.060 2.138 13.896 10.567 3.321
H15MET 2015-09-27 10:30:00 25866 208 900.0 2015.0 270.00 1030.0 11.0000 12.5000 83.100 72.700 8.2500 7.7400 0.00000 0.00000 0.00 0.000 13.126 10.911 2.218 14.494 10.539 3.957
H15MET 2015-09-27 10:15:00 25865 208 900.0 2015.0 270.00 1015.0 11.6500 13.1300 79.600 70.300 8.2300 7.8400 0.00000 0.00000 0.00 0.000 13.704 10.896 2.796 15.104 10.611 4.486
H15MET 2015-09-27 10:00:00 25864 208 900.0 2015.0 270.00 1000.0 12.0200 12.7000 76.200 71.400 7.9600 7.6500 0.00000 0.00000 0.00 0.000 14.043 10.698 3.342 14.685 10.474 4.200
H15MET 2015-09-27 09:45:00 25863 208 900.0 2015.0 270.00 945.0 9.9100 10.8700 84.400 78.900 7.3900 7.3400 0.00000 0.00000 0.00 0.000 12.205 10.289 1.904 13.013 10.254 2.746
H15MET 2015-09-27 09:30:00 25862 208 900.0 2015.0 270.00 930.0 8.2200 9.1400 91.400 85.100 6.9050 6.7750 0.00000 0.00000 0.00 0.000 10.889 9.953 0.936 11.589 9.864 1.727
H15MET 2015-09-27 09:15:00 25861 208 900.0 2015.0 270.00 915.0 8.0700 9.9100 90.000 79.600 6.5360 6.5590 0.00000 0.00000 0.00 0.000 10.778 9.703 1.078 12.205 9.719 2.490
H15MET 2015-09-27 09:00:00 25860 208 900.0 2015.0 270.00 900.0 8.6800 9.9200 86.300 79.000 6.5240 6.4390 0.00000 0.00000 0.00 0.000 11.234 9.695 1.539 12.213 9.639 2.565
H15MET 2015-09-27 08:45:00 25859 208 900.0 2015.0 270.00 845.0 9.6200 9.8600 80.600 78.200 6.4590 6.2490 0.00000 0.00000 0.00 0.000 11.970 9.652 2.322 12.164 9.513 2.652
H15MET 2015-09-27 08:30:00 25858 208 900.0 2015.0 270.00 830.0 7.2400 8.4800 92.000 84.300 5.9900 5.9710 0.00000 0.00000 0.00 0.000 10.184 9.344 0.815 11.083 9.332 1.740
H15MET 2015-09-27 08:15:00 25857 208 900.0 2015.0 270.00 815.0 5.2120 5.7060 99.700 97.900 5.1650 5.3980 0.00000 0.00000 0.00 0.000 8.853 8.824 0.027 9.162 8.968 0.192
H15MET 2015-09-27 08:00:00 25856 208 900.0 2015.0 270.00 800.0 4.7700 4.9780 100.000 99.400 4.7700 4.8860 0.00000 0.00000 0.00 0.000 8.584 8.584 0.000 8.709 8.653 0.052
H15MET 2015-09-27 07:45:00 25855 208 900.0 2015.0 270.00 745.0 4.3670 4.5260 100.000 99.900 4.3670 4.5180 0.00000 0.00000 0.00 0.000 8.345 8.345 0.000 8.438 8.433 0.008
H15MET 2015-09-27 07:30:00 25854 208 900.0 2015.0 270.00 730.0 4.0590 4.2000 100.000 100.000 4.0590 4.2000 0.00000 0.00000 0.00 0.000 8.166 8.166 0.000 8.247 8.247 0.000
H15MET 2015-09-27 07:15:00 25853 208 900.0 2015.0 270.00 715.0 3.9660 4.1330 100.000 100.000 3.9660 4.1330 0.00000 0.00000 0.00 0.000 8.113 8.113 0.000 8.209 8.209 0.000
H15MET 2015-09-27 07:00:00 25852 208 900.0 2015.0 270.00 700.0 3.9500 4.1370 100.000 100.000 3.9500 4.1370 0.00000 0.00000 0.00 0.000 8.104 8.104 0.000 8.211 8.211 0.000
H15MET 2015-09-27 06:45:00 25851 208 900.0 2015.0 270.00 645.0 3.8840 4.1130 100.000 99.800 3.8840 4.0910 0.00000 0.00000 0.00 0.000 8.066 8.066 0.000 8.197 8.184 0.016
H15MET 2015-09-27 06:30:00 25850 208 900.0 2015.0 270.00 630.0 3.9200 4.1450 100.000 99.700 3.9190 4.1070 0.00000 0.00000 0.00 0.000 8.087 8.086 0.000 8.216 8.194 0.025
H15MET 2015-09-27 06:15:00 25849 208 900.0 2015.0 270.00 615.0 3.9680 4.1570 100.000 99.800 3.9670 4.1280 0.00000 0.00000 0.00 0.000 8.114 8.113 0.000 8.223 8.206 0.016
H15MET 2015-09-27 06:00:00 25848 208 900.0 2015.0 270.00 600.0 3.9620 4.1460 100.000 99.800 3.9620 4.1180 0.00000 0.00000 0.00 0.000 8.110 8.110 0.000 8.216 8.200 0.016
H15MET 2015-09-27 05:45:00 25847 208 900.0 2015.0 270.00 545.0 4.0250 4.2300 100.000 99.700 4.0250 4.1920 0.00000 0.00000 0.00 0.000 8.147 8.147 0.000 8.265 8.243 0.025
H15MET 2015-09-27 05:30:00 25846 208 900.0 2015.0 270.00 530.0 4.0810 4.2700 100.000 99.700 4.0800 4.2230 0.00000 0.00000 0.00 0.000 8.179 8.178 0.000 8.288 8.261 0.025
H15MET 2015-09-27 05:15:00 25845 208 900.0 2015.0 270.00 515.0 4.0730 4.2980 99.900 99.600 4.0560 4.2340 0.00000 0.00000 0.00 0.000 8.174 8.164 0.008 8.304 8.267 0.033
H15MET 2015-09-27 05:00:00 25844 208 900.0 2015.0 270.00 500.0 4.2020 4.3600 99.900 99.700 4.1860 4.3200 0.00000 0.00000 0.00 0.000 8.249 8.239 0.008 8.341 8.317 0.025
H15MET 2015-09-27 04:45:00 25843 208 900.0 2015.0 270.00 445.0 4.2990 4.4070 99.800 99.400 4.2680 4.3210 0.00000 0.00000 0.00 0.000 8.305 8.287 0.017 8.368 8.318 0.050
H15MET 2015-09-27 04:30:00 25842 208 900.0 2015.0 270.00 430.0 4.3480 4.5150 100.000 99.800 4.3480 4.4840 0.00000 0.00000 0.00 0.000 8.334 8.334 0.000 8.432 8.413 0.017
H15MET 2015-09-27 04:15:00 25841 208 900.0 2015.0 270.00 415.0 4.3150 4.4670 100.000 99.800 4.3120 4.4420 0.00000 0.00000 0.00 0.000 8.314 8.313 0.000 8.403 8.389 0.017
H15MET 2015-09-27 04:00:00 25840 208 900.0 2015.0 270.00 400.0 4.3380 4.4680 99.900 99.500 4.3190 4.3990 0.00000 0.00000 0.00 0.000 8.328 8.317 0.008 8.404 8.363 0.042
H15MET 2015-09-27 03:45:00 25839 208 900.0 2015.0 270.00 345.0 4.4340 4.5750 100.000 99.400 4.4300 4.4940 0.00000 0.00000 0.00 0.000 8.384 8.382 0.000 8.467 8.419 0.051
H15MET 2015-09-27 03:30:00 25838 208 900.0 2015.0 270.00 330.0 4.5350 4.7050 100.000 99.400 4.5300 4.6240 0.00000 0.00000 0.00 0.000 8.444 8.441 0.000 8.545 8.496 0.051
H15MET 2015-09-27 03:15:00 25837 208 900.0 2015.0 270.00 315.0 4.6620 4.8270 99.800 99.000 4.6380 4.6910 0.00000 0.00000 0.00 0.000 8.519 8.505 0.017 8.618 8.536 0.086
H15MET 2015-09-27 03:00:00 25836 208 900.0 2015.0 270.00 300.0 4.7780 4.9880 100.000 99.100 4.7730 4.8560 0.00000 0.00000 0.00 0.000 8.588 8.585 0.000 8.715 8.635 0.078
H15MET 2015-09-27 02:45:00 25835 208 900.0 2015.0 270.00 245.0 4.8620 5.0790 100.000 99.300 4.8620 4.9840 0.00000 0.00000 0.00 0.000 8.639 8.639 0.000 8.771 8.713 0.061
H15MET 2015-09-27 02:30:00 25834 208 900.0 2015.0 270.00 230.0 4.9630 5.1410 100.000 99.300 4.9630 5.0390 0.00000 0.00000 0.00 0.000 8.700 8.700 0.000 8.809 8.746 0.062
H15MET 2015-09-27 02:15:00 25833 208 900.0 2015.0 270.00 215.0 5.0080 5.2010 100.000 99.200 5.0080 5.0910 0.00000 0.00000 0.00 0.000 8.728 8.728 0.000 8.846 8.778 0.071
H15MET 2015-09-27 02:00:00 25832 208 900.0 2015.0 270.00 200.0 5.0660 5.2610 100.000 99.100 5.0650 5.1290 0.00000 0.00000 0.00 0.000 8.763 8.762 0.000 8.883 8.801 0.080
H15MET 2015-09-27 01:45:00 25831 208 900.0 2015.0 270.00 145.0 5.1320 5.3590 99.800 98.900 5.0970 5.2040 0.00000 0.00000 0.00 0.000 8.803 8.782 0.018 8.944 8.848 0.098
H15MET 2015-09-27 01:30:00 25830 208 900.0 2015.0 270.00 130.0 5.2640 5.4700 99.500 98.500 5.1970 5.2590 0.00000 0.00000 0.00 0.000 8.885 8.843 0.044 9.013 8.882 0.135
H15MET 2015-09-27 01:15:00 25829 208 900.0 2015.0 270.00 115.0 5.3820 5.5980 99.400 98.300 5.2890 5.3520 0.00000 0.00000 0.00 0.000 8.958 8.900 0.054 9.094 8.939 0.155
H15MET 2015-09-27 01:00:00 25828 208 900.0 2015.0 270.00 100.0 5.4250 5.6570 99.100 98.100 5.2930 5.3860 0.00000 0.00000 0.00 0.000 8.985 8.903 0.081 9.131 8.960 0.173
H15MET 2015-09-27 00:45:00 25827 208 900.0 2015.0 270.00 45.0 5.5100 5.7210 98.900 97.900 5.3560 5.4140 0.00000 0.00000 0.00 0.000 9.038 8.942 0.099 9.171 8.978 0.193
H15MET 2015-09-27 00:30:00 25826 208 900.0 2015.0 270.00 30.0 5.5930 5.8640 98.100 97.000 5.3240 5.4180 0.00000 0.00000 0.00 0.000 9.090 8.922 0.173 9.263 8.980 0.278
H15MET 2015-09-27 00:15:00 25825 208 900.0 2015.0 270.00 15.0 5.7370 5.9940 98.200 97.000 5.4770 5.5480 0.00000 0.00000 0.00 0.000 9.182 9.017 0.165 9.347 9.062 0.280
H15MET 2015-09-27 00:00:00 25824 208 900.0 2015.0 269.00 2400.0 5.8180 6.0470 98.500 97.300 5.5970 5.6460 0.00000 0.00000 0.00 0.000 9.233 9.093 0.139 9.381 9.124 0.253
H15MET 2015-09-26 23:45:00 25823 208 900.0 2015.0 269.00 2345.0 5.9020 6.1620 97.900 96.700 5.5980 5.6740 0.00000 0.00000 0.00 0.000 9.287 9.094 0.195 9.456 9.142 0.312
H15MET 2015-09-26 23:30:00 25822 208 900.0 2015.0 269.00 2330.0 6.0990 6.3570 98.000 96.600 5.8030 5.8610 0.00000 0.00000 0.00 0.000 9.415 9.224 0.188 9.584 9.261 0.326
H15MET 2015-09-26 23:15:00 25821 208 900.0 2015.0 269.00 2315.0 6.2300 6.4430 98.500 97.100 6.0100 6.0170 0.00000 0.00000 0.00 0.000 9.500 9.357 0.143 9.641 9.362 0.280
H15MET 2015-09-26 23:00:00 25820 208 900.0 2015.0 269.00 2300.0 6.2490 6.4830 98.100 96.500 5.9700 5.9680 0.00000 0.00000 0.00 0.000 9.513 9.331 0.181 9.668 9.330 0.338
H15MET 2015-09-26 22:45:00 25819 208 900.0 2015.0 269.00 2245.0 6.4220 6.6910 97.700 96.100 6.0850 6.1120 0.00000 0.00000 0.00 0.000 9.627 9.406 0.221 9.807 9.423 0.382
H15MET 2015-09-26 22:30:00 25818 208 900.0 2015.0 269.00 2230.0 6.6970 6.9430 97.800 96.400 6.3790 6.4070 0.00000 0.00000 0.00 0.000 9.811 9.599 0.216 9.979 9.617 0.359
H15MET 2015-09-26 22:15:00 25817 208 900.0 2015.0 269.00 2215.0 6.9340 7.1700 98.100 96.600 6.6550 6.6620 0.00000 0.00000 0.00 0.000 9.973 9.783 0.189 10.136 9.788 0.345
H15MET 2015-09-26 22:00:00 25816 208 900.0 2015.0 269.00 2200.0 7.0600 7.3300 98.000 96.600 6.7650 6.8190 0.00000 0.00000 0.00 0.000 10.059 9.857 0.201 10.247 9.894 0.348
H15MET 2015-09-26 21:45:00 25815 208 900.0 2015.0 269.00 2145.0 7.2500 7.5100 97.400 95.900 6.8680 6.9050 0.00000 0.00000 0.00 0.000 10.191 9.928 0.265 10.374 9.953 0.425
H15MET 2015-09-26 21:30:00 25814 208 900.0 2015.0 269.00 2130.0 7.3200 7.5900 97.700 96.100 6.9890 7.0100 0.00000 0.00000 0.00 0.000 10.240 10.010 0.236 10.431 10.025 0.407
H15MET 2015-09-26 21:15:00 25813 208 900.0 2015.0 269.00 2115.0 7.4100 7.6700 97.300 95.600 7.0100 7.0000 0.00000 0.00000 0.00 0.000 10.304 10.025 0.278 10.488 10.018 0.461
H15MET 2015-09-26 21:00:00 25812 208 900.0 2015.0 269.00 2100.0 7.5800 7.8500 96.400 94.500 7.0500 7.0300 0.00000 0.00000 0.00 0.000 10.424 10.052 0.375 10.618 10.039 0.584
H15MET 2015-09-26 20:45:00 25811 208 900.0 2015.0 269.00 2045.0 7.8500 8.0900 96.500 94.700 7.3300 7.3000 0.00000 0.00000 0.00 0.000 10.618 10.247 0.372 10.793 10.226 0.572
H15MET 2015-09-26 20:30:00 25810 208 900.0 2015.0 269.00 2030.0 7.9600 8.1800 96.400 94.600 7.4200 7.3800 0.00000 0.00000 0.00 0.000 10.698 10.311 0.385 10.859 10.282 0.586
H15MET 2015-09-26 20:15:00 25809 208 900.0 2015.0 269.00 2015.0 7.9400 8.1800 96.600 94.600 7.4400 7.3700 0.00000 0.00000 0.00 0.000 10.683 10.325 0.363 10.859 10.275 0.586
H15MET 2015-09-26 20:00:00 25808 208 900.0 2015.0 269.00 2000.0 7.9500 8.2200 96.700 94.800 7.4600 7.4400 0.00000 0.00000 0.00 0.000 10.691 10.339 0.353 10.889 10.325 0.566
H15MET 2015-09-26 19:45:00 25807 208 900.0 2015.0 269.00 1945.0 8.0000 8.3100 96.400 95.000 7.4600 7.5600 0.00000 0.00000 0.00 0.000 10.727 10.339 0.386 10.956 10.410 0.548
H15MET 2015-09-26 19:30:00 25806 208 900.0 2015.0 269.00 1930.0 8.0700 8.3800 95.900 94.300 7.4600 7.5200 0.00000 0.00000 0.00 0.000 10.778 10.339 0.442 11.008 10.381 0.627
H15MET 2015-09-26 19:15:00 25805 208 900.0 2015.0 269.00 1915.0 8.3600 8.6500 95.300 93.500 7.6400 7.6600 0.00000 0.00000 0.00 0.000 10.993 10.467 0.517 11.211 10.481 0.729
H15MET 2015-09-26 19:00:00 25804 208 900.0 2015.0 269.00 1900.0 8.7900 9.0900 94.500 92.400 7.9700 7.9300 0.00000 0.00000 0.00 0.000 11.318 10.705 0.622 11.550 10.676 0.878
H15MET 2015-09-26 18:45:00 25803 208 900.0 2015.0 269.00 1845.0 9.1900 9.4800 93.800 91.700 8.2500 8.2000 0.00000 0.00000 0.00 0.000 11.628 10.911 0.721 11.857 10.874 0.984
H15MET 2015-09-26 18:30:00 25802 208 900.0 2015.0 269.00 1830.0 9.5600 9.8400 93.500 90.500 8.5600 8.3600 0.00000 0.00000 0.00 0.000 11.921 11.143 0.775 12.148 10.993 1.154
H15MET 2015-09-26 18:15:00 25801 208 900.0 2015.0 269.00 1815.0 9.8700 10.1300 91.800 89.500 8.6000 8.4800 0.00000 0.00000 0.00 0.000 12.172 11.173 0.998 12.386 11.083 1.301
H15MET 2015-09-26 18:00:00 25800 208 900.0 2015.0 269.00 1800.0 10.3800 10.6200 90.100 88.300 8.8200 8.7600 0.00000 0.00000 0.00 0.000 12.595 11.341 1.247 12.798 11.295 1.497
H15MET 2015-09-26 17:45:00 25799 208 900.0 2015.0 269.00 1745.0 11.1000 11.2600 88.000 86.500 9.2000 9.0900 0.00000 0.00000 0.00 0.000 13.214 11.636 1.586 13.355 11.550 1.803
H15MET 2015-09-26 17:30:00 25798 208 900.0 2015.0 269.00 1730.0 11.7400 11.8500 85.600 83.200 9.4100 9.1000 0.00000 0.00000 0.00 0.000 13.786 11.802 1.985 13.886 11.558 2.333
H15MET 2015-09-26 17:15:00 25797 208 900.0 2015.0 269.00 1715.0 12.1500 12.2000 84.100 81.800 9.5400 9.1800 0.00100 0.00100 52.96 0.000 14.164 11.905 2.252 14.211 11.620 2.586
H15MET 2015-09-26 17:00:00 25796 208 900.0 2015.0 269.00 1700.0 12.2700 12.3100 87.100 84.200 10.1900 9.7200 0.04600 0.04500 136.40 3.198 14.276 12.436 1.842 14.314 12.050 2.262
H15MET 2015-09-26 16:45:00 25795 208 900.0 2015.0 269.00 1645.0 12.5600 12.6400 84.200 81.300 9.9600 9.5200 0.00800 0.00800 255.70 0.510 14.551 12.246 2.299 14.627 11.889 2.735
H15MET 2015-09-26 16:30:00 25794 208 900.0 2015.0 269.00 1630.0 13.1300 13.2800 80.700 76.600 9.8800 9.2500 0.00800 0.00700 256.20 2.505 15.104 12.180 2.915 15.253 11.675 3.569
H15MET 2015-09-26 16:15:00 25793 208 900.0 2015.0 269.00 1615.0 13.1100 13.2400 80.900 77.600 9.8800 9.4100 0.01400 0.01200 94.70 8.250 15.085 12.180 2.881 15.213 11.802 3.408
H15MET 2015-09-26 16:00:00 25792 208 900.0 2015.0 269.00 1600.0 13.1200 13.2200 79.500 76.500 9.6400 9.1700 0.07200 0.06400 304.00 7.460 15.094 11.986 3.094 15.193 11.612 3.570
H15MET 2015-09-26 15:45:00 25791 208 900.0 2015.0 269.00 1545.0 12.9300 12.9700 85.900 83.300 10.6100 10.2000 0.00000 0.00000 0.00 0.000 14.908 12.790 2.102 14.947 12.444 2.496
H15MET 2015-09-26 15:30:00 25790 208 900.0 2015.0 269.00 1530.0 12.8800 12.9000 85.800 83.300 10.5700 10.1400 0.01100 0.01100 249.60 0.644 14.859 12.756 2.110 14.879 12.394 2.485
H15MET 2015-09-26 15:15:00 25789 208 900.0 2015.0 269.00 1515.0 12.8800 12.9300 83.800 82.000 10.2100 9.9300 0.08500 0.06800 359.00 12.390 14.859 12.453 2.407 14.908 12.221 2.683
H15MET 2015-09-26 15:00:00 25788 208 900.0 2015.0 269.00 1500.0 13.0000 13.0300 86.200 83.300 10.7500 10.2700 0.09500 0.07400 241.20 10.180 14.976 12.910 2.067 15.006 12.503 2.506
H15MET 2015-09-26 14:45:00 25787 208 900.0 2015.0 269.00 1445.0 13.0500 13.0300 86.000 83.800 10.7700 10.3600 0.00000 0.00000 9.58 0.000 15.025 12.927 2.104 15.006 12.578 2.431
H15MET 2015-09-26 14:30:00 25786 208 900.0 2015.0 269.00 1430.0 13.1300 13.1000 84.400 82.400 10.5600 10.1700 0.00000 0.00000 0.00 0.000 15.104 12.747 2.356 15.075 12.419 2.653
H15MET 2015-09-26 14:15:00 25785 208 900.0 2015.0 269.00 1415.0 13.1500 13.0600 85.800 84.000 10.8400 10.4100 0.00100 0.00100 253.20 0.009 15.124 12.987 2.148 15.035 12.620 2.406
H15MET 2015-09-26 14:00:00 25784 208 900.0 2015.0 269.00 1400.0 13.1500 12.9200 84.000 82.300 10.5100 9.9700 0.09400 0.09200 273.40 4.123 15.124 12.705 2.420 14.898 12.254 2.637
H15MET 2015-09-26 13:45:00 25783 208 900.0 2015.0 269.00 1345.0 13.2000 13.0300 84.000 81.800 10.5500 9.9900 0.07100 0.07000 272.80 3.841 15.173 12.739 2.428 15.006 12.271 2.731
H15MET 2015-09-26 13:30:00 25782 208 900.0 2015.0 269.00 1330.0 13.4400 13.3800 82.900 80.500 10.6000 10.1000 0.07200 0.06900 264.90 5.316 15.413 12.781 2.636 15.353 12.361 2.994
H15MET 2015-09-26 13:15:00 25781 208 900.0 2015.0 269.00 1315.0 13.5800 13.4500 80.100 79.100 10.2200 9.9000 0.08000 0.07700 281.20 8.240 15.554 12.461 3.095 15.423 12.197 3.223
H15MET 2015-09-26 13:00:00 25780 208 900.0 2015.0 269.00 1300.0 13.9700 13.8100 79.800 78.200 10.5400 10.0700 0.05900 0.02300 182.40 14.680 15.954 12.730 3.223 15.789 12.336 3.442
H15MET 2015-09-26 12:45:00 25779 208 900.0 2015.0 269.00 1245.0 14.0700 13.9900 80.100 77.600 10.7000 10.1500 0.16800 0.15900 281.10 3.819 16.057 12.867 3.195 15.974 12.403 3.578
H15MET 2015-09-26 12:30:00 25778 208 900.0 2015.0 269.00 1230.0 14.0000 13.9700 78.800 77.300 10.3800 10.0600 0.09100 0.01700 39.52 17.640 15.985 12.595 3.389 15.954 12.328 3.621
H15MET 2015-09-26 12:15:00 25777 208 900.0 2015.0 269.00 1215.0 13.5700 13.5300 85.100 83.400 11.1000 10.7600 0.02200 0.01700 279.60 1.496 15.544 13.214 2.316 15.504 12.918 2.574
H15MET 2015-09-26 12:00:00 25776 208 900.0 2015.0 269.00 1200.0 13.5300 13.5300 86.200 84.500 11.2600 10.9700 0.11400 0.06000 14.19 17.430 15.504 13.355 2.139 15.504 13.100 2.403
H15MET 2015-09-26 11:45:00 25775 208 900.0 2015.0 269.00 1145.0 13.4000 13.3900 88.800 86.500 11.6000 11.1900 0.00000 0.00000 0.00 0.000 15.373 13.659 1.722 15.363 13.293 2.074
H15MET 2015-09-26 11:30:00 25774 208 900.0 2015.0 269.00 1130.0 13.2000 13.0300 88.800 87.300 11.3900 10.9700 0.01800 0.01700 285.90 1.124 15.173 13.470 1.699 15.006 13.100 1.906
H15MET 2015-09-26 11:15:00 25773 208 900.0 2015.0 269.00 1115.0 12.9200 12.8100 92.200 90.600 11.6700 11.3000 0.00200 0.00200 268.70 0.003 14.898 13.722 1.162 14.791 13.390 1.390
H15MET 2015-09-26 11:00:00 25772 208 900.0 2015.0 269.00 1100.0 12.5400 12.4800 94.000 92.700 11.6000 11.3300 0.00000 0.00000 0.00 0.000 14.532 13.659 0.872 14.475 13.417 1.057
H15MET 2015-09-26 10:45:00 25771 208 900.0 2015.0 269.00 1045.0 12.2300 12.2400 93.300 92.400 11.1900 11.0500 0.00000 0.00000 0.00 0.000 14.239 13.293 0.954 14.248 13.170 1.083
H15MET 2015-09-26 10:30:00 25770 208 900.0 2015.0 269.00 1030.0 11.8600 11.8400 96.600 95.100 11.3300 11.0800 0.00000 0.00000 0.00 0.000 13.896 13.417 0.472 13.877 13.196 0.680
H15MET 2015-09-26 10:15:00 25769 208 900.0 2015.0 269.00 1015.0 11.7700 11.7600 97.000 96.100 11.3100 11.1500 0.00000 0.00000 0.00 0.000 13.813 13.399 0.414 13.804 13.258 0.538
H15MET 2015-09-26 10:00:00 25768 208 900.0 2015.0 269.00 1000.0 11.7800 11.6800 97.200 96.000 11.3600 11.0700 0.00000 0.00000 0.00 0.000 13.822 13.444 0.387 13.731 13.187 0.549
H15MET 2015-09-26 09:45:00 25767 208 900.0 2015.0 269.00 945.0 11.5000 11.5300 96.500 95.500 10.9600 10.8400 0.00000 0.00000 0.00 0.000 13.569 13.091 0.475 13.596 12.987 0.612
H15MET 2015-09-26 09:30:00 25766 208 900.0 2015.0 269.00 930.0 11.5700 11.5100 97.200 96.300 11.1400 10.9300 0.00000 0.00000 0.00 0.000 13.632 13.249 0.382 13.578 13.065 0.502
H15MET 2015-09-26 09:15:00 25765 208 900.0 2015.0 269.00 915.0 11.6300 11.5100 98.100 97.200 11.3400 11.0900 0.00000 0.00000 0.00 0.000 13.686 13.426 0.260 13.578 13.205 0.380
H15MET 2015-09-26 09:00:00 25764 208 900.0 2015.0 269.00 900.0 11.3500 11.3000 98.700 98.300 11.1500 11.0400 0.00000 0.00000 0.00 0.000 13.435 13.258 0.175 13.390 13.161 0.228
H15MET 2015-09-26 08:45:00 25763 208 900.0 2015.0 269.00 845.0 11.2100 11.1300 99.500 99.000 11.1300 10.9800 0.00000 0.00000 0.00 0.000 13.310 13.240 0.067 13.240 13.109 0.132
H15MET 2015-09-26 08:30:00 25762 208 900.0 2015.0 269.00 830.0 11.1200 11.0700 100.000 99.300 11.1100 10.9600 0.00000 0.00000 0.00 0.000 13.231 13.222 0.000 13.187 13.091 0.092
H15MET 2015-09-26 08:15:00 25761 208 900.0 2015.0 269.00 815.0 11.1100 11.1300 100.000 99.600 11.1100 11.0700 0.00000 0.00000 0.00 0.000 13.222 13.222 0.000 13.240 13.187 0.053
H15MET 2015-09-26 08:00:00 25760 208 900.0 2015.0 269.00 800.0 11.0100 11.0600 100.000 99.700 11.0100 11.0200 0.00000 0.00000 0.00 0.000 13.135 13.135 0.000 13.179 13.144 0.040
H15MET 2015-09-26 07:45:00 25759 208 900.0 2015.0 269.00 745.0 11.0200 11.0700 100.000 100.000 11.0200 11.0700 0.00000 0.00000 0.00 0.000 13.144 13.144 0.000 13.187 13.187 0.000
H15MET 2015-09-26 07:30:00 25758 208 900.0 2015.0 269.00 730.0 10.8800 10.9500 100.000 99.900 10.8800 10.9300 0.00000 0.00000 0.00 0.000 13.022 13.022 0.000 13.083 13.065 0.013
H15MET 2015-09-26 07:15:00 25757 208 900.0 2015.0 269.00 715.0 10.9100 10.9800 100.000 99.500 10.9100 10.9100 0.00000 0.00000 0.00 0.000 13.048 13.048 0.000 13.109 13.048 0.066
H15MET 2015-09-26 07:00:00 25756 208 900.0 2015.0 269.00 700.0 10.9800 11.0500 99.900 99.200 10.9600 10.9300 0.00000 0.00000 0.00 0.000 13.109 13.091 0.013 13.170 13.065 0.105
H15MET 2015-09-26 06:45:00 25755 208 900.0 2015.0 269.00 645.0 11.0200 11.1100 99.400 98.700 10.9300 10.9200 0.00000 0.00000 0.00 0.000 13.144 13.065 0.079 13.222 13.056 0.172
H15MET 2015-09-26 06:30:00 25754 208 900.0 2015.0 269.00 630.0 11.0500 11.1200 99.200 98.500 10.9200 10.8900 0.00000 0.00000 0.00 0.000 13.170 13.056 0.105 13.231 13.030 0.198
H15MET 2015-09-26 06:15:00 25753 208 900.0 2015.0 269.00 615.0 11.0300 11.1100 99.100 98.500 10.9000 10.8800 0.00000 0.00000 0.00 0.000 13.152 13.039 0.118 13.222 13.022 0.198
H15MET 2015-09-26 06:00:00 25752 208 900.0 2015.0 269.00 600.0 11.0600 11.1400 99.200 98.500 10.9400 10.9100 0.00000 0.00000 0.00 0.000 13.179 13.074 0.105 13.249 13.048 0.199
H15MET 2015-09-26 05:45:00 25751 208 900.0 2015.0 269.00 545.0 11.0700 11.1600 99.200 98.500 10.9500 10.9300 0.00000 0.00000 0.00 0.000 13.187 13.083 0.105 13.266 13.065 0.199
H15MET 2015-09-26 05:30:00 25750 208 900.0 2015.0 269.00 530.0 11.0700 11.1700 99.100 98.400 10.9400 10.9300 0.00000 0.00000 0.00 0.000 13.187 13.074 0.119 13.275 13.065 0.212
H15MET 2015-09-26 05:15:00 25749 208 900.0 2015.0 269.00 515.0 11.0700 11.1500 99.200 98.500 10.9500 10.9200 0.00000 0.00000 0.00 0.000 13.187 13.083 0.105 13.258 13.056 0.199
H15MET 2015-09-26 05:00:00 25748 208 900.0 2015.0 269.00 500.0 11.1300 11.2100 98.800 98.100 10.9400 10.9200 0.00000 0.00000 0.00 0.000 13.240 13.074 0.159 13.310 13.056 0.253
H15MET 2015-09-26 04:45:00 25747 208 900.0 2015.0 269.00 445.0 11.2600 11.3300 98.300 97.600 11.0000 10.9600 0.00000 0.00000 0.00 0.000 13.355 13.126 0.227 13.417 13.091 0.322
H15MET 2015-09-26 04:30:00 25746 208 900.0 2015.0 269.00 430.0 11.3300 11.4000 98.100 97.300 11.0400 10.9900 0.00000 0.00000 0.00 0.000 13.417 13.161 0.255 13.479 13.117 0.364
H15MET 2015-09-26 04:15:00 25745 208 900.0 2015.0 269.00 415.0 11.3400 11.4300 97.900 97.200 11.0200 11.0000 0.00000 0.00000 0.00 0.000 13.426 13.144 0.282 13.506 13.126 0.378
H15MET 2015-09-26 04:00:00 25744 208 900.0 2015.0 269.00 400.0 11.4500 11.5600 97.500 96.600 11.0700 11.0400 0.00000 0.00000 0.00 0.000 13.524 13.187 0.338 13.623 13.161 0.463
H15MET 2015-09-26 03:45:00 25743 208 900.0 2015.0 269.00 345.0 11.5800 11.6900 97.300 96.100 11.1600 11.0800 0.00000 0.00000 0.00 0.000 13.641 13.266 0.368 13.740 13.196 0.536
H15MET 2015-09-26 03:30:00 25742 208 900.0 2015.0 269.00 330.0 11.6400 11.8100 97.800 96.300 11.3000 11.2400 0.00000 0.00000 0.00 0.000 13.695 13.390 0.301 13.850 13.337 0.512
H15MET 2015-09-26 03:15:00 25741 208 900.0 2015.0 269.00 315.0 11.6600 11.8300 97.300 96.100 11.2500 11.2200 0.00000 0.00000 0.00 0.000 13.713 13.346 0.370 13.868 13.319 0.541
H15MET 2015-09-26 03:00:00 25740 208 900.0 2015.0 269.00 300.0 11.7400 11.8800 96.800 95.800 11.2400 11.2400 0.00000 0.00000 0.00 0.000 13.786 13.337 0.441 13.914 13.337 0.584
H15MET 2015-09-26 02:45:00 25739 208 900.0 2015.0 269.00 245.0 11.8200 11.9500 96.500 95.600 11.2800 11.2700 0.00000 0.00000 0.00 0.000 13.859 13.372 0.485 13.978 13.364 0.615
H15MET 2015-09-26 02:30:00 25738 208 900.0 2015.0 269.00 230.0 11.8400 11.9700 96.600 95.700 11.3200 11.3000 0.00000 0.00000 0.00 0.000 13.877 13.408 0.472 13.997 13.390 0.602
H15MET 2015-09-26 02:15:00 25737 208 900.0 2015.0 269.00 215.0 11.8200 11.9700 96.800 95.700 11.3300 11.3000 0.00000 0.00000 0.00 0.000 13.859 13.417 0.443 13.997 13.390 0.602
H15MET 2015-09-26 02:00:00 25736 208 900.0 2015.0 269.00 200.0 11.7800 11.9500 97.000 95.400 11.3100 11.2400 0.00000 0.00000 0.00 0.000 13.822 13.399 0.415 13.978 13.337 0.643
H15MET 2015-09-26 01:45:00 25735 208 900.0 2015.0 269.00 145.0 11.7700 11.9700 96.800 95.400 11.2700 11.2600 0.00000 0.00000 0.00 0.000 13.813 13.364 0.442 13.997 13.355 0.644
H15MET 2015-09-26 01:30:00 25734 208 900.0 2015.0 269.00 130.0 11.6800 11.8900 97.100 95.500 11.2400 11.2000 0.00000 0.00000 0.00 0.000 13.731 13.337 0.398 13.923 13.302 0.627
H15MET 2015-09-26 01:15:00 25733 208 900.0 2015.0 269.00 115.0 11.4800 11.7000 97.300 95.400 11.0700 11.0000 0.00000 0.00000 0.00 0.000 13.551 13.187 0.366 13.749 13.126 0.632
H15MET 2015-09-26 01:00:00 25732 208 900.0 2015.0 269.00 100.0 11.2700 11.5300 97.800 96.000 10.9300 10.9100 0.00000 0.00000 0.00 0.000 13.364 13.065 0.294 13.596 13.048 0.544
H15MET 2015-09-26 00:45:00 25731 208 900.0 2015.0 269.00 45.0 11.1800 11.4700 97.700 95.700 10.8300 10.8100 0.00000 0.00000 0.00 0.000 13.284 12.979 0.306 13.542 12.961 0.582
H15MET 2015-09-26 00:30:00 25730 208 900.0 2015.0 269.00 30.0 11.1400 11.4500 97.600 95.500 10.7800 10.7700 0.00000 0.00000 0.00 0.000 13.249 12.935 0.318 13.524 12.927 0.609
H15MET 2015-09-26 00:15:00 25729 208 900.0 2015.0 269.00 15.0 11.0800 11.3700 97.600 95.600 10.7100 10.6900 0.00000 0.00000 0.00 0.000 13.196 12.875 0.317 13.452 12.858 0.592
H15MET 2015-09-26 00:00:00 25728 208 900.0 2015.0 268.00 2400.0 11.0700 11.4300 97.300 95.000 10.6700 10.6600 0.00000 0.00000 0.00 0.000 13.187 12.841 0.356 13.506 12.832 0.675
H15MET 2015-09-25 23:45:00 25727 208 900.0 2015.0 268.00 2345.0 11.0700 11.4000 97.300 95.100 10.6600 10.6500 0.00000 0.00000 0.00 0.000 13.187 12.832 0.356 13.479 12.824 0.660
H15MET 2015-09-25 23:30:00 25726 208 900.0 2015.0 268.00 2330.0 11.1100 11.4700 97.300 94.900 10.7000 10.6900 0.00000 0.00000 0.00 0.000 13.222 12.867 0.357 13.542 12.858 0.691
H15MET 2015-09-25 23:15:00 25725 208 900.0 2015.0 268.00 2315.0 11.1800 11.5400 97.200 95.100 10.7600 10.7800 0.00000 0.00000 0.00 0.000 13.284 12.918 0.372 13.605 12.935 0.667
H15MET 2015-09-25 23:00:00 25724 208 900.0 2015.0 268.00 2300.0 11.2400 11.5800 96.900 94.600 10.7600 10.7400 0.00000 0.00000 0.00 0.000 13.337 12.918 0.413 13.641 12.901 0.737
H15MET 2015-09-25 22:45:00 25723 208 900.0 2015.0 268.00 2245.0 11.3500 11.7200 95.800 93.300 10.7100 10.6700 0.00000 0.00000 0.00 0.000 13.435 12.875 0.564 13.768 12.841 0.922
H15MET 2015-09-25 22:30:00 25722 208 900.0 2015.0 268.00 2230.0 11.4400 11.7800 95.000 92.400 10.6700 10.5900 0.00000 0.00000 0.00 0.000 13.515 12.841 0.676 13.822 12.773 1.050
H15MET 2015-09-25 22:15:00 25721 208 900.0 2015.0 268.00 2215.0 11.5500 11.9200 95.200 92.600 10.8100 10.7600 0.00000 0.00000 0.00 0.000 13.614 12.961 0.653 13.951 12.918 1.032
H15MET 2015-09-25 22:00:00 25720 208 900.0 2015.0 268.00 2200.0 11.6400 12.0300 94.000 91.300 10.7100 10.6500 0.00000 0.00000 0.00 0.000 13.695 12.875 0.822 14.052 12.824 1.223
H15MET 2015-09-25 21:45:00 25719 208 900.0 2015.0 268.00 2145.0 11.8100 12.2100 93.000 90.300 10.7200 10.6700 0.00000 0.00000 0.00 0.000 13.850 12.884 0.969 14.220 12.841 1.379
H15MET 2015-09-25 21:30:00 25718 208 900.0 2015.0 268.00 2130.0 11.8800 12.2600 92.100 89.700 10.6400 10.6100 0.00000 0.00000 0.00 0.000 13.914 12.815 1.099 14.267 12.790 1.469
H15MET 2015-09-25 21:15:00 25717 208 900.0 2015.0 268.00 2115.0 11.9500 12.3800 91.700 88.800 10.6400 10.5900 0.00000 0.00000 0.00 0.000 13.978 12.815 1.160 14.380 12.773 1.611
H15MET 2015-09-25 21:00:00 25716 208 900.0 2015.0 268.00 2100.0 12.1600 12.5400 90.700 88.000 10.6900 10.6000 0.00000 0.00000 0.00 0.000 14.173 12.858 1.318 14.532 12.781 1.744
H15MET 2015-09-25 20:45:00 25715 208 900.0 2015.0 268.00 2045.0 12.2500 12.5600 91.000 88.900 10.8200 10.7700 0.00000 0.00000 0.00 0.000 14.257 12.970 1.283 14.551 12.927 1.615
H15MET 2015-09-25 20:30:00 25714 208 900.0 2015.0 268.00 2030.0 12.3900 12.7400 90.700 88.800 10.9200 10.9400 0.00000 0.00000 0.00 0.000 14.389 13.056 1.338 14.724 13.074 1.649
H15MET 2015-09-25 20:15:00 25713 208 900.0 2015.0 268.00 2015.0 12.4700 12.8300 91.500 89.200 11.1300 11.0900 0.00000 0.00000 0.00 0.000 14.465 13.240 1.230 14.811 13.205 1.600
H15MET 2015-09-25 20:00:00 25712 208 900.0 2015.0 268.00 2000.0 12.6200 12.9400 91.100 88.200 11.2000 11.0400 0.00000 0.00000 0.00 0.000 14.608 13.302 1.300 14.918 13.161 1.760
H15MET 2015-09-25 19:45:00 25711 208 900.0 2015.0 268.00 1945.0 12.7200 13.0700 90.700 88.200 11.2500 11.1700 0.00000 0.00000 0.00 0.000 14.704 13.346 1.368 15.045 13.275 1.775
H15MET 2015-09-25 19:30:00 25710 208 900.0 2015.0 268.00 1930.0 12.7800 13.1900 90.600 87.500 11.2900 11.1700 0.00000 0.00000 0.00 0.000 14.762 13.381 1.388 15.164 13.275 1.895
H15MET 2015-09-25 19:15:00 25709 208 900.0 2015.0 268.00 1915.0 12.9400 13.3500 89.900 87.500 11.3200 11.3200 0.00000 0.00000 0.00 0.000 14.918 13.408 1.507 15.323 13.408 1.915
H15MET 2015-09-25 19:00:00 25708 208 900.0 2015.0 268.00 1900.0 13.1200 13.6100 88.600 86.200 11.2800 11.3400 0.00000 0.00000 0.00 0.000 15.094 13.372 1.721 15.585 13.426 2.151
H15MET 2015-09-25 18:45:00 25707 208 900.0 2015.0 268.00 1845.0 13.2700 13.8500 88.000 85.300 11.3300 11.4200 0.00000 0.00000 0.00 0.000 15.243 13.417 1.829 15.830 13.497 2.327
H15MET 2015-09-25 18:30:00 25706 208 900.0 2015.0 268.00 1830.0 13.5100 14.0900 87.300 83.300 11.4400 11.3100 0.00000 0.00000 0.00 0.000 15.483 13.515 1.966 16.078 13.399 2.685
H15MET 2015-09-25 18:15:00 25705 208 900.0 2015.0 268.00 1815.0 13.9200 14.5100 86.200 81.900 11.6500 11.4500 0.00000 0.00000 0.00 0.000 15.902 13.704 2.194 16.521 13.524 2.990
H15MET 2015-09-25 18:00:00 25704 208 900.0 2015.0 268.00 1800.0 14.3800 15.0300 85.800 81.500 12.0400 11.8900 0.00000 0.00000 0.00 0.000 16.383 14.062 2.326 17.085 13.923 3.161
H15MET 2015-09-25 17:45:00 25703 208 900.0 2015.0 268.00 1745.0 14.8600 15.5300 84.700 80.600 12.3100 12.2200 0.00000 0.00000 0.00 0.000 16.899 14.314 2.586 17.642 14.229 3.423
H15MET 2015-09-25 17:30:00 25702 208 900.0 2015.0 268.00 1730.0 15.4400 16.0800 81.900 77.200 12.3600 12.0800 0.00000 0.00000 0.00 0.000 17.541 14.361 3.175 18.274 14.099 4.167
H15MET 2015-09-25 17:15:00 25701 208 900.0 2015.0 268.00 1715.0 16.1600 16.7900 81.100 75.800 12.9200 12.5000 0.00000 0.00000 0.00 0.000 18.368 14.898 3.472 19.119 14.494 4.627
H15MET 2015-09-25 17:00:00 25700 208 900.0 2015.0 268.00 1700.0 16.6800 17.2800 78.600 72.800 12.9400 12.3500 0.00300 0.00300 45.76 0.299 18.986 14.918 4.063 19.722 14.351 5.364
H15MET 2015-09-25 16:45:00 25699 208 900.0 2015.0 268.00 1645.0 16.9800 17.4900 77.700 71.600 13.0600 12.3100 0.00000 0.00000 0.00 0.000 19.351 15.035 4.315 19.985 14.314 5.676
H15MET 2015-09-25 16:30:00 25698 208 900.0 2015.0 268.00 1630.0 16.8400 17.3300 76.700 71.400 12.7200 12.1100 0.00000 0.00000 0.00 0.000 19.180 14.704 4.469 19.784 14.127 5.658
H15MET 2015-09-25 16:15:00 25697 208 900.0 2015.0 268.00 1615.0 17.0900 17.5900 75.500 70.600 12.7200 12.1800 0.00000 0.00000 0.00 0.000 19.486 14.704 4.774 20.112 14.192 5.913
H15MET 2015-09-25 16:00:00 25696 208 900.0 2015.0 268.00 1600.0 17.6400 18.0500 76.500 71.900 13.4500 12.9000 0.00000 0.00000 0.00 0.000 20.175 15.423 4.741 20.703 14.879 5.817
H15MET 2015-09-25 15:45:00 25695 208 900.0 2015.0 268.00 1545.0 17.8900 18.2800 76.000 71.600 13.6000 13.0500 0.00000 0.00000 0.00 0.000 20.495 15.574 4.919 21.004 15.025 5.965
H15MET 2015-09-25 15:30:00 25694 208 900.0 2015.0 268.00 1530.0 17.8700 18.2700 76.100 71.900 13.6100 13.1300 0.00000 0.00000 0.00 0.000 20.470 15.585 4.892 20.991 15.104 5.898
H15MET 2015-09-25 15:15:00 25693 208 900.0 2015.0 268.00 1515.0 17.8000 18.2400 75.200 69.770 13.3600 12.6200 0.00000 0.00000 0.00 0.000 20.380 15.333 5.054 20.951 14.608 6.334
H15MET 2015-09-25 15:00:00 25692 208 900.0 2015.0 268.00 1500.0 17.9800 18.3300 74.400 69.200 13.3600 12.5900 0.00000 0.00000 0.00 0.000 20.612 15.333 5.277 21.070 14.579 6.490
H15MET 2015-09-25 14:45:00 25691 208 900.0 2015.0 268.00 1445.0 18.2800 18.5400 71.100 66.840 12.9400 12.2500 0.00000 0.00000 0.00 0.000 21.004 14.918 6.070 21.349 14.257 7.079
H15MET 2015-09-25 14:30:00 25690 208 900.0 2015.0 268.00 1430.0 18.2800 18.6100 68.890 64.680 12.4700 11.8300 0.00000 0.00000 0.00 0.000 21.004 14.465 6.534 21.443 13.868 7.574
H15MET 2015-09-25 14:15:00 25689 208 900.0 2015.0 268.00 1415.0 18.4600 18.7800 66.520 61.210 12.1000 11.1600 0.00000 0.00000 0.00 0.000 21.242 14.117 7.112 21.672 13.266 8.407
H15MET 2015-09-25 14:00:00 25688 208 900.0 2015.0 268.00 1400.0 18.7100 19.1100 65.660 60.840 12.1500 11.3700 0.00000 0.00000 0.00 0.000 21.577 14.164 7.410 22.123 13.452 8.663
H15MET 2015-09-25 13:45:00 25687 208 900.0 2015.0 268.00 1345.0 19.2400 19.8700 60.790 54.540 11.4600 10.4000 0.00000 0.00000 0.00 0.000 22.303 13.533 8.745 23.193 12.612 10.543
H15MET 2015-09-25 13:30:00 25686 208 900.0 2015.0 268.00 1330.0 20.1800 20.9700 52.170 44.320 9.9500 8.3200 0.06800 0.06200 277.70 7.390 23.642 12.238 11.308 24.821 10.963 13.821
H15MET 2015-09-25 13:15:00 25685 208 900.0 2015.0 268.00 1315.0 20.6100 21.1800 48.920 42.730 9.4000 7.9500 0.12900 0.10000 287.70 16.960 24.278 11.794 12.401 25.143 10.691 14.400
H15MET 2015-09-25 13:00:00 25684 208 900.0 2015.0 268.00 1300.0 20.3100 20.8800 55.440 47.570 11.0400 9.2800 0.00000 0.00000 0.00 0.000 23.833 13.161 10.620 24.685 11.699 12.942
H15MET 2015-09-25 12:45:00 25683 208 900.0 2015.0 268.00 1245.0 19.9600 20.8200 54.650 46.500 10.4800 8.8900 0.01400 0.01300 296.70 0.885 23.322 12.679 10.577 24.594 11.395 13.158
H15MET 2015-09-25 12:30:00 25682 208 900.0 2015.0 268.00 1230.0 19.4800 20.4100 64.360 51.370 12.5300 10.0000 0.00000 0.00000 0.00 0.000 22.638 14.522 8.068 23.980 12.279 11.662
H15MET 2015-09-25 12:15:00 25681 208 900.0 2015.0 268.00 1215.0 19.0200 19.7400 70.600 60.900 13.5500 11.9200 0.00500 0.00500 271.20 0.769 21.999 15.524 6.468 23.007 13.951 8.996
H15MET 2015-09-25 12:00:00 25680 208 900.0 2015.0 268.00 1200.0 18.8500 19.6100 71.400 65.030 13.5600 12.8400 0.00000 0.00000 0.00 0.000 21.767 15.534 6.225 22.822 14.820 7.981
H15MET 2015-09-25 11:45:00 25679 208 900.0 2015.0 268.00 1145.0 18.7200 19.4800 69.320 65.340 12.9700 12.8000 0.00000 0.00000 0.00 0.000 21.591 14.947 6.624 22.638 14.782 7.846
H15MET 2015-09-25 11:30:00 25678 208 900.0 2015.0 268.00 1130.0 17.8400 18.7400 72.600 66.010 12.8600 12.2600 0.00000 0.00000 0.00 0.000 20.431 14.840 5.598 21.618 14.267 7.348
H15MET 2015-09-25 11:15:00 25677 208 900.0 2015.0 268.00 1115.0 17.4900 18.4800 74.600 67.460 12.9300 12.3400 0.00000 0.00000 0.00 0.000 19.985 14.908 5.076 21.269 14.342 6.921
H15MET 2015-09-25 11:00:00 25676 208 900.0 2015.0 268.00 1100.0 17.1900 18.3800 73.100 66.040 12.3200 11.9200 0.00100 0.00100 16.71 0.007 19.610 14.323 5.275 21.136 13.951 7.178
H15MET 2015-09-25 10:45:00 25675 208 900.0 2015.0 268.00 1045.0 17.2600 18.1600 72.200 64.200 12.1800 11.2800 0.00000 0.00000 0.00 0.000 19.697 14.192 5.476 20.846 13.372 7.463
H15MET 2015-09-25 10:30:00 25674 208 900.0 2015.0 268.00 1030.0 16.7000 17.4300 73.900 67.660 11.9900 11.3500 0.01100 0.01100 106.20 1.144 19.010 14.015 4.962 19.910 13.435 6.439
H15MET 2015-09-25 10:15:00 25673 208 900.0 2015.0 268.00 1015.0 17.3300 17.6800 73.300 69.840 12.5100 12.1000 0.00000 0.00000 0.00 0.000 19.784 14.503 5.282 20.226 14.117 6.100
H15MET 2015-09-25 10:00:00 25672 208 900.0 2015.0 268.00 1000.0 16.9600 17.1100 73.300 70.300 12.1500 11.6700 0.00000 0.00000 0.00 0.000 19.326 14.164 5.160 19.511 13.722 5.795
H15MET 2015-09-25 09:45:00 25671 208 900.0 2015.0 268.00 945.0 15.0900 15.9200 79.900 74.500 11.6400 11.3900 0.00000 0.00000 0.00 0.000 17.151 13.695 3.447 18.088 13.470 4.613
H15MET 2015-09-25 09:30:00 25670 208 900.0 2015.0 268.00 930.0 14.0400 15.0800 83.700 76.800 11.3400 11.0400 0.00000 0.00000 0.00 0.000 16.026 13.426 2.612 17.140 13.161 3.976
H15MET 2015-09-25 09:15:00 25669 208 900.0 2015.0 268.00 915.0 14.0700 15.3300 82.900 75.800 11.2200 11.1000 0.00000 0.00000 0.00 0.000 16.057 13.319 2.746 17.418 13.214 4.215
H15MET 2015-09-25 09:00:00 25668 208 900.0 2015.0 268.00 900.0 14.6300 15.0300 78.400 75.400 10.9100 10.7200 0.00000 0.00000 0.00 0.000 16.650 13.048 3.596 17.085 12.884 4.203
H15MET 2015-09-25 08:45:00 25667 208 900.0 2015.0 268.00 845.0 14.1900 14.1500 79.100 78.300 10.6100 10.4300 0.00000 0.00000 0.00 0.000 16.183 12.790 3.382 16.141 12.637 3.503
H15MET 2015-09-25 08:30:00 25666 208 900.0 2015.0 268.00 830.0 12.6700 13.4700 83.900 79.000 10.0000 9.8900 0.00000 0.00000 0.00 0.000 14.656 12.279 2.360 15.443 12.189 3.243
H15MET 2015-09-25 08:15:00 25665 208 900.0 2015.0 268.00 815.0 10.9100 11.4500 92.000 87.500 9.6600 9.4500 0.00000 0.00000 0.00 0.000 13.048 12.002 1.044 13.524 11.833 1.690
H15MET 2015-09-25 08:00:00 25664 208 900.0 2015.0 268.00 800.0 10.4300 10.9100 91.900 88.300 9.1600 9.0600 0.00000 0.00000 0.00 0.000 12.637 11.604 1.024 13.048 11.526 1.527
H15MET 2015-09-25 07:45:00 25663 208 900.0 2015.0 268.00 745.0 9.8100 10.2500 93.800 89.100 8.8500 8.5300 0.00000 0.00000 0.00 0.000 12.123 11.364 0.752 12.486 11.120 1.361
H15MET 2015-09-25 07:30:00 25662 208 900.0 2015.0 268.00 730.0 9.3300 9.6900 94.600 91.800 8.5100 8.4300 0.00000 0.00000 0.00 0.000 11.738 11.105 0.634 12.026 11.045 0.986
H15MET 2015-09-25 07:15:00 25661 208 900.0 2015.0 268.00 715.0 9.2300 9.5100 93.500 91.100 8.2400 8.1300 0.00000 0.00000 0.00 0.000 11.659 10.904 0.758 11.881 10.822 1.057
H15MET 2015-09-25 07:00:00 25660 208 900.0 2015.0 268.00 700.0 9.1100 9.4400 93.300 91.100 8.0800 8.0600 0.00000 0.00000 0.00 0.000 11.565 10.786 0.775 11.826 10.771 1.052
H15MET 2015-09-25 06:45:00 25659 208 900.0 2015.0 268.00 645.0 9.0000 9.3300 92.600 90.300 7.8700 7.8200 0.00000 0.00000 0.00 0.000 11.480 10.632 0.850 11.738 10.596 1.139
H15MET 2015-09-25 06:30:00 25658 208 900.0 2015.0 268.00 630.0 9.0200 9.3300 91.900 89.800 7.7700 7.7400 0.00000 0.00000 0.00 0.000 11.495 10.560 0.931 11.738 10.539 1.197
H15MET 2015-09-25 06:15:00 25657 208 900.0 2015.0 268.00 615.0 9.0500 9.4300 91.600 88.900 7.7500 7.7100 0.00000 0.00000 0.00 0.000 11.519 10.546 0.968 11.818 10.517 1.312
H15MET 2015-09-25 06:00:00 25656 208 900.0 2015.0 268.00 600.0 9.1800 9.5300 90.400 87.900 7.7000 7.6200 0.00000 0.00000 0.00 0.000 11.620 10.510 1.116 11.897 10.453 1.440
H15MET 2015-09-25 05:45:00 25655 208 900.0 2015.0 268.00 545.0 9.1200 9.4400 91.900 89.600 7.8800 7.8300 0.00000 0.00000 0.00 0.000 11.573 10.640 0.937 11.826 10.603 1.230
H15MET 2015-09-25 05:30:00 25654 208 900.0 2015.0 268.00 530.0 9.3200 9.6400 90.600 88.500 7.8600 7.8400 0.00000 0.00000 0.00 0.000 11.730 10.625 1.103 11.986 10.611 1.378
H15MET 2015-09-25 05:15:00 25653 208 900.0 2015.0 268.00 515.0 9.5000 9.8400 90.400 88.100 8.0200 7.9700 0.00000 0.00000 0.00 0.000 11.873 10.742 1.140 12.148 10.705 1.446
H15MET 2015-09-25 05:00:00 25652 208 900.0 2015.0 268.00 500.0 9.5000 9.7900 90.500 89.000 8.0300 8.0700 0.00000 0.00000 0.00 0.000 11.873 10.749 1.128 12.107 10.778 1.332
H15MET 2015-09-25 04:45:00 25651 208 900.0 2015.0 268.00 445.0 9.4800 9.8500 91.600 89.200 8.1900 8.1600 0.00000 0.00000 0.00 0.000 11.857 10.867 0.996 12.156 10.844 1.313
H15MET 2015-09-25 04:30:00 25650 208 900.0 2015.0 268.00 430.0 9.5700 9.8800 90.400 88.700 8.0900 8.1100 0.00000 0.00000 0.00 0.000 11.929 10.793 1.145 12.180 10.808 1.376
H15MET 2015-09-25 04:15:00 25649 208 900.0 2015.0 268.00 415.0 9.7000 10.0400 89.200 87.700 8.0100 8.0900 0.00000 0.00000 0.00 0.000 12.034 10.734 1.300 12.312 10.793 1.514
H15MET 2015-09-25 04:00:00 25648 208 900.0 2015.0 268.00 400.0 9.7500 10.0800 89.300 87.600 8.0900 8.1200 0.00000 0.00000 0.00 0.000 12.075 10.793 1.292 12.345 10.815 1.531
H15MET 2015-09-25 03:45:00 25647 208 900.0 2015.0 268.00 345.0 9.8300 10.1800 89.700 87.300 8.2200 8.1700 0.00000 0.00000 0.00 0.000 12.140 10.889 1.250 12.428 10.852 1.578
H15MET 2015-09-25 03:30:00 25646 208 900.0 2015.0 268.00 330.0 9.9300 10.2800 88.100 85.500 8.0500 7.9600 0.00000 0.00000 0.00 0.000 12.221 10.764 1.454 12.511 10.698 1.814
H15MET 2015-09-25 03:15:00 25645 208 900.0 2015.0 268.00 315.0 9.8800 10.3100 89.400 86.200 8.2200 8.1100 0.00000 0.00000 0.00 0.000 12.180 10.889 1.291 12.536 10.808 1.730
H15MET 2015-09-25 03:00:00 25644 208 900.0 2015.0 268.00 300.0 10.0100 10.4700 88.100 85.000 8.1300 8.0600 0.00000 0.00000 0.00 0.000 12.287 10.822 1.462 12.671 10.771 1.901
H15MET 2015-09-25 02:45:00 25643 208 900.0 2015.0 268.00 245.0 10.2300 10.7000 86.900 83.100 8.1500 7.9600 0.00000 0.00000 0.00 0.000 12.469 10.837 1.633 12.867 10.698 2.174
H15MET 2015-09-25 02:30:00 25642 208 900.0 2015.0 268.00 230.0 10.3700 10.7800 86.300 82.800 8.1800 7.9800 0.00000 0.00000 0.00 0.000 12.586 10.859 1.724 12.935 10.712 2.225
H15MET 2015-09-25 02:15:00 25641 208 900.0 2015.0 268.00 215.0 10.4400 10.8100 86.900 84.300 8.3600 8.2600 0.00000 0.00000 0.00 0.000 12.645 10.993 1.657 12.961 10.918 2.035
H15MET 2015-09-25 02:00:00 25640 208 900.0 2015.0 268.00 200.0 10.5500 10.9100 87.100 84.800 8.4900 8.4600 0.00000 0.00000 0.00 0.000 12.739 11.090 1.643 13.048 11.068 1.983
H15MET 2015-09-25 01:45:00 25639 208 900.0 2015.0 268.00 145.0 10.6800 11.0700 86.100 83.900 8.4500 8.4600 0.00000 0.00000 0.00 0.000 12.850 11.060 1.786 13.187 11.068 2.123
H15MET 2015-09-25 01:30:00 25638 208 900.0 2015.0 268.00 130.0 10.7400 11.1400 87.500 84.500 8.7600 8.6400 0.00000 0.00000 0.00 0.000 12.901 11.295 1.613 13.249 11.204 2.054
H15MET 2015-09-25 01:15:00 25637 208 900.0 2015.0 268.00 115.0 10.9000 11.2200 84.800 83.600 8.4400 8.5500 0.00000 0.00000 0.00 0.000 13.039 11.053 1.982 13.319 11.135 2.184
H15MET 2015-09-25 01:00:00 25636 208 900.0 2015.0 268.00 100.0 10.9800 11.3600 84.400 83.000 8.4600 8.5800 0.00000 0.00000 0.00 0.000 13.109 11.068 2.045 13.444 11.158 2.285
H15MET 2015-09-25 00:45:00 25635 208 900.0 2015.0 268.00 45.0 11.0600 11.4900 84.300 81.800 8.5200 8.4900 0.00000 0.00000 0.00 0.000 13.179 11.113 2.069 13.560 11.090 2.468
H15MET 2015-09-25 00:30:00 25634 208 900.0 2015.0 268.00 30.0 11.0000 11.4200 86.800 83.900 8.9000 8.8000 0.00000 0.00000 0.00 0.000 13.126 11.402 1.733 13.497 11.326 2.173
H15MET 2015-09-25 00:15:00 25633 208 900.0 2015.0 268.00 15.0 11.1200 11.4900 86.700 83.700 8.9900 8.8300 0.00000 0.00000 0.00 0.000 13.231 11.472 1.760 13.560 11.349 2.210
H15MET 2015-09-25 00:00:00 25632 208 900.0 2015.0 267.00 2400.0 11.1900 11.6100 84.600 83.200 8.6800 8.8600 0.00000 0.00000 0.00 0.000 13.293 11.234 2.047 13.668 11.372 2.296
H15MET 2015-09-24 23:45:00 25631 208 900.0 2015.0 267.00 2345.0 11.2300 11.6700 84.500 80.900 8.7300 8.5100 0.00000 0.00000 0.00 0.000 13.328 11.272 2.066 13.722 11.105 2.621
H15MET 2015-09-24 23:30:00 25630 208 900.0 2015.0 267.00 2330.0 11.4100 11.7100 84.300 83.000 8.8600 8.9200 0.00000 0.00000 0.00 0.000 13.488 11.372 2.118 13.759 11.418 2.339
H15MET 2015-09-24 23:15:00 25629 208 900.0 2015.0 267.00 2315.0 11.6400 11.9300 82.100 81.700 8.7000 8.9100 0.00000 0.00000 0.00 0.000 13.695 11.249 2.451 13.960 11.410 2.555
H15MET 2015-09-24 23:00:00 25628 208 900.0 2015.0 267.00 2300.0 11.6800 12.1000 84.100 82.100 9.0800 9.1400 0.00000 0.00000 0.00 0.000 13.731 11.542 2.183 14.117 11.589 2.527
H15MET 2015-09-24 22:45:00 25627 208 900.0 2015.0 267.00 2245.0 11.7500 12.2100 84.000 80.300 9.1400 8.9300 0.00000 0.00000 0.00 0.000 13.795 11.589 2.207 14.220 11.426 2.801
H15MET 2015-09-24 22:30:00 25626 208 900.0 2015.0 267.00 2230.0 11.7600 12.1800 82.900 79.000 8.9400 8.6400 0.00000 0.00000 0.00 0.000 13.804 11.433 2.361 14.192 11.204 2.980
H15MET 2015-09-24 22:15:00 25625 208 900.0 2015.0 267.00 2215.0 11.8900 12.3200 84.300 81.500 9.3400 9.2400 0.00000 0.00000 0.00 0.000 13.923 11.746 2.186 14.323 11.667 2.650
H15MET 2015-09-24 22:00:00 25624 208 900.0 2015.0 267.00 2200.0 11.9100 12.3900 83.900 80.300 9.2700 9.1000 0.00000 0.00000 0.00 0.000 13.941 11.691 2.245 14.389 11.558 2.835
H15MET 2015-09-24 21:45:00 25623 208 900.0 2015.0 267.00 2145.0 11.9700 12.4700 82.400 78.600 9.0700 8.8500 0.00000 0.00000 0.00 0.000 13.997 11.534 2.463 14.465 11.364 3.096
H15MET 2015-09-24 21:30:00 25622 208 900.0 2015.0 267.00 2130.0 12.1200 12.5900 83.700 79.300 9.4400 9.0900 0.00000 0.00000 0.00 0.000 14.136 11.826 2.304 14.579 11.550 3.018
H15MET 2015-09-24 21:15:00 25621 208 900.0 2015.0 267.00 2115.0 12.2100 12.6900 83.400 79.400 9.4900 9.2200 0.00000 0.00000 0.00 0.000 14.220 11.865 2.360 14.675 11.652 3.023
H15MET 2015-09-24 21:00:00 25620 208 900.0 2015.0 267.00 2100.0 12.3500 12.8300 83.900 80.200 9.7000 9.5100 0.00000 0.00000 0.00 0.000 14.351 12.034 2.311 14.811 11.881 2.933
H15MET 2015-09-24 20:45:00 25619 208 900.0 2015.0 267.00 2045.0 12.5200 13.0000 83.800 81.000 9.8500 9.8200 0.00000 0.00000 0.00 0.000 14.513 12.156 2.351 14.976 12.131 2.846
H15MET 2015-09-24 20:30:00 25618 208 900.0 2015.0 267.00 2030.0 12.6100 13.0900 82.400 78.800 9.6900 9.5000 0.00000 0.00000 0.00 0.000 14.599 12.026 2.569 15.065 11.873 3.194
H15MET 2015-09-24 20:15:00 25617 208 900.0 2015.0 267.00 2015.0 12.7400 13.2400 81.000 76.500 9.5700 9.2100 0.00000 0.00000 0.00 0.000 14.724 11.929 2.797 15.213 11.644 3.575
H15MET 2015-09-24 20:00:00 25616 208 900.0 2015.0 267.00 2000.0 12.9300 13.4400 82.600 79.200 10.0400 9.9100 0.00000 0.00000 0.00 0.000 14.908 12.312 2.594 15.413 12.205 3.206
H15MET 2015-09-24 19:45:00 25615 208 900.0 2015.0 267.00 1945.0 13.0700 13.5600 79.100 75.800 9.5300 9.3600 0.00000 0.00000 0.00 0.000 15.045 11.897 3.144 15.534 11.762 3.759
H15MET 2015-09-24 19:30:00 25614 208 900.0 2015.0 267.00 1930.0 13.2500 13.8100 80.900 75.500 10.0400 9.5600 0.00000 0.00000 0.00 0.000 15.223 12.312 2.908 15.789 11.921 3.868
H15MET 2015-09-24 19:15:00 25613 208 900.0 2015.0 267.00 1915.0 13.3600 14.0000 84.400 81.200 10.7900 10.8300 0.00000 0.00000 0.00 0.000 15.333 12.944 2.392 15.985 12.979 3.005
H15MET 2015-09-24 19:00:00 25612 208 900.0 2015.0 267.00 1900.0 13.5500 14.0800 82.100 78.600 10.5500 10.4300 0.00000 0.00000 0.00 0.000 15.524 12.739 2.779 16.068 12.637 3.439
H15MET 2015-09-24 18:45:00 25611 208 900.0 2015.0 267.00 1845.0 13.8300 14.3700 79.000 78.800 10.2500 10.7500 0.00000 0.00000 0.00 0.000 15.809 12.486 3.320 16.372 12.910 3.471
H15MET 2015-09-24 18:30:00 25610 208 900.0 2015.0 267.00 1830.0 14.0500 14.7500 79.400 77.500 10.5300 10.8600 0.00000 0.00000 0.00 0.000 16.037 12.722 3.304 16.779 13.004 3.775
H15MET 2015-09-24 18:15:00 25609 208 900.0 2015.0 267.00 1815.0 14.4600 15.1700 75.500 71.200 10.1900 9.9900 0.00000 0.00000 0.00 0.000 16.468 12.436 4.035 17.239 12.271 4.965
H15MET 2015-09-24 18:00:00 25608 208 900.0 2015.0 267.00 1800.0 14.7400 15.5800 73.700 68.690 10.1000 9.8500 0.00000 0.00000 0.00 0.000 16.769 12.361 4.410 17.699 12.156 5.542
H15MET 2015-09-24 17:45:00 25607 208 900.0 2015.0 267.00 1745.0 15.0700 16.0300 75.200 66.990 10.7100 9.9000 0.00000 0.00000 0.00 0.000 17.129 12.875 4.248 18.216 12.197 6.013
H15MET 2015-09-24 17:30:00 25606 208 900.0 2015.0 267.00 1730.0 15.3400 16.4800 74.400 63.600 10.8100 9.5500 0.00000 0.00000 0.00 0.000 17.429 12.961 4.462 18.746 11.913 6.824
H15MET 2015-09-24 17:15:00 25605 208 900.0 2015.0 267.00 1715.0 15.6900 16.8500 73.800 61.950 11.0200 9.5200 0.00000 0.00000 0.00 0.000 17.824 13.144 4.670 19.192 11.889 7.303
H15MET 2015-09-24 17:00:00 25604 208 900.0 2015.0 267.00 1700.0 16.2600 17.2900 69.900 59.530 10.7500 9.3400 0.00000 0.00000 0.00 0.000 18.485 12.910 5.564 19.734 11.746 7.986
H15MET 2015-09-24 16:45:00 25603 208 900.0 2015.0 267.00 1645.0 16.6100 17.5100 70.300 60.850 11.1800 9.8700 0.00000 0.00000 0.00 0.000 18.902 13.284 5.614 20.010 12.172 7.834
H15MET 2015-09-24 16:30:00 25602 208 900.0 2015.0 267.00 1630.0 16.9000 17.7100 68.040 61.880 10.9600 10.3100 0.00000 0.00000 0.00 0.000 19.253 13.091 6.153 20.264 12.536 7.725
H15MET 2015-09-24 16:15:00 25601 208 900.0 2015.0 267.00 1615.0 17.1000 18.0000 67.390 60.670 11.0100 10.2700 0.00000 0.00000 0.00 0.000 19.498 13.135 6.358 20.638 12.503 8.117
H15MET 2015-09-24 16:00:00 25600 208 900.0 2015.0 267.00 1600.0 17.3700 18.2300 66.220 58.670 11.0100 10.0000 0.00000 0.00000 0.00 0.000 19.834 13.135 6.700 20.938 12.279 8.654
H15MET 2015-09-24 15:45:00 25599 208 900.0 2015.0 267.00 1545.0 17.6600 18.5200 64.390 57.000 10.8500 9.8400 0.00000 0.00000 0.00 0.000 20.201 12.996 7.193 21.322 12.148 9.169
H15MET 2015-09-24 15:30:00 25598 208 900.0 2015.0 267.00 1530.0 18.0700 19.0600 63.080 55.000 10.9300 9.8000 0.00000 0.00000 0.00 0.000 20.729 13.065 7.653 22.054 12.115 9.924
H15MET 2015-09-24 15:15:00 25597 208 900.0 2015.0 267.00 1515.0 18.5100 19.6000 59.950 50.260 10.5800 8.9400 0.00000 0.00000 0.00 0.000 21.309 12.764 8.534 22.808 11.433 11.344
H15MET 2015-09-24 15:00:00 25596 208 900.0 2015.0 267.00 1500.0 18.8400 20.1600 56.840 45.440 10.0800 7.9300 0.00900 0.00800 41.79 5.179 21.753 12.345 9.389 23.613 10.676 12.883
H15MET 2015-09-24 14:45:00 25595 208 900.0 2015.0 267.00 1445.0 19.4600 20.6500 51.410 40.380 9.1300 6.6920 0.05600 0.03200 274.00 12.970 22.610 11.581 10.986 24.338 9.808 14.510
H15MET 2015-09-24 14:30:00 25594 208 900.0 2015.0 267.00 1430.0 19.4500 20.5700 46.100 37.850 7.4600 5.6630 0.07600 0.06100 343.70 14.780 22.596 10.339 12.179 24.218 9.135 15.051
H15MET 2015-09-24 14:15:00 25593 208 900.0 2015.0 267.00 1415.0 18.8300 20.0800 54.040 41.040 9.3300 6.4110 0.01000 0.00900 67.65 1.288 21.740 11.738 9.992 23.496 9.620 13.853
H15MET 2015-09-24 14:00:00 25592 208 900.0 2015.0 267.00 1400.0 19.2200 20.3200 46.270 37.310 7.3300 5.2310 0.00200 0.00200 326.10 2.313 22.275 10.247 11.968 23.847 8.864 14.950
H15MET 2015-09-24 13:45:00 25591 208 900.0 2015.0 267.00 1345.0 18.8600 19.9300 51.580 39.640 8.6400 5.7760 0.00300 0.00200 153.80 2.320 21.780 11.204 10.546 23.279 9.207 14.051
H15MET 2015-09-24 13:30:00 25590 208 900.0 2015.0 267.00 1330.0 19.1300 20.2100 44.310 33.940 6.6130 3.7870 0.01500 0.01400 269.00 0.589 22.150 9.755 12.336 23.686 8.011 15.647
H15MET 2015-09-24 13:15:00 25589 208 900.0 2015.0 267.00 1315.0 18.6000 19.8800 46.770 36.230 6.7330 4.3020 0.15200 0.08400 110.40 20.940 21.429 9.836 11.407 23.207 8.307 14.799
H15MET 2015-09-24 13:00:00 25588 208 900.0 2015.0 267.00 1300.0 18.1700 19.4100 60.500 48.200 10.2800 8.0200 0.07900 0.06000 99.30 16.880 20.859 12.511 8.239 22.540 10.742 11.676
H15MET 2015-09-24 12:45:00 25587 208 900.0 2015.0 267.00 1245.0 18.1900 19.0600 62.110 52.680 10.7300 9.1100 0.01600 0.01500 314.40 3.069 20.886 12.892 7.914 22.054 11.565 10.436
H15MET 2015-09-24 12:30:00 25586 208 900.0 2015.0 267.00 1230.0 17.9700 18.8200 67.890 59.360 11.9500 10.7200 0.00000 0.00000 0.00 0.000 20.599 13.978 6.614 21.726 12.884 8.829
H15MET 2015-09-24 12:15:00 25585 208 900.0 2015.0 267.00 1215.0 17.6100 18.2600 66.330 58.620 11.2300 10.0000 0.01900 0.01800 324.70 3.226 20.137 13.328 6.780 20.978 12.279 8.681
H15MET 2015-09-24 12:00:00 25584 208 900.0 2015.0 267.00 1200.0 16.4000 17.2800 73.200 66.520 11.5900 10.9800 0.00000 0.00000 0.00 0.000 18.651 13.650 4.998 19.722 13.109 6.603
H15MET 2015-09-24 11:45:00 25583 208 900.0 2015.0 267.00 1145.0 16.1700 16.8700 73.800 67.300 11.5000 10.7700 0.00000 0.00000 0.00 0.000 18.379 13.569 4.815 19.216 12.927 6.284
H15MET 2015-09-24 11:30:00 25582 208 900.0 2015.0 267.00 1130.0 15.6700 16.3600 75.300 68.190 11.3300 10.4900 0.00000 0.00000 91.20 0.004 17.801 13.417 4.397 18.603 12.688 5.918
H15MET 2015-09-24 11:15:00 25581 208 900.0 2015.0 267.00 1115.0 15.3300 15.8700 74.800 68.840 10.8800 10.1500 0.00000 0.00000 0.00 0.000 17.418 13.022 4.389 18.031 12.403 5.618
H15MET 2015-09-24 11:00:00 25580 208 900.0 2015.0 267.00 1100.0 14.7000 15.3000 81.100 72.700 11.4800 10.4000 0.00000 0.00000 0.00 0.000 16.725 13.551 3.161 17.384 12.612 4.746
H15MET 2015-09-24 10:45:00 25579 208 900.0 2015.0 267.00 1045.0 14.2100 15.1200 81.700 73.600 11.1300 10.4300 0.00000 0.00000 0.00 0.000 16.204 13.240 2.965 17.184 12.637 4.537
H15MET 2015-09-24 10:30:00 25578 208 900.0 2015.0 267.00 1030.0 13.8900 14.7600 83.300 76.400 11.1000 10.6500 0.00000 0.00000 0.00 0.000 15.871 13.214 2.650 16.790 12.824 3.962
H15MET 2015-09-24 10:15:00 25577 208 900.0 2015.0 267.00 1015.0 13.5300 13.6300 84.400 80.800 10.9500 10.4000 0.00000 0.00000 0.00 0.000 15.504 13.083 2.419 15.605 12.612 2.996
H15MET 2015-09-24 10:00:00 25576 208 900.0 2015.0 267.00 1000.0 13.4000 13.4400 83.300 81.800 10.6200 10.4100 0.00000 0.00000 0.00 0.000 15.373 12.798 2.567 15.413 12.620 2.805
H15MET 2015-09-24 09:45:00 25575 208 900.0 2015.0 267.00 945.0 13.3900 13.5600 80.700 77.900 10.1400 9.7600 0.00000 0.00000 0.00 0.000 15.363 12.394 2.965 15.534 12.083 3.433
H15MET 2015-09-24 09:30:00 25574 208 900.0 2015.0 267.00 930.0 13.0500 13.1900 80.700 79.000 9.8000 9.6300 0.00000 0.00000 0.00 0.000 15.025 12.115 2.900 15.164 11.978 3.184
H15MET 2015-09-24 09:15:00 25573 208 900.0 2015.0 267.00 915.0 12.4100 12.4600 83.300 80.900 9.6500 9.2700 0.00000 0.00000 0.00 0.000 14.408 11.994 2.406 14.456 11.691 2.761
H15MET 2015-09-24 09:00:00 25572 208 900.0 2015.0 267.00 900.0 12.1300 12.2300 87.200 84.700 10.0600 9.7300 0.00000 0.00000 0.00 0.000 14.145 12.328 1.811 14.239 12.058 2.179
H15MET 2015-09-24 08:45:00 25571 208 900.0 2015.0 267.00 845.0 11.9600 12.1100 87.900 85.200 10.0200 9.7000 0.00000 0.00000 0.00 0.000 13.988 12.295 1.692 14.127 12.034 2.091
H15MET 2015-09-24 08:30:00 25570 208 900.0 2015.0 267.00 830.0 11.7600 11.8800 88.400 85.300 9.9200 9.4900 0.00000 0.00000 0.00 0.000 13.804 12.213 1.601 13.914 11.865 2.045
H15MET 2015-09-24 08:15:00 25569 208 900.0 2015.0 267.00 815.0 11.4000 11.6000 89.000 85.800 9.6500 9.3100 0.00000 0.00000 0.00 0.000 13.479 11.994 1.483 13.659 11.722 1.940
H15MET 2015-09-24 08:00:00 25568 208 900.0 2015.0 267.00 800.0 11.1700 11.4500 87.400 83.100 9.1500 8.6800 0.00000 0.00000 0.00 0.000 13.275 11.597 1.673 13.524 11.234 2.286
H15MET 2015-09-24 07:45:00 25567 208 900.0 2015.0 267.00 745.0 10.9000 11.2200 88.600 83.500 9.0900 8.5300 0.00000 0.00000 0.00 0.000 13.039 11.550 1.486 13.319 11.120 2.198
H15MET 2015-09-24 07:30:00 25566 208 900.0 2015.0 267.00 730.0 10.6800 11.0500 89.600 85.000 9.0400 8.6400 0.00000 0.00000 0.00 0.000 12.850 11.511 1.336 13.170 11.204 1.975
H15MET 2015-09-24 07:15:00 25565 208 900.0 2015.0 267.00 715.0 10.5000 10.8900 87.900 84.500 8.5800 8.3800 0.00000 0.00000 0.00 0.000 12.696 11.158 1.536 13.030 11.008 2.020
H15MET 2015-09-24 07:00:00 25564 208 900.0 2015.0 267.00 700.0 10.2300 10.6700 86.900 84.200 8.1600 8.1100 0.00000 0.00000 0.00 0.000 12.469 10.844 1.633 12.841 10.808 2.029
H15MET 2015-09-24 06:45:00 25563 208 900.0 2015.0 267.00 645.0 10.0500 10.3800 89.000 83.600 8.3200 7.7200 0.00000 0.00000 0.00 0.000 12.320 10.963 1.355 12.595 10.524 2.066
H15MET 2015-09-24 06:30:00 25562 208 900.0 2015.0 267.00 630.0 9.9900 10.3300 86.700 86.200 7.8700 8.1200 0.00000 0.00000 0.00 0.000 12.271 10.632 1.632 12.553 10.815 1.732
H15MET 2015-09-24 06:15:00 25561 208 900.0 2015.0 267.00 615.0 9.9000 10.2700 88.500 85.200 8.0900 7.9000 0.00000 0.00000 0.00 0.000 12.197 10.793 1.403 12.503 10.654 1.850
H15MET 2015-09-24 06:00:00 25560 208 900.0 2015.0 267.00 600.0 9.8400 10.2000 87.500 84.300 7.8700 7.6600 0.00000 0.00000 0.00 0.000 12.148 10.632 1.518 12.444 10.481 1.954
H15MET 2015-09-24 05:45:00 25559 208 900.0 2015.0 267.00 545.0 9.8500 10.2500 88.700 85.100 8.0800 7.8700 0.00000 0.00000 0.00 0.000 12.156 10.786 1.374 12.486 10.632 1.860
H15MET 2015-09-24 05:30:00 25558 208 900.0 2015.0 267.00 530.0 9.9100 10.3300 89.300 85.600 8.2300 8.0200 0.00000 0.00000 0.00 0.000 12.205 10.896 1.306 12.553 10.742 1.808
H15MET 2015-09-24 05:15:00 25557 208 900.0 2015.0 267.00 515.0 9.8300 10.1800 89.300 84.700 8.1600 7.7300 0.00000 0.00000 0.00 0.000 12.140 10.844 1.299 12.428 10.531 1.901
H15MET 2015-09-24 05:00:00 25556 208 900.0 2015.0 267.00 500.0 9.8100 10.1800 90.700 87.900 8.3600 8.2600 0.00000 0.00000 0.00 0.000 12.123 10.993 1.127 12.428 10.918 1.504
H15MET 2015-09-24 04:45:00 25555 208 900.0 2015.0 267.00 445.0 9.7600 10.1700 90.200 87.100 8.2400 8.1200 0.00000 0.00000 0.00 0.000 12.083 10.904 1.184 12.419 10.815 1.602
H15MET 2015-09-24 04:30:00 25554 208 900.0 2015.0 267.00 430.0 9.7100 10.1100 91.100 87.900 8.3300 8.2000 0.00000 0.00000 0.00 0.000 12.042 10.970 1.072 12.370 10.874 1.497
H15MET 2015-09-24 04:15:00 25553 208 900.0 2015.0 267.00 415.0 9.5000 9.9100 90.500 86.800 8.0300 7.8100 0.00000 0.00000 0.00 0.000 11.873 10.749 1.128 12.205 10.589 1.611
H15MET 2015-09-24 04:00:00 25552 208 900.0 2015.0 267.00 400.0 9.4500 9.8100 90.700 87.900 8.0000 7.9000 0.00000 0.00000 0.00 0.000 11.833 10.727 1.101 12.123 10.654 1.467
H15MET 2015-09-24 03:45:00 25551 208 900.0 2015.0 267.00 345.0 9.4400 9.7900 91.000 88.200 8.0400 7.9300 0.00000 0.00000 0.00 0.000 11.826 10.756 1.064 12.107 10.676 1.429
H15MET 2015-09-24 03:30:00 25550 208 900.0 2015.0 267.00 330.0 9.3700 9.7300 91.500 88.200 8.0600 7.8700 0.00000 0.00000 0.00 0.000 11.770 10.771 1.000 12.058 10.632 1.423
H15MET 2015-09-24 03:15:00 25549 208 900.0 2015.0 267.00 315.0 9.3400 9.6800 91.300 88.200 7.9900 7.8200 0.00000 0.00000 0.00 0.000 11.746 10.720 1.022 12.018 10.596 1.418
H15MET 2015-09-24 03:00:00 25548 208 900.0 2015.0 267.00 300.0 9.2800 9.5800 91.200 88.800 7.9300 7.8300 0.00000 0.00000 0.00 0.000 11.699 10.676 1.029 11.937 10.603 1.337
H15MET 2015-09-24 02:45:00 25547 208 900.0 2015.0 267.00 245.0 9.2800 9.6000 91.200 89.000 7.9200 7.8800 0.00000 0.00000 0.00 0.000 11.699 10.669 1.029 11.953 10.640 1.315
H15MET 2015-09-24 02:30:00 25546 208 900.0 2015.0 267.00 230.0 9.3100 9.6500 90.200 87.800 7.7900 7.7300 0.00000 0.00000 0.00 0.000 11.722 10.575 1.149 11.994 10.531 1.463
H15MET 2015-09-24 02:15:00 25545 208 900.0 2015.0 267.00 215.0 9.4300 9.7300 89.500 87.800 7.8000 7.8000 0.00000 0.00000 0.00 0.000 11.818 10.582 1.241 12.058 10.582 1.471
H15MET 2015-09-24 02:00:00 25544 208 900.0 2015.0 267.00 200.0 9.5200 9.7900 88.600 86.800 7.7400 7.7000 0.00000 0.00000 0.00 0.000 11.889 10.539 1.355 12.107 10.510 1.598
H15MET 2015-09-24 01:45:00 25543 208 900.0 2015.0 267.00 145.0 9.5500 9.8900 89.500 88.300 7.9100 8.0500 0.00000 0.00000 0.00 0.000 11.913 10.661 1.251 12.189 10.764 1.426
H15MET 2015-09-24 01:30:00 25542 208 900.0 2015.0 267.00 130.0 9.6500 10.0100 89.700 87.000 8.0500 7.9400 0.00000 0.00000 0.00 0.000 11.994 10.764 1.235 12.287 10.683 1.597
H15MET 2015-09-24 01:15:00 25541 208 900.0 2015.0 267.00 115.0 9.8700 10.2800 87.900 85.400 7.9700 7.9400 0.00000 0.00000 0.00 0.000 12.172 10.705 1.473 12.511 10.683 1.827
H15MET 2015-09-24 01:00:00 25540 208 900.0 2015.0 267.00 100.0 10.0300 10.3800 88.300 85.800 8.1800 8.1100 0.00000 0.00000 0.00 0.000 12.303 10.859 1.440 12.595 10.808 1.788
H15MET 2015-09-24 00:45:00 25539 208 900.0 2015.0 267.00 45.0 10.2100 10.5700 86.900 85.800 8.1300 8.3000 0.00000 0.00000 0.00 0.000 12.453 10.822 1.631 12.756 10.948 1.811
H15MET 2015-09-24 00:30:00 25538 208 900.0 2015.0 267.00 30.0 10.2900 10.6200 87.800 86.000 8.3500 8.3700 0.00000 0.00000 0.00 0.000 12.519 10.985 1.527 12.798 11.000 1.792
H15MET 2015-09-24 00:15:00 25537 208 900.0 2015.0 267.00 15.0 10.3800 10.6700 89.600 87.300 8.7600 8.6500 0.00000 0.00000 0.00 0.000 12.595 11.295 1.310 12.841 11.211 1.631
H15MET 2015-09-24 00:00:00 25536 208 900.0 2015.0 266.00 2400.0 10.3800 10.6900 88.900 86.900 8.6300 8.5900 0.00000 0.00000 0.00 0.000 12.595 11.196 1.398 12.858 11.166 1.684
H15MET 2015-09-23 23:45:00 25535 208 900.0 2015.0 266.00 2345.0 10.2900 10.5900 89.700 87.500 8.6800 8.6100 0.00000 0.00000 0.00 0.000 12.519 11.234 1.289 12.773 11.181 1.597
H15MET 2015-09-23 23:30:00 25534 208 900.0 2015.0 266.00 2330.0 10.2400 10.4900 89.300 87.100 8.5600 8.4300 0.00000 0.00000 0.00 0.000 12.478 11.143 1.335 12.688 11.045 1.637
H15MET 2015-09-23 23:15:00 25533 208 900.0 2015.0 266.00 2315.0 10.2600 10.5100 89.400 87.400 8.6000 8.5100 0.00000 0.00000 0.00 0.000 12.494 11.173 1.324 12.705 11.105 1.601
H15MET 2015-09-23 23:00:00 25532 208 900.0 2015.0 266.00 2300.0 10.2800 10.5300 88.800 87.000 8.5200 8.4600 0.00000 0.00000 0.00 0.000 12.511 11.113 1.401 12.722 11.068 1.654
H15MET 2015-09-23 22:45:00 25531 208 900.0 2015.0 266.00 2245.0 10.3000 10.5700 87.600 86.700 8.3400 8.4400 0.00000 0.00000 0.00 0.000 12.528 10.978 1.553 12.756 11.053 1.697
H15MET 2015-09-23 22:30:00 25530 208 900.0 2015.0 266.00 2230.0 10.3400 10.6200 87.500 85.500 8.3500 8.3000 0.00000 0.00000 0.00 0.000 12.561 10.985 1.570 12.798 10.948 1.856
H15MET 2015-09-23 22:15:00 25529 208 900.0 2015.0 266.00 2215.0 10.4200 10.6900 86.300 85.400 8.2300 8.3400 0.00000 0.00000 0.00 0.000 12.629 10.896 1.730 12.858 10.978 1.877
H15MET 2015-09-23 22:00:00 25528 208 900.0 2015.0 266.00 2200.0 10.3500 10.6200 87.300 86.000 8.3400 8.3800 0.00000 0.00000 0.00 0.000 12.570 10.978 1.596 12.798 11.008 1.792
H15MET 2015-09-23 21:45:00 25527 208 900.0 2015.0 266.00 2145.0 10.4600 10.7000 87.000 86.500 8.4000 8.5400 0.00000 0.00000 0.00 0.000 12.662 11.023 1.646 12.867 11.128 1.737
H15MET 2015-09-23 21:30:00 25526 208 900.0 2015.0 266.00 2130.0 10.5200 10.8100 86.000 85.500 8.2900 8.4700 0.00000 0.00000 0.00 0.000 12.713 10.941 1.780 12.961 11.075 1.879
H15MET 2015-09-23 21:15:00 25525 208 900.0 2015.0 266.00 2115.0 10.4700 10.8300 87.900 85.700 8.5600 8.5400 0.00000 0.00000 0.00 0.000 12.671 11.143 1.533 12.979 11.128 1.856
H15MET 2015-09-23 21:00:00 25524 208 900.0 2015.0 266.00 2100.0 10.5300 10.8900 87.600 84.800 8.5500 8.4300 0.00000 0.00000 0.00 0.000 12.722 11.135 1.577 13.030 11.045 1.981
H15MET 2015-09-23 20:45:00 25523 208 900.0 2015.0 266.00 2045.0 10.6400 11.0800 86.400 83.000 8.4600 8.3000 0.00000 0.00000 0.00 0.000 12.815 11.068 1.743 13.196 10.948 2.243
H15MET 2015-09-23 20:30:00 25522 208 900.0 2015.0 266.00 2030.0 10.8900 11.1900 85.200 83.500 8.5100 8.5000 0.00000 0.00000 0.00 0.000 13.030 11.105 1.929 13.293 11.098 2.193
H15MET 2015-09-23 20:15:00 25521 208 900.0 2015.0 266.00 2015.0 10.8200 11.1500 87.600 85.600 8.8500 8.8200 0.00000 0.00000 0.00 0.000 12.970 11.364 1.608 13.258 11.341 1.909
H15MET 2015-09-23 20:00:00 25520 208 900.0 2015.0 266.00 2000.0 10.9900 11.3500 87.200 84.100 8.9500 8.7700 0.00000 0.00000 0.00 0.000 13.117 11.441 1.679 13.435 11.303 2.136
H15MET 2015-09-23 19:45:00 25519 208 900.0 2015.0 266.00 1945.0 11.1900 11.5600 84.500 83.500 8.6700 8.8600 0.00000 0.00000 0.00 0.000 13.293 11.226 2.060 13.623 11.372 2.248
H15MET 2015-09-23 19:30:00 25518 208 900.0 2015.0 266.00 1930.0 11.3000 11.7500 84.400 82.800 8.7600 8.9300 0.00000 0.00000 0.00 0.000 13.390 11.295 2.089 13.795 11.426 2.373
H15MET 2015-09-23 19:15:00 25517 208 900.0 2015.0 266.00 1915.0 11.5500 12.0200 83.000 80.700 8.7700 8.8100 0.00000 0.00000 0.00 0.000 13.614 11.303 2.314 14.043 11.333 2.710
H15MET 2015-09-23 19:00:00 25516 208 900.0 2015.0 266.00 1900.0 11.7700 12.3300 82.300 79.300 8.8600 8.8500 0.00000 0.00000 0.00 0.000 13.813 11.372 2.445 14.333 11.364 2.967
H15MET 2015-09-23 18:45:00 25515 208 900.0 2015.0 266.00 1845.0 12.0900 12.6600 81.100 77.400 8.9400 8.8100 0.00000 0.00000 0.00 0.000 14.108 11.433 2.666 14.647 11.333 3.310
H15MET 2015-09-23 18:30:00 25514 208 900.0 2015.0 266.00 1830.0 12.4300 13.0100 81.000 76.800 9.2500 9.0400 0.00000 0.00000 0.00 0.000 14.427 11.675 2.741 14.986 11.511 3.477
H15MET 2015-09-23 18:15:00 25513 208 900.0 2015.0 266.00 1815.0 12.8600 13.5700 79.800 75.000 9.4600 9.2200 0.00000 0.00000 0.00 0.000 14.840 11.841 2.998 15.544 11.652 3.886
H15MET 2015-09-23 18:00:00 25512 208 900.0 2015.0 266.00 1800.0 13.4300 14.1600 80.200 76.300 10.0800 10.0600 0.00000 0.00000 0.00 0.000 15.403 12.345 3.050 16.151 12.328 3.828
H15MET 2015-09-23 17:45:00 25511 208 900.0 2015.0 266.00 1745.0 13.7700 14.4700 79.600 73.700 10.3000 9.8400 0.00300 0.00300 325.20 1.308 15.748 12.528 3.213 16.479 12.148 4.334
H15MET 2015-09-23 17:30:00 25510 208 900.0 2015.0 266.00 1730.0 14.1400 14.7900 78.500 74.500 10.4700 10.3100 0.00000 0.00000 0.00 0.000 16.130 12.671 3.468 16.823 12.536 4.290
H15MET 2015-09-23 17:15:00 25509 208 900.0 2015.0 266.00 1715.0 14.4500 15.1500 79.800 72.800 11.0100 10.3100 0.00000 0.00000 0.00 0.000 16.457 13.135 3.324 17.217 12.536 4.683
H15MET 2015-09-23 17:00:00 25508 208 900.0 2015.0 266.00 1700.0 14.8000 15.4500 76.500 69.210 10.7100 9.8300 0.00000 0.00000 0.00 0.000 16.834 12.875 3.956 17.552 12.140 5.404
H15MET 2015-09-23 16:45:00 25507 208 900.0 2015.0 266.00 1645.0 15.1100 15.7600 73.200 67.860 10.3600 9.8400 0.00000 0.00000 0.00 0.000 17.173 12.578 4.602 17.904 12.148 5.754
H15MET 2015-09-23 16:30:00 25506 208 900.0 2015.0 266.00 1630.0 15.3800 16.1400 71.100 63.990 10.1700 9.3200 0.00000 0.00000 0.00 0.000 17.474 12.419 5.050 18.344 11.730 6.606
H15MET 2015-09-23 16:15:00 25505 208 900.0 2015.0 266.00 1615.0 15.7300 16.5600 69.840 61.860 10.2300 9.2100 0.00000 0.00000 0.00 0.000 17.870 12.469 5.390 18.842 11.644 7.186
H15MET 2015-09-23 16:00:00 25504 208 900.0 2015.0 266.00 1600.0 16.5600 17.6200 62.820 52.710 9.4000 7.7500 0.02700 0.02500 351.30 5.321 18.842 11.794 7.005 20.150 10.546 9.529
H15MET 2015-09-23 15:45:00 25503 208 900.0 2015.0 266.00 1545.0 16.5400 17.6800 62.960 50.880 9.4300 7.3300 0.00000 0.00000 0.00 0.000 18.818 11.818 6.970 20.226 10.247 9.935
H15MET 2015-09-23 15:30:00 25502 208 900.0 2015.0 266.00 1530.0 16.6500 17.8300 60.210 47.740 8.9000 6.5440 0.00000 0.00000 0.00 0.000 18.950 11.402 7.540 20.418 9.709 10.671
H15MET 2015-09-23 15:15:00 25501 208 900.0 2015.0 266.00 1515.0 16.8800 18.1400 58.890 47.550 8.7700 6.7610 0.00000 0.00000 0.00 0.000 19.229 11.303 7.905 20.820 9.855 10.920
H15MET 2015-09-23 15:00:00 25500 208 900.0 2015.0 266.00 1500.0 16.8900 17.9600 59.540 49.070 8.9500 7.0600 0.02000 0.02000 54.90 1.300 19.241 11.441 7.785 20.586 10.059 10.484
H15MET 2015-09-23 14:45:00 25499 208 900.0 2015.0 266.00 1445.0 17.1200 18.3400 54.540 42.980 7.8700 5.5020 0.00600 0.00600 119.90 0.398 19.523 10.632 8.875 21.083 9.033 12.022
H15MET 2015-09-23 14:30:00 25498 208 900.0 2015.0 266.00 1430.0 16.9300 18.0500 52.340 42.390 7.0900 5.0570 0.04000 0.03900 43.62 3.793 19.290 10.080 9.193 20.703 8.757 11.927
H15MET 2015-09-23 14:15:00 25497 208 900.0 2015.0 266.00 1415.0 16.8700 18.2600 47.850 36.550 5.6760 3.1050 0.03600 0.03600 131.90 1.136 19.216 9.143 10.021 20.978 7.634 13.310
H15MET 2015-09-23 14:00:00 25496 208 900.0 2015.0 266.00 1400.0 17.0500 18.3300 46.450 33.260 5.4390 1.8530 0.10100 0.06900 78.30 19.280 19.437 8.994 10.408 21.070 6.982 14.062
H15MET 2015-09-23 13:45:00 25495 208 900.0 2015.0 266.00 1345.0 16.8100 18.1600 45.000 31.020 4.6550 0.6360 0.17500 0.04300 137.70 14.990 19.143 8.515 10.529 20.846 6.396 14.380
H15MET 2015-09-23 13:30:00 25494 208 900.0 2015.0 266.00 1330.0 16.7400 17.9200 48.920 35.980 5.8630 2.5710 0.02000 0.01300 341.80 12.490 19.058 9.262 9.735 20.534 7.350 13.146
H15MET 2015-09-23 13:15:00 25493 208 900.0 2015.0 266.00 1315.0 16.5000 17.6000 47.800 34.820 5.3210 1.8450 0.00500 0.00300 48.45 1.318 18.770 8.920 9.798 20.124 6.978 13.117
H15MET 2015-09-23 13:00:00 25492 208 900.0 2015.0 266.00 1300.0 16.3400 17.3200 48.770 36.740 5.4490 2.2840 0.00300 0.00300 323.60 0.111 18.580 9.000 9.518 19.772 7.201 12.508
H15MET 2015-09-23 12:45:00 25491 208 900.0 2015.0 266.00 1245.0 15.7200 16.8100 49.900 39.420 5.2100 2.7910 0.02900 0.02100 128.50 13.770 17.859 8.851 8.947 19.143 7.466 11.597
H15MET 2015-09-23 12:30:00 25490 208 900.0 2015.0 266.00 1230.0 16.1900 17.2000 45.890 33.950 4.4040 1.0240 0.03200 0.01500 39.96 10.060 18.403 8.366 9.958 19.622 6.578 12.961
H15MET 2015-09-23 12:15:00 25489 208 900.0 2015.0 266.00 1215.0 15.6000 16.5300 48.120 36.090 4.5580 1.2970 0.04300 0.03000 289.50 9.590 17.722 8.457 9.194 18.806 6.709 12.019
H15MET 2015-09-23 12:00:00 25488 208 900.0 2015.0 266.00 1200.0 15.2400 16.1800 46.240 35.290 3.7410 0.7370 0.00400 0.00300 94.30 9.300 17.317 7.985 9.310 18.391 6.443 11.901
H15MET 2015-09-23 11:45:00 25487 208 900.0 2015.0 266.00 1145.0 15.4300 16.2500 50.840 40.660 5.1640 2.7270 0.01700 0.01600 295.50 3.198 17.530 8.823 8.618 18.473 7.432 10.962
H15MET 2015-09-23 11:30:00 25486 208 900.0 2015.0 266.00 1130.0 15.3700 15.8700 56.220 47.470 6.5540 4.6430 0.06300 0.05800 277.00 5.381 17.462 9.715 7.645 18.031 8.508 9.472
H15MET 2015-09-23 11:15:00 25485 208 900.0 2015.0 266.00 1115.0 14.2500 15.0900 72.000 63.890 9.2100 8.2500 0.02900 0.02700 320.80 5.559 16.246 11.644 4.549 17.151 10.911 6.193
H15MET 2015-09-23 11:00:00 25484 208 900.0 2015.0 266.00 1100.0 13.9900 14.5400 72.400 65.410 9.0600 8.0900 0.04600 0.04400 68.93 7.450 15.974 11.526 4.409 16.553 10.793 5.726
H15MET 2015-09-23 10:45:00 25483 208 900.0 2015.0 266.00 1045.0 13.4400 14.3200 81.600 73.800 10.3500 9.7100 0.00000 0.00000 0.00 0.000 15.413 12.570 2.836 16.320 12.042 4.276
H15MET 2015-09-23 10:30:00 25482 208 900.0 2015.0 266.00 1030.0 14.1100 15.1700 79.300 69.320 10.5700 9.6000 0.00000 0.00000 0.00 0.000 16.099 12.756 3.333 17.239 11.953 5.289
H15MET 2015-09-23 10:15:00 25481 208 900.0 2015.0 266.00 1015.0 14.8700 15.8300 76.800 69.410 10.8300 10.2400 0.00000 0.00000 0.00 0.000 16.910 12.979 3.923 17.985 12.478 5.502
H15MET 2015-09-23 10:00:00 25480 208 900.0 2015.0 266.00 1000.0 14.1000 14.5900 78.700 74.800 10.4500 10.1600 0.00000 0.00000 0.00 0.000 16.089 12.654 3.427 16.607 12.411 4.185
H15MET 2015-09-23 09:45:00 25479 208 900.0 2015.0 266.00 945.0 12.2000 13.2200 85.600 80.100 9.8500 9.8700 0.00000 0.00000 0.00 0.000 14.211 12.156 2.046 15.193 12.172 3.023
H15MET 2015-09-23 09:30:00 25478 208 900.0 2015.0 266.00 930.0 11.4200 12.9500 88.200 80.100 9.5300 9.6000 0.00000 0.00000 0.00 0.000 13.497 11.897 1.593 14.928 11.953 2.971
H15MET 2015-09-23 09:15:00 25477 208 900.0 2015.0 266.00 915.0 11.6300 12.8900 86.400 79.200 9.4500 9.3700 0.00000 0.00000 0.00 0.000 13.686 11.833 1.861 14.869 11.770 3.093
H15MET 2015-09-23 09:00:00 25476 208 900.0 2015.0 266.00 900.0 12.6500 12.6800 80.400 78.800 9.3500 9.1100 0.00000 0.00000 0.00 0.000 14.637 11.754 2.869 14.666 11.565 3.109
H15MET 2015-09-23 08:45:00 25475 208 900.0 2015.0 266.00 845.0 12.0200 12.3800 82.200 79.600 9.0700 8.9500 0.00000 0.00000 0.00 0.000 14.043 11.534 2.500 14.380 11.441 2.933
H15MET 2015-09-23 08:30:00 25474 208 900.0 2015.0 266.00 830.0 8.8700 10.2300 98.000 89.800 8.5700 8.6100 0.00000 0.00000 0.00 0.000 11.379 11.151 0.228 12.469 11.181 1.272
H15MET 2015-09-23 08:15:00 25473 208 900.0 2015.0 266.00 815.0 7.4800 8.1300 100.000 98.100 7.4800 7.8400 0.00000 0.00000 0.00 0.000 10.353 10.353 0.000 10.822 10.611 0.206
H15MET 2015-09-23 08:00:00 25472 208 900.0 2015.0 266.00 800.0 7.0800 7.4000 100.000 99.800 7.0800 7.3700 0.00000 0.00000 0.00 0.000 10.073 10.073 0.000 10.296 10.275 0.021
H15MET 2015-09-23 07:45:00 25471 208 900.0 2015.0 266.00 745.0 6.7530 7.0100 100.000 99.900 6.7530 6.9950 0.00000 0.00000 0.00 0.000 9.849 9.849 0.000 10.025 10.015 0.010
H15MET 2015-09-23 07:30:00 25470 208 900.0 2015.0 266.00 730.0 6.5140 6.7310 100.000 99.800 6.5140 6.7020 0.00000 0.00000 0.00 0.000 9.689 9.689 0.000 9.834 9.815 0.020
H15MET 2015-09-23 07:15:00 25469 208 900.0 2015.0 266.00 715.0 6.3980 6.6410 100.000 99.700 6.3980 6.6030 0.00000 0.00000 0.00 0.000 9.611 9.611 0.000 9.774 9.748 0.029
H15MET 2015-09-23 07:00:00 25468 208 900.0 2015.0 266.00 700.0 6.3640 6.6110 100.000 99.500 6.3640 6.5440 0.00000 0.00000 0.00 0.000 9.589 9.589 0.000 9.754 9.709 0.049
H15MET 2015-09-23 06:45:00 25467 208 900.0 2015.0 266.00 645.0 6.3470 6.5950 100.000 99.500 6.3470 6.5200 0.00000 0.00000 0.00 0.000 9.578 9.578 0.000 9.743 9.693 0.049
H15MET 2015-09-23 06:30:00 25466 208 900.0 2015.0 266.00 630.0 6.2630 6.4940 100.000 99.600 6.2630 6.4420 0.00000 0.00000 0.00 0.000 9.522 9.522 0.000 9.675 9.641 0.039
H15MET 2015-09-23 06:15:00 25465 208 900.0 2015.0 266.00 615.0 6.1710 6.3870 100.000 99.500 6.1710 6.3090 0.00000 0.00000 0.00 0.000 9.462 9.462 0.000 9.604 9.552 0.048
H15MET 2015-09-23 06:00:00 25464 208 900.0 2015.0 266.00 600.0 6.1730 6.4050 100.000 99.200 6.1730 6.2950 0.00000 0.00000 0.00 0.000 9.463 9.463 0.000 9.616 9.543 0.077
H15MET 2015-09-23 05:45:00 25463 208 900.0 2015.0 266.00 545.0 6.2020 6.4550 100.000 99.100 6.2020 6.3280 0.00000 0.00000 0.00 0.000 9.482 9.482 0.000 9.649 9.565 0.087
H15MET 2015-09-23 05:30:00 25462 208 900.0 2015.0 266.00 530.0 6.2060 6.4600 100.000 99.100 6.2060 6.3330 0.00000 0.00000 0.00 0.000 9.485 9.485 0.000 9.653 9.568 0.087
H15MET 2015-09-23 05:15:00 25461 208 900.0 2015.0 266.00 515.0 6.2260 6.4670 100.000 99.100 6.2260 6.3430 0.00000 0.00000 0.00 0.000 9.498 9.498 0.000 9.657 9.575 0.087
H15MET 2015-09-23 05:00:00 25460 208 900.0 2015.0 266.00 500.0 6.2420 6.4670 100.000 99.100 6.2420 6.3370 0.00000 0.00000 0.00 0.000 9.508 9.508 0.000 9.657 9.571 0.087
H15MET 2015-09-23 04:45:00 25459 208 900.0 2015.0 266.00 445.0 6.2990 6.5060 100.000 99.100 6.2990 6.3750 0.00000 0.00000 0.00 0.000 9.546 9.546 0.000 9.683 9.596 0.087
H15MET 2015-09-23 04:30:00 25458 208 900.0 2015.0 266.00 430.0 6.2780 6.5120 100.000 99.100 6.2780 6.3870 0.00000 0.00000 0.00 0.000 9.532 9.532 0.000 9.687 9.604 0.087
H15MET 2015-09-23 04:15:00 25457 208 900.0 2015.0 266.00 415.0 6.3020 6.5020 100.000 99.000 6.3010 6.3630 0.00000 0.00000 0.00 0.000 9.548 9.547 0.000 9.681 9.588 0.097
H15MET 2015-09-23 04:00:00 25456 208 900.0 2015.0 266.00 400.0 6.3430 6.5530 100.000 98.600 6.3370 6.3470 0.00000 0.00000 0.00 0.000 9.575 9.571 0.000 9.715 9.578 0.136
H15MET 2015-09-23 03:45:00 25455 208 900.0 2015.0 266.00 345.0 6.3960 6.6330 99.800 98.600 6.3730 6.4260 0.00000 0.00000 0.00 0.000 9.610 9.595 0.019 9.768 9.630 0.137
H15MET 2015-09-23 03:30:00 25454 208 900.0 2015.0 266.00 330.0 6.4770 6.7240 99.500 98.100 6.4100 6.4520 0.00000 0.00000 0.00 0.000 9.664 9.619 0.048 9.830 9.647 0.187
H15MET 2015-09-23 03:15:00 25453 208 900.0 2015.0 266.00 315.0 6.5930 6.8270 99.200 97.700 6.4830 6.4900 0.00000 0.00000 0.00 0.000 9.741 9.668 0.078 9.900 9.673 0.228
H15MET 2015-09-23 03:00:00 25452 208 900.0 2015.0 266.00 300.0 6.7150 7.0000 99.000 97.200 6.5690 6.5850 0.00000 0.00000 0.00 0.000 9.824 9.725 0.098 10.018 9.736 0.281
H15MET 2015-09-23 02:45:00 25451 208 900.0 2015.0 266.00 245.0 6.8150 7.0600 98.900 97.400 6.6560 6.6780 0.00000 0.00000 0.00 0.000 9.891 9.784 0.109 10.059 9.799 0.262
H15MET 2015-09-23 02:30:00 25450 208 900.0 2015.0 266.00 230.0 6.8490 7.0900 98.800 97.100 6.6710 6.6580 0.00000 0.00000 0.00 0.000 9.915 9.794 0.119 10.080 9.785 0.292
H15MET 2015-09-23 02:15:00 25449 208 900.0 2015.0 266.00 215.0 6.9450 7.1900 99.100 97.500 6.8190 6.8210 0.00000 0.00000 0.00 0.000 9.980 9.894 0.090 10.149 9.896 0.254
H15MET 2015-09-23 02:00:00 25448 208 900.0 2015.0 266.00 200.0 6.9650 7.2100 99.300 97.600 6.8700 6.8650 0.00000 0.00000 0.00 0.000 9.994 9.929 0.070 10.163 9.925 0.244
H15MET 2015-09-23 01:45:00 25447 208 900.0 2015.0 266.00 145.0 7.0700 7.3200 99.300 97.700 6.9620 6.9800 0.00000 0.00000 0.00 0.000 10.066 9.992 0.070 10.240 10.004 0.236
H15MET 2015-09-23 01:30:00 25446 208 900.0 2015.0 266.00 130.0 7.1600 7.4000 99.200 97.500 7.0500 7.0300 0.00000 0.00000 0.00 0.000 10.129 10.052 0.081 10.296 10.039 0.257
H15MET 2015-09-23 01:15:00 25445 208 900.0 2015.0 266.00 115.0 7.2800 7.5300 99.100 97.400 7.1500 7.1400 0.00000 0.00000 0.00 0.000 10.212 10.122 0.092 10.388 10.115 0.270
H15MET 2015-09-23 01:00:00 25444 208 900.0 2015.0 266.00 100.0 7.3900 7.6500 99.200 97.500 7.2700 7.2800 0.00000 0.00000 0.00 0.000 10.289 10.205 0.082 10.474 10.212 0.262
H15MET 2015-09-23 00:45:00 25443 208 900.0 2015.0 266.00 45.0 7.5000 7.7800 98.900 97.100 7.3300 7.3400 0.00000 0.00000 0.00 0.000 10.367 10.247 0.114 10.567 10.254 0.306
H15MET 2015-09-23 00:30:00 25442 208 900.0 2015.0 266.00 30.0 7.6200 7.8700 99.100 97.500 7.4800 7.4900 0.00000 0.00000 0.00 0.000 10.453 10.353 0.094 10.632 10.360 0.266
H15MET 2015-09-23 00:15:00 25441 208 900.0 2015.0 266.00 15.0 7.6900 7.9500 98.800 97.300 7.5100 7.5500 0.00000 0.00000 0.00 0.000 10.503 10.374 0.126 10.691 10.403 0.289
H15MET 2015-09-23 00:00:00 25440 208 900.0 2015.0 265.00 2400.0 7.7800 8.0200 98.600 97.100 7.5700 7.5900 0.00000 0.00000 0.00 0.000 10.567 10.417 0.148 10.742 10.431 0.312
H15MET 2015-09-22 23:45:00 25439 208 900.0 2015.0 265.00 2345.0 7.8700 8.1100 98.200 96.800 7.6000 7.6300 0.00000 0.00000 0.00 0.000 10.632 10.438 0.191 10.808 10.460 0.346
H15MET 2015-09-22 23:30:00 25438 208 900.0 2015.0 265.00 2330.0 7.9800 8.2400 97.600 96.000 7.6300 7.6500 0.00000 0.00000 0.00 0.000 10.712 10.460 0.257 10.904 10.474 0.436
H15MET 2015-09-22 23:15:00 25437 208 900.0 2015.0 265.00 2315.0 8.1500 8.4000 97.000 95.400 7.7000 7.7100 0.00000 0.00000 0.00 0.000 10.837 10.510 0.325 11.023 10.517 0.507
H15MET 2015-09-22 23:00:00 25436 208 900.0 2015.0 265.00 2300.0 8.3700 8.6200 96.500 94.900 7.8500 7.8500 0.00000 0.00000 0.00 0.000 11.000 10.618 0.385 11.188 10.618 0.571
H15MET 2015-09-22 22:45:00 25435 208 900.0 2015.0 265.00 2245.0 8.6600 8.9500 95.900 94.100 8.0400 8.0600 0.00000 0.00000 0.00 0.000 11.219 10.756 0.460 11.441 10.771 0.675
H15MET 2015-09-22 22:30:00 25434 208 900.0 2015.0 265.00 2230.0 8.9300 9.2100 96.400 95.100 8.3900 8.4600 0.00000 0.00000 0.00 0.000 11.426 11.015 0.411 11.644 11.068 0.571
H15MET 2015-09-22 22:15:00 25433 208 900.0 2015.0 265.00 2215.0 9.1000 9.3300 96.500 94.900 8.5800 8.5600 0.00000 0.00000 0.00 0.000 11.558 11.158 0.405 11.738 11.143 0.599
H15MET 2015-09-22 22:00:00 25432 208 900.0 2015.0 265.00 2200.0 9.2200 9.3900 97.000 96.000 8.7800 8.7800 0.00000 0.00000 0.00 0.000 11.652 11.310 0.350 11.786 11.310 0.471
H15MET 2015-09-22 21:45:00 25431 208 900.0 2015.0 265.00 2145.0 9.1600 9.3300 97.500 96.300 8.7800 8.7600 0.00000 0.00000 0.00 0.000 11.604 11.310 0.290 11.738 11.295 0.434
H15MET 2015-09-22 21:30:00 25430 208 900.0 2015.0 265.00 2130.0 9.1200 9.3700 97.400 95.600 8.7300 8.7100 0.00000 0.00000 0.00 0.000 11.573 11.272 0.301 11.770 11.257 0.518
H15MET 2015-09-22 21:15:00 25429 208 900.0 2015.0 265.00 2115.0 9.2600 9.4800 97.300 96.100 8.8600 8.8900 0.00000 0.00000 0.00 0.000 11.683 11.372 0.315 11.857 11.395 0.462
H15MET 2015-09-22 21:00:00 25428 208 900.0 2015.0 265.00 2100.0 9.3700 9.5700 97.100 95.400 8.9300 8.8800 0.00000 0.00000 0.00 0.000 11.770 11.426 0.341 11.929 11.387 0.549
H15MET 2015-09-22 20:45:00 25427 208 900.0 2015.0 265.00 2045.0 9.4900 9.6900 96.600 95.000 8.9700 8.9300 0.00000 0.00000 0.00 0.000 11.865 11.457 0.403 12.026 11.426 0.601
H15MET 2015-09-22 20:30:00 25426 208 900.0 2015.0 265.00 2030.0 9.6300 9.8200 95.800 94.200 8.9900 8.9300 0.00000 0.00000 0.00 0.000 11.978 11.472 0.503 12.131 11.426 0.704
H15MET 2015-09-22 20:15:00 25425 208 900.0 2015.0 265.00 2015.0 9.7600 10.0100 96.200 94.700 9.1900 9.2000 0.00000 0.00000 0.00 0.000 12.083 11.628 0.459 12.287 11.636 0.651
H15MET 2015-09-22 20:00:00 25424 208 900.0 2015.0 265.00 2000.0 9.8600 10.1600 95.500 93.800 9.1700 9.2200 0.00000 0.00000 0.00 0.000 12.164 11.612 0.547 12.411 11.652 0.769
H15MET 2015-09-22 19:45:00 25423 208 900.0 2015.0 265.00 1945.0 10.0500 10.4000 94.800 92.800 9.2600 9.2900 0.00000 0.00000 0.00 0.000 12.320 11.683 0.641 12.612 11.707 0.908
H15MET 2015-09-22 19:30:00 25422 208 900.0 2015.0 265.00 1930.0 10.3800 10.7800 94.000 91.800 9.4700 9.5100 0.00000 0.00000 0.00 0.000 12.595 11.849 0.756 12.935 11.881 1.061
H15MET 2015-09-22 19:15:00 25421 208 900.0 2015.0 265.00 1915.0 10.6700 11.0500 93.200 91.100 9.6300 9.6500 0.00000 0.00000 0.00 0.000 12.841 11.978 0.873 13.170 11.994 1.172
H15MET 2015-09-22 19:00:00 25420 208 900.0 2015.0 265.00 1900.0 11.0400 11.4600 92.900 90.100 9.9300 9.9000 0.00000 0.00000 0.00 0.000 13.161 12.221 0.934 13.533 12.197 1.340
H15MET 2015-09-22 18:45:00 25419 208 900.0 2015.0 265.00 1845.0 11.5500 11.9900 92.100 89.100 10.3100 10.2600 0.00000 0.00000 0.00 0.000 13.614 12.536 1.075 14.015 12.494 1.528
H15MET 2015-09-22 18:30:00 25418 208 900.0 2015.0 265.00 1830.0 12.1500 12.6100 92.500 89.600 10.9800 10.9400 0.00000 0.00000 0.00 0.000 14.164 13.109 1.062 14.599 13.074 1.518
H15MET 2015-09-22 18:15:00 25417 208 900.0 2015.0 265.00 1815.0 12.6400 13.0500 92.600 89.500 11.4800 11.3600 0.00000 0.00000 0.00 0.000 14.627 13.551 1.082 15.025 13.444 1.578
H15MET 2015-09-22 18:00:00 25416 208 900.0 2015.0 265.00 1800.0 13.1900 13.5900 91.400 89.300 11.8100 11.8600 0.00000 0.00000 0.00 0.000 15.164 13.850 1.304 15.564 13.896 1.665
H15MET 2015-09-22 17:45:00 25415 208 900.0 2015.0 265.00 1745.0 13.8300 14.1100 89.800 87.300 12.1800 12.0300 0.00000 0.00000 0.00 0.000 15.809 14.192 1.613 16.099 14.052 2.045
H15MET 2015-09-22 17:30:00 25414 208 900.0 2015.0 265.00 1730.0 14.1600 14.4400 88.600 86.000 12.3100 12.1300 0.00000 0.00000 0.00 0.000 16.151 14.314 1.841 16.447 14.145 2.303
H15MET 2015-09-22 17:15:00 25413 208 900.0 2015.0 265.00 1715.0 14.4200 14.7000 84.700 83.200 11.8800 11.8900 0.00000 0.00000 0.00 0.000 16.426 13.914 2.513 16.725 13.923 2.810
H15MET 2015-09-22 17:00:00 25412 208 900.0 2015.0 265.00 1700.0 14.6900 15.0200 82.800 80.000 11.7900 11.6000 0.00000 0.00000 0.00 0.000 16.715 13.831 2.875 17.074 13.659 3.415
H15MET 2015-09-22 16:45:00 25411 208 900.0 2015.0 265.00 1645.0 15.0400 15.3100 81.900 79.500 11.9700 11.7900 0.00000 0.00000 0.00 0.000 17.096 13.997 3.094 17.395 13.831 3.566
H15MET 2015-09-22 16:30:00 25410 208 900.0 2015.0 265.00 1630.0 15.2700 15.6300 80.300 77.700 11.9000 11.7500 0.00000 0.00000 0.00 0.000 17.351 13.932 3.418 17.756 13.795 3.960
H15MET 2015-09-22 16:15:00 25409 208 900.0 2015.0 265.00 1615.0 15.6300 16.1100 78.200 73.600 11.8400 11.3800 0.00000 0.00000 0.00 0.000 17.756 13.877 3.871 18.309 13.461 4.834
H15MET 2015-09-22 16:00:00 25408 208 900.0 2015.0 265.00 1600.0 16.0300 16.4100 71.700 66.540 10.9300 10.1700 0.00000 0.00000 0.00 0.000 18.216 13.065 5.155 18.663 12.419 6.245
H15MET 2015-09-22 15:45:00 25407 208 900.0 2015.0 265.00 1545.0 16.2900 16.7000 74.200 68.030 11.6800 10.7700 0.01800 0.01700 8.43 4.054 18.521 13.731 4.778 19.010 12.927 6.078
H15MET 2015-09-22 15:30:00 25406 208 900.0 2015.0 265.00 1530.0 16.8200 17.3000 74.500 68.000 12.2300 11.3300 0.00000 0.00000 0.00 0.000 19.155 14.239 4.885 19.747 13.417 6.319
H15MET 2015-09-22 15:15:00 25405 208 900.0 2015.0 265.00 1515.0 17.3300 17.7300 68.370 63.790 11.4400 10.7800 0.00100 0.00100 346.20 0.005 19.784 13.515 6.258 20.290 12.935 7.347
H15MET 2015-09-22 15:00:00 25404 208 900.0 2015.0 265.00 1500.0 17.2300 17.6900 64.860 61.610 10.5500 10.2300 0.11100 0.10500 284.10 8.590 19.660 12.739 6.908 20.239 12.469 7.770
H15MET 2015-09-22 14:45:00 25403 208 900.0 2015.0 265.00 1445.0 17.0200 17.5100 67.760 63.100 11.0000 10.4100 0.02000 0.01700 348.50 7.690 19.400 13.126 6.255 20.010 12.620 7.384
H15MET 2015-09-22 14:30:00 25402 208 900.0 2015.0 265.00 1430.0 16.8700 17.4500 65.120 61.490 10.2800 9.9700 0.20200 0.19400 272.80 8.210 19.216 12.511 6.703 19.935 12.254 7.677
H15MET 2015-09-22 14:15:00 25401 208 900.0 2015.0 265.00 1415.0 16.6800 17.1700 68.040 63.560 10.7600 10.2000 0.02900 0.02100 274.30 7.960 18.986 12.918 6.068 19.585 12.444 7.137
H15MET 2015-09-22 14:00:00 25400 208 900.0 2015.0 265.00 1400.0 16.6300 17.1400 68.450 63.030 10.7900 10.0400 0.04400 0.03700 305.40 8.690 18.926 12.944 5.971 19.548 12.312 7.227
H15MET 2015-09-22 13:45:00 25399 208 900.0 2015.0 265.00 1345.0 16.8700 17.2200 65.570 62.310 10.3600 9.9500 0.06500 0.02700 88.70 10.220 19.216 12.578 6.616 19.647 12.238 7.405
H15MET 2015-09-22 13:30:00 25398 208 900.0 2015.0 265.00 1330.0 16.4800 17.0000 68.890 64.500 10.7500 10.2600 0.11900 0.11300 275.70 6.350 18.746 12.910 5.832 19.375 12.494 6.878
H15MET 2015-09-22 13:15:00 25397 208 900.0 2015.0 265.00 1315.0 15.9900 16.4200 70.200 66.690 10.5500 10.2100 0.09900 0.09200 322.90 7.160 18.170 12.739 5.415 18.675 12.453 6.221
H15MET 2015-09-22 13:00:00 25396 208 900.0 2015.0 265.00 1300.0 15.7900 16.1100 76.000 70.200 11.5600 10.6800 0.00500 0.00500 121.20 0.540 17.939 13.623 4.305 18.309 12.850 5.456
H15MET 2015-09-22 12:45:00 25395 208 900.0 2015.0 265.00 1245.0 15.7200 15.9600 70.200 67.740 10.3200 10.0100 0.01600 0.00900 310.80 4.333 17.859 12.545 5.322 18.135 12.287 5.850
H15MET 2015-09-22 12:30:00 25394 208 900.0 2015.0 265.00 1230.0 15.1800 15.4100 72.200 69.420 10.2200 9.8400 0.04100 0.03900 282.10 4.790 17.250 12.461 4.796 17.507 12.148 5.354
H15MET 2015-09-22 12:15:00 25393 208 900.0 2015.0 265.00 1215.0 14.7800 15.0600 75.100 70.700 10.4000 9.7800 0.06900 0.00900 182.40 6.855 16.812 12.612 4.186 17.118 12.099 5.016
H15MET 2015-09-22 12:00:00 25392 208 900.0 2015.0 265.00 1200.0 14.4700 14.7700 79.900 74.800 11.0500 10.3400 0.00000 0.00000 0.00 0.000 16.479 13.170 3.312 16.801 12.561 4.234
H15MET 2015-09-22 11:45:00 25391 208 900.0 2015.0 265.00 1145.0 14.3700 14.5400 79.500 74.300 10.8600 10.0200 0.00000 0.00000 0.00 0.000 16.372 13.004 3.356 16.553 12.295 4.254
H15MET 2015-09-22 11:30:00 25390 208 900.0 2015.0 265.00 1130.0 14.6000 14.7100 76.700 72.500 10.5500 9.8200 0.00000 0.00000 0.00 0.000 16.618 12.739 3.872 16.736 12.131 4.602
H15MET 2015-09-22 11:15:00 25389 208 900.0 2015.0 265.00 1115.0 14.6100 14.8000 78.300 72.700 10.8700 9.9500 0.00000 0.00000 0.00 0.000 16.628 13.013 3.608 16.834 12.238 4.596
H15MET 2015-09-22 11:00:00 25388 208 900.0 2015.0 265.00 1100.0 14.4700 14.6500 75.600 71.400 10.1900 9.5400 0.00600 0.00600 13.21 1.643 16.479 12.436 4.021 16.671 11.905 4.768
H15MET 2015-09-22 10:45:00 25387 208 900.0 2015.0 265.00 1045.0 14.0200 14.1800 77.300 72.200 10.1000 9.2500 0.00000 0.00000 0.00 0.000 16.005 12.361 3.633 16.172 11.675 4.496
H15MET 2015-09-22 10:30:00 25386 208 900.0 2015.0 265.00 1030.0 14.1900 14.2700 73.400 71.000 9.5100 9.0800 0.06700 0.06400 288.10 7.420 16.183 11.881 4.305 16.267 11.542 4.717
H15MET 2015-09-22 10:15:00 25385 208 900.0 2015.0 265.00 1015.0 14.2600 14.1600 75.100 72.400 9.9000 9.2600 0.11200 0.10600 280.60 9.320 16.256 12.197 4.048 16.151 11.683 4.458
H15MET 2015-09-22 10:00:00 25384 208 900.0 2015.0 265.00 1000.0 14.4500 14.4800 76.900 74.200 10.4400 9.9200 0.00100 0.00100 294.80 0.007 16.457 12.645 3.802 16.489 12.213 4.254
H15MET 2015-09-22 09:45:00 25383 208 900.0 2015.0 265.00 945.0 13.3000 14.1600 82.900 76.700 10.4500 10.1200 0.00000 0.00000 0.00 0.000 15.273 12.654 2.612 16.151 12.378 3.763
H15MET 2015-09-22 09:30:00 25382 208 900.0 2015.0 265.00 930.0 13.4900 15.4000 81.000 70.200 10.3000 10.0000 0.00400 0.00400 140.70 0.490 15.463 12.528 2.938 17.496 12.279 5.214
H15MET 2015-09-22 09:15:00 25381 208 900.0 2015.0 265.00 915.0 13.4300 15.5200 81.200 70.600 10.2700 10.2100 0.00000 0.00000 0.00 0.000 15.403 12.503 2.896 17.631 12.453 5.184
H15MET 2015-09-22 09:00:00 25380 208 900.0 2015.0 265.00 900.0 14.3800 15.3500 76.800 72.700 10.3700 10.4800 0.00000 0.00000 0.00 0.000 16.383 12.586 3.801 17.440 12.679 4.761
H15MET 2015-09-22 08:45:00 25379 208 900.0 2015.0 265.00 845.0 13.7500 14.0000 79.000 77.400 10.1700 10.1100 0.00000 0.00000 0.00 0.000 15.727 12.419 3.303 15.985 12.370 3.613
H15MET 2015-09-22 08:30:00 25378 208 900.0 2015.0 265.00 830.0 11.6300 12.1500 88.000 84.300 9.7100 9.5600 0.00000 0.00000 0.00 0.000 13.686 12.042 1.642 14.164 11.921 2.224
H15MET 2015-09-22 08:15:00 25377 208 900.0 2015.0 265.00 815.0 10.9400 11.0200 92.000 90.300 9.6900 9.4900 0.00000 0.00000 0.00 0.000 13.074 12.026 1.046 13.144 11.865 1.275
H15MET 2015-09-22 08:00:00 25376 208 900.0 2015.0 265.00 800.0 11.0500 11.0300 91.600 90.800 9.7300 9.5900 0.12600 0.12300 277.20 5.650 13.170 12.058 1.106 13.152 11.945 1.210
H15MET 2015-09-22 07:45:00 25375 208 900.0 2015.0 265.00 745.0 10.8900 10.9300 92.000 91.200 9.6400 9.5600 0.00000 0.00000 0.00 0.000 13.030 11.986 1.042 13.065 11.921 1.150
H15MET 2015-09-22 07:30:00 25374 208 900.0 2015.0 265.00 730.0 10.6100 10.6400 93.400 92.000 9.5900 9.3900 0.00000 0.00000 0.00 0.000 12.790 11.945 0.844 12.815 11.786 1.025
H15MET 2015-09-22 07:15:00 25373 208 900.0 2015.0 265.00 715.0 10.3900 10.4300 94.300 93.000 9.5100 9.3500 0.00000 0.00000 0.00 0.000 12.603 11.881 0.718 12.637 11.754 0.885
H15MET 2015-09-22 07:00:00 25372 208 900.0 2015.0 265.00 700.0 10.2600 10.3200 95.800 94.500 9.6100 9.4800 0.00000 0.00000 0.00 0.000 12.494 11.962 0.525 12.545 11.857 0.690
H15MET 2015-09-22 06:45:00 25371 208 900.0 2015.0 265.00 645.0 10.1500 10.2400 95.900 95.000 9.5300 9.4800 0.00000 0.00000 0.00 0.000 12.403 11.897 0.509 12.478 11.857 0.624
H15MET 2015-09-22 06:30:00 25370 208 900.0 2015.0 265.00 630.0 10.0900 10.2000 95.800 94.500 9.4500 9.3600 0.00000 0.00000 0.00 0.000 12.353 11.833 0.519 12.444 11.762 0.684
H15MET 2015-09-22 06:15:00 25369 208 900.0 2015.0 265.00 615.0 10.0400 10.1600 94.400 93.500 9.1800 9.1600 0.00000 0.00000 0.00 0.000 12.312 11.620 0.689 12.411 11.604 0.807
H15MET 2015-09-22 06:00:00 25368 208 900.0 2015.0 265.00 600.0 10.1000 10.2200 95.500 94.300 9.4100 9.3400 0.00000 0.00000 0.00 0.000 12.361 11.802 0.556 12.461 11.746 0.710
H15MET 2015-09-22 05:45:00 25367 208 900.0 2015.0 265.00 545.0 10.0000 10.1500 94.800 93.500 9.2100 9.1400 0.00000 0.00000 0.00 0.000 12.279 11.644 0.638 12.403 11.589 0.806
H15MET 2015-09-22 05:30:00 25366 208 900.0 2015.0 265.00 530.0 9.9500 10.0800 93.900 92.000 9.0100 8.8400 0.00000 0.00000 0.00 0.000 12.238 11.488 0.746 12.345 11.356 0.988
H15MET 2015-09-22 05:15:00 25365 208 900.0 2015.0 265.00 515.0 9.9000 10.0200 93.100 92.100 8.8300 8.7900 0.00000 0.00000 0.00 0.000 12.197 11.349 0.842 12.295 11.318 0.971
H15MET 2015-09-22 05:00:00 25364 208 900.0 2015.0 265.00 500.0 9.8600 10.0200 93.500 92.700 8.8700 8.9000 0.00000 0.00000 0.00 0.000 12.164 11.379 0.791 12.295 11.402 0.898
H15MET 2015-09-22 04:45:00 25363 208 900.0 2015.0 265.00 445.0 9.9900 10.1500 93.800 92.600 9.0400 9.0000 0.00000 0.00000 0.00 0.000 12.271 11.511 0.761 12.403 11.480 0.918
H15MET 2015-09-22 04:30:00 25362 208 900.0 2015.0 265.00 430.0 10.0500 10.2500 94.200 92.400 9.1600 9.0700 0.00000 0.00000 0.00 0.000 12.320 11.604 0.715 12.486 11.534 0.949
H15MET 2015-09-22 04:15:00 25361 208 900.0 2015.0 265.00 415.0 10.0200 10.2700 93.700 91.800 9.0600 9.0000 0.00000 0.00000 0.00 0.000 12.295 11.526 0.775 12.503 11.480 1.025
H15MET 2015-09-22 04:00:00 25360 208 900.0 2015.0 265.00 400.0 10.2300 10.4800 93.000 91.200 9.1500 9.1100 0.00000 0.00000 0.00 0.000 12.469 11.597 0.873 12.679 11.565 1.116
H15MET 2015-09-22 03:45:00 25359 208 900.0 2015.0 265.00 345.0 10.4800 10.7300 92.400 90.600 9.3100 9.2600 0.00000 0.00000 0.00 0.000 12.679 11.722 0.964 12.892 11.683 1.212
H15MET 2015-09-22 03:30:00 25358 208 900.0 2015.0 265.00 330.0 10.7400 10.9600 90.300 89.000 9.2200 9.2200 0.00000 0.00000 0.00 0.000 12.901 11.652 1.251 13.091 11.652 1.440
H15MET 2015-09-22 03:15:00 25357 208 900.0 2015.0 265.00 315.0 11.0600 11.2400 91.300 90.000 9.7000 9.6700 0.00000 0.00000 0.00 0.000 13.179 12.034 1.147 13.337 12.010 1.334
H15MET 2015-09-22 03:00:00 25356 208 900.0 2015.0 265.00 300.0 11.1700 11.3400 91.800 89.500 9.9000 9.6800 0.00000 0.00000 0.00 0.000 13.275 12.197 1.089 13.426 12.018 1.410
H15MET 2015-09-22 02:45:00 25355 208 900.0 2015.0 265.00 245.0 11.2200 11.3900 91.100 89.400 9.8100 9.7100 0.00000 0.00000 0.00 0.000 13.319 12.123 1.185 13.470 12.042 1.428
H15MET 2015-09-22 02:30:00 25354 208 900.0 2015.0 265.00 230.0 11.2600 11.4300 91.000 88.200 9.8400 9.5600 0.00000 0.00000 0.00 0.000 13.355 12.148 1.202 13.506 11.921 1.594
H15MET 2015-09-22 02:15:00 25353 208 900.0 2015.0 265.00 215.0 11.3100 11.4800 90.600 88.800 9.8300 9.6900 0.00000 0.00000 0.00 0.000 13.399 12.140 1.260 13.551 12.026 1.518
H15MET 2015-09-22 02:00:00 25352 208 900.0 2015.0 265.00 200.0 11.4800 11.6200 92.700 90.100 10.3300 10.0600 0.00000 0.00000 0.00 0.000 13.551 12.553 0.989 13.677 12.328 1.354
H15MET 2015-09-22 01:45:00 25351 208 900.0 2015.0 265.00 145.0 11.6000 11.7400 91.000 89.700 10.1800 10.1100 0.00000 0.00000 0.00 0.000 13.659 12.428 1.229 13.786 12.370 1.420
H15MET 2015-09-22 01:30:00 25350 208 900.0 2015.0 265.00 130.0 11.6500 11.7700 90.700 89.800 10.1800 10.1400 0.00000 0.00000 0.00 0.000 13.704 12.428 1.274 13.813 12.394 1.409
H15MET 2015-09-22 01:15:00 25349 208 900.0 2015.0 265.00 115.0 11.6500 11.7600 92.000 90.700 10.3900 10.2800 0.00000 0.00000 0.00 0.000 13.704 12.603 1.096 13.804 12.511 1.284
H15MET 2015-09-22 01:00:00 25348 208 900.0 2015.0 265.00 100.0 11.6400 11.7600 91.700 90.700 10.3300 10.2900 0.00000 0.00000 0.00 0.000 13.695 12.553 1.137 13.804 12.519 1.284
H15MET 2015-09-22 00:45:00 25347 208 900.0 2015.0 265.00 45.0 11.6700 11.7800 92.400 91.400 10.4800 10.4300 0.00000 0.00000 0.00 0.000 13.722 12.679 1.043 13.822 12.637 1.189
H15MET 2015-09-22 00:30:00 25346 208 900.0 2015.0 265.00 30.0 11.7700 11.8500 93.000 92.100 10.6700 10.6100 0.00000 0.00000 0.00 0.000 13.813 12.841 0.967 13.886 12.790 1.097
H15MET 2015-09-22 00:15:00 25345 208 900.0 2015.0 265.00 15.0 11.9600 12.0700 94.700 93.000 11.1400 10.9700 0.00000 0.00000 0.00 0.000 13.988 13.249 0.741 14.089 13.100 0.986
H15MET 2015-09-22 00:00:00 25344 208 900.0 2015.0 264.00 2400.0 12.0300 12.1700 93.800 92.900 11.0600 11.0600 0.00000 0.00000 0.00 0.000 14.052 13.179 0.871 14.182 13.179 1.007
H15MET 2015-09-21 23:45:00 25343 208 900.0 2015.0 264.00 2345.0 12.0400 12.1700 93.800 92.600 11.0800 11.0100 0.00000 0.00000 0.00 0.000 14.062 13.196 0.872 14.182 13.135 1.050
H15MET 2015-09-21 23:30:00 25342 208 900.0 2015.0 264.00 2330.0 12.0400 12.2000 95.300 93.900 11.3100 11.2500 0.00000 0.00000 0.00 0.000 14.062 13.399 0.661 14.211 13.346 0.867
H15MET 2015-09-21 23:15:00 25341 208 900.0 2015.0 264.00 2315.0 12.0800 12.2200 95.800 94.200 11.4200 11.3100 0.00000 0.00000 0.00 0.000 14.099 13.497 0.592 14.229 13.399 0.825
H15MET 2015-09-21 23:00:00 25340 208 900.0 2015.0 264.00 2300.0 12.0200 12.1800 95.200 93.500 11.2800 11.1600 0.00000 0.00000 0.00 0.000 14.043 13.372 0.674 14.192 13.266 0.922
H15MET 2015-09-21 22:45:00 25339 208 900.0 2015.0 264.00 2245.0 11.9800 12.1500 95.700 94.000 11.3200 11.2200 0.00000 0.00000 0.00 0.000 14.006 13.408 0.602 14.164 13.319 0.850
H15MET 2015-09-21 22:30:00 25338 208 900.0 2015.0 264.00 2230.0 11.9300 12.1000 96.200 94.400 11.3400 11.2400 0.00000 0.00000 0.00 0.000 13.960 13.426 0.530 14.117 13.337 0.791
H15MET 2015-09-21 22:15:00 25337 208 900.0 2015.0 264.00 2215.0 11.8800 12.0600 96.800 95.300 11.3800 11.3300 0.00000 0.00000 0.00 0.000 13.914 13.461 0.445 14.080 13.417 0.662
H15MET 2015-09-21 22:00:00 25336 208 900.0 2015.0 264.00 2200.0 11.8300 12.0000 97.100 95.600 11.3800 11.3200 0.00000 0.00000 0.00 0.000 13.868 13.461 0.402 14.025 13.408 0.617
H15MET 2015-09-21 21:45:00 25335 208 900.0 2015.0 264.00 2145.0 11.6600 11.8700 97.600 95.800 11.3000 11.2200 0.00000 0.00000 0.00 0.000 13.713 13.390 0.329 13.905 13.319 0.584
H15MET 2015-09-21 21:30:00 25334 208 900.0 2015.0 264.00 2130.0 11.4700 11.7000 97.900 96.300 11.1600 11.1300 0.00000 0.00000 0.00 0.000 13.542 13.266 0.284 13.749 13.240 0.509
H15MET 2015-09-21 21:15:00 25333 208 900.0 2015.0 264.00 2115.0 11.3100 11.5300 98.400 97.000 11.0800 11.0800 0.00000 0.00000 0.00 0.000 13.399 13.196 0.214 13.596 13.196 0.408
H15MET 2015-09-21 21:00:00 25332 208 900.0 2015.0 264.00 2100.0 11.3000 11.5600 98.000 96.600 11.0000 11.0300 0.00000 0.00000 0.00 0.000 13.390 13.126 0.268 13.623 13.152 0.463
H15MET 2015-09-21 20:45:00 25331 208 900.0 2015.0 264.00 2045.0 11.3300 11.6400 97.700 96.200 10.9700 11.0500 0.00000 0.00000 0.00 0.000 13.417 13.100 0.309 13.695 13.170 0.520
H15MET 2015-09-21 20:30:00 25330 208 900.0 2015.0 264.00 2030.0 11.4200 11.7200 97.500 95.900 11.0300 11.0900 0.00000 0.00000 0.00 0.000 13.497 13.152 0.337 13.768 13.205 0.564
H15MET 2015-09-21 20:15:00 25329 208 900.0 2015.0 264.00 2015.0 11.5200 11.8700 97.100 95.300 11.0700 11.1500 0.00000 0.00000 0.00 0.000 13.587 13.187 0.394 13.905 13.258 0.654
H15MET 2015-09-21 20:00:00 25328 208 900.0 2015.0 264.00 2000.0 11.6800 12.0500 96.600 94.900 11.1600 11.2500 0.00000 0.00000 0.00 0.000 13.731 13.266 0.467 14.071 13.346 0.718
H15MET 2015-09-21 19:45:00 25327 208 900.0 2015.0 264.00 1945.0 11.8300 12.2100 96.200 94.100 11.2400 11.2900 0.00000 0.00000 0.00 0.000 13.868 13.337 0.527 14.220 13.381 0.839
H15MET 2015-09-21 19:30:00 25326 208 900.0 2015.0 264.00 1930.0 12.1500 12.5800 94.700 92.300 11.3200 11.3700 0.00000 0.00000 0.00 0.000 14.164 13.408 0.751 14.570 13.452 1.122
H15MET 2015-09-21 19:15:00 25325 208 900.0 2015.0 264.00 1915.0 12.5300 12.9800 94.300 91.800 11.6300 11.6800 0.00000 0.00000 0.00 0.000 14.522 13.686 0.828 14.957 13.731 1.226
H15MET 2015-09-21 19:00:00 25324 208 900.0 2015.0 264.00 1900.0 12.9500 13.4000 93.200 90.300 11.8900 11.8300 0.00000 0.00000 0.00 0.000 14.928 13.923 1.015 15.373 13.868 1.491
H15MET 2015-09-21 18:45:00 25323 208 900.0 2015.0 264.00 1845.0 13.4300 13.8400 92.400 89.600 12.2200 12.1600 0.00000 0.00000 0.00 0.000 15.403 14.229 1.171 15.819 14.173 1.645
H15MET 2015-09-21 18:30:00 25322 208 900.0 2015.0 264.00 1830.0 13.7800 14.2300 92.000 88.600 12.5000 12.3800 0.00000 0.00000 0.00 0.000 15.758 14.494 1.261 16.225 14.380 1.850
H15MET 2015-09-21 18:15:00 25321 208 900.0 2015.0 264.00 1815.0 14.1200 14.5800 91.500 87.200 12.7600 12.4800 0.00000 0.00000 0.00 0.000 16.110 14.743 1.369 16.596 14.475 2.124
H15MET 2015-09-21 18:00:00 25320 208 900.0 2015.0 264.00 1800.0 14.5800 15.0400 90.600 87.300 13.0700 12.9400 0.00000 0.00000 0.00 0.000 16.596 15.045 1.560 17.096 14.918 2.171
H15MET 2015-09-21 17:45:00 25319 208 900.0 2015.0 264.00 1745.0 15.1100 15.5800 88.800 84.900 13.2800 13.0400 0.00000 0.00000 0.00 0.000 17.173 15.253 1.923 17.699 15.016 2.673
H15MET 2015-09-21 17:30:00 25318 208 900.0 2015.0 264.00 1730.0 15.8100 16.2800 83.500 80.200 13.0300 12.8700 0.01900 0.01900 322.40 0.691 17.962 15.006 2.964 18.509 14.850 3.665
H15MET 2015-09-21 17:15:00 25317 208 900.0 2015.0 264.00 1715.0 16.1400 16.7400 82.200 77.600 13.1000 12.8100 0.00600 0.00600 105.50 1.731 18.344 15.075 3.265 19.058 14.791 4.269
H15MET 2015-09-21 17:00:00 25316 208 900.0 2015.0 264.00 1700.0 16.5000 17.1900 82.700 76.000 13.5500 12.9200 0.00600 0.00600 328.20 2.131 18.770 15.524 3.247 19.610 14.898 4.706
H15MET 2015-09-21 16:45:00 25315 208 900.0 2015.0 264.00 1645.0 17.0700 17.6800 79.800 74.400 13.5500 13.0800 0.04200 0.04000 322.10 4.397 19.461 15.524 3.931 20.226 15.055 5.178
H15MET 2015-09-21 16:30:00 25314 208 900.0 2015.0 264.00 1630.0 17.7200 18.2800 74.200 70.000 13.0500 12.7200 0.05300 0.04800 313.00 7.390 20.277 15.025 5.232 21.004 14.704 6.301
H15MET 2015-09-21 16:15:00 25313 208 900.0 2015.0 264.00 1615.0 17.8800 18.4600 73.800 69.680 13.1400 12.8200 0.08100 0.07300 279.50 11.890 20.483 15.114 5.366 21.242 14.801 6.441
H15MET 2015-09-21 16:00:00 25312 208 900.0 2015.0 264.00 1600.0 18.2800 18.8500 72.300 68.290 13.2100 12.8800 0.05600 0.05500 253.70 2.350 21.004 15.183 5.818 21.767 14.859 6.902
H15MET 2015-09-21 15:45:00 25311 208 900.0 2015.0 264.00 1545.0 18.4300 19.0400 70.100 66.270 12.8900 12.6000 0.02000 0.01100 345.80 18.540 21.202 14.869 6.340 22.026 14.589 7.430
H15MET 2015-09-21 15:30:00 25310 208 900.0 2015.0 264.00 1530.0 18.7100 19.3200 68.720 64.300 12.8500 12.4100 0.02700 0.02600 261.40 3.138 21.577 14.830 6.749 22.414 14.408 8.002
H15MET 2015-09-21 15:15:00 25309 208 900.0 2015.0 264.00 1515.0 18.9200 19.5400 66.330 62.410 12.5000 12.1700 0.04800 0.03600 296.20 10.640 21.862 14.494 7.361 22.723 14.182 8.541
H15MET 2015-09-21 15:00:00 25308 208 900.0 2015.0 264.00 1500.0 19.4500 19.9500 63.390 59.550 12.3100 11.8400 0.09600 0.09300 261.90 6.418 22.596 14.314 8.272 23.308 13.877 9.428
H15MET 2015-09-21 14:45:00 25307 208 900.0 2015.0 264.00 1445.0 19.4100 20.0000 61.220 58.010 11.7500 11.4900 0.03800 0.03400 287.60 7.140 22.540 13.795 8.741 23.380 13.560 9.817
H15MET 2015-09-21 14:30:00 25306 208 900.0 2015.0 264.00 1430.0 19.2300 19.8000 61.020 56.640 11.5200 10.9400 0.07300 0.06900 300.80 6.888 22.289 13.587 8.688 23.092 13.074 10.013
H15MET 2015-09-21 14:15:00 25305 208 900.0 2015.0 264.00 1415.0 19.2800 19.7800 57.680 54.580 10.7200 10.3700 0.00000 0.00000 33.32 0.003 22.358 12.884 9.462 23.064 12.586 10.476
H15MET 2015-09-21 14:00:00 25304 208 900.0 2015.0 264.00 1400.0 19.3000 19.8700 57.790 53.820 10.7600 10.2300 0.10000 0.09000 327.70 7.620 22.386 12.918 9.449 23.193 12.469 10.710
H15MET 2015-09-21 13:45:00 25303 208 900.0 2015.0 264.00 1345.0 19.0600 19.5800 55.940 51.900 10.0500 9.4300 0.12700 0.10500 330.50 17.110 22.054 12.320 9.717 22.779 11.818 10.957
H15MET 2015-09-21 13:30:00 25302 208 900.0 2015.0 264.00 1330.0 19.0000 19.5100 55.000 51.390 9.7200 9.2000 0.07200 0.05300 295.20 17.930 21.972 12.050 9.887 22.680 11.636 11.025
H15MET 2015-09-21 13:15:00 25301 208 900.0 2015.0 264.00 1315.0 18.8300 19.3700 55.640 52.350 9.7500 9.3600 0.05600 0.03900 280.20 15.040 21.740 12.075 9.644 22.484 11.762 10.714
H15MET 2015-09-21 13:00:00 25300 208 900.0 2015.0 264.00 1300.0 18.5600 19.0100 56.830 53.430 9.8300 9.3400 0.06200 0.05400 316.40 13.360 21.376 12.140 9.228 21.985 11.746 10.239
H15MET 2015-09-21 12:45:00 25299 208 900.0 2015.0 264.00 1245.0 17.8900 18.5300 63.560 57.650 10.8600 10.0200 0.03500 0.02500 312.10 15.000 20.495 13.004 7.469 21.336 12.295 9.036
H15MET 2015-09-21 12:30:00 25298 208 900.0 2015.0 264.00 1230.0 17.5400 18.0000 69.380 63.560 11.8500 10.9700 0.13200 0.12700 274.60 6.596 20.048 13.886 6.139 20.638 13.100 7.520
H15MET 2015-09-21 12:15:00 25297 208 900.0 2015.0 264.00 1215.0 17.9900 18.2800 64.850 62.150 11.2600 10.9000 0.16200 0.09600 254.80 21.060 20.625 13.355 7.250 21.004 13.039 7.950
H15MET 2015-09-21 12:00:00 25296 208 900.0 2015.0 264.00 1200.0 17.4000 17.8800 67.810 64.010 11.3800 10.9700 0.06000 0.05100 259.80 11.330 19.872 13.461 6.397 20.483 13.100 7.372
H15MET 2015-09-21 11:45:00 25295 208 900.0 2015.0 264.00 1145.0 16.7500 17.2700 73.800 69.110 12.0400 11.5400 0.01000 0.01000 157.40 2.390 19.071 14.062 4.996 19.709 13.605 6.088
H15MET 2015-09-21 11:30:00 25294 208 900.0 2015.0 264.00 1130.0 16.3000 17.0200 73.900 67.090 11.6300 10.8700 0.10800 0.09600 282.10 12.700 18.532 13.686 4.837 19.400 13.013 6.385
H15MET 2015-09-21 11:15:00 25293 208 900.0 2015.0 264.00 1115.0 16.5100 17.0600 73.800 67.760 11.8000 11.0500 0.02000 0.01900 267.80 1.880 18.782 13.841 4.921 19.449 13.170 6.270
H15MET 2015-09-21 11:00:00 25292 208 900.0 2015.0 264.00 1100.0 16.8800 17.1900 68.610 65.710 11.0600 10.7000 0.15000 0.13900 278.80 7.440 19.229 13.179 6.036 19.610 12.867 6.724
H15MET 2015-09-21 10:45:00 25291 208 900.0 2015.0 264.00 1045.0 16.5600 17.0800 81.100 75.200 13.3100 12.6500 0.04300 0.04100 262.80 6.523 18.842 15.283 3.561 19.474 14.637 4.830
H15MET 2015-09-21 10:30:00 25290 208 900.0 2015.0 264.00 1030.0 16.1900 17.0300 84.800 78.000 13.6300 13.1500 0.02800 0.02700 145.30 4.171 18.403 15.605 2.797 19.412 15.124 4.271
H15MET 2015-09-21 10:15:00 25289 208 900.0 2015.0 264.00 1015.0 16.2000 16.7100 84.500 79.600 13.5900 13.1500 0.00000 0.00000 0.00 0.000 18.415 15.564 2.854 19.022 15.124 3.881
H15MET 2015-09-21 10:00:00 25288 208 900.0 2015.0 264.00 1000.0 17.0000 17.1200 79.300 75.400 13.3800 12.7300 0.00000 0.00000 0.00 0.000 19.375 15.353 4.011 19.523 14.714 4.803
H15MET 2015-09-21 09:45:00 25287 208 900.0 2015.0 264.00 945.0 15.6600 16.4900 85.100 78.700 13.1400 12.7700 0.00600 0.00600 139.00 0.476 17.790 15.114 2.651 18.758 14.753 3.995
H15MET 2015-09-21 09:30:00 25286 208 900.0 2015.0 264.00 930.0 15.4600 16.1200 89.100 84.900 13.6700 13.5700 0.00000 0.00000 0.00 0.000 17.563 15.646 1.914 18.321 15.544 2.766
H15MET 2015-09-21 09:15:00 25285 208 900.0 2015.0 264.00 915.0 14.7000 15.2800 91.700 87.700 13.3600 13.2500 0.00000 0.00000 0.00 0.000 16.725 15.333 1.388 17.362 15.223 2.135
H15MET 2015-09-21 09:00:00 25284 208 900.0 2015.0 264.00 900.0 13.5500 13.6400 96.000 94.700 12.9200 12.8100 0.00000 0.00000 0.00 0.000 15.524 14.898 0.621 15.615 14.791 0.828
H15MET 2015-09-21 08:45:00 25283 208 900.0 2015.0 264.00 845.0 13.3100 13.5200 96.300 94.800 12.7400 12.7000 0.00000 0.00000 0.00 0.000 15.283 14.724 0.565 15.494 14.685 0.806
H15MET 2015-09-21 08:30:00 25282 208 900.0 2015.0 264.00 830.0 13.3300 13.6200 96.700 95.200 12.8200 12.8600 0.00000 0.00000 0.00 0.000 15.303 14.801 0.505 15.595 14.840 0.749
H15MET 2015-09-21 08:15:00 25281 208 900.0 2015.0 264.00 815.0 13.2400 13.1600 96.900 96.400 12.7600 12.6000 0.14700 0.14400 276.20 5.196 15.213 14.743 0.472 15.134 14.589 0.545
H15MET 2015-09-21 08:00:00 25280 208 900.0 2015.0 264.00 800.0 13.2400 13.2800 98.000 97.200 12.9400 12.8400 0.09500 0.09300 275.20 4.935 15.213 14.918 0.304 15.253 14.820 0.427
H15MET 2015-09-21 07:45:00 25279 208 900.0 2015.0 264.00 745.0 13.1700 13.2400 97.700 97.000 12.8200 12.7800 0.00000 0.00000 0.00 0.000 15.144 14.801 0.348 15.213 14.762 0.456
H15MET 2015-09-21 07:30:00 25278 208 900.0 2015.0 264.00 730.0 13.0600 13.0800 98.400 97.500 12.8100 12.6900 0.00000 0.00000 0.00 0.000 15.035 14.791 0.241 15.055 14.675 0.376
H15MET 2015-09-21 07:15:00 25277 208 900.0 2015.0 264.00 715.0 12.9000 12.9200 99.500 98.600 12.8200 12.7100 0.00000 0.00000 0.00 0.000 14.879 14.801 0.074 14.898 14.695 0.209
H15MET 2015-09-21 07:00:00 25276 208 900.0 2015.0 264.00 700.0 12.8100 12.8700 99.800 99.000 12.7800 12.7300 0.00000 0.00000 0.00 0.000 14.791 14.762 0.030 14.850 14.714 0.148
H15MET 2015-09-21 06:45:00 25275 208 900.0 2015.0 264.00 645.0 12.7700 12.8700 99.900 99.200 12.7500 12.7400 0.00000 0.00000 0.00 0.000 14.753 14.733 0.015 14.850 14.724 0.119
H15MET 2015-09-21 06:30:00 25274 208 900.0 2015.0 264.00 630.0 12.7100 12.8200 99.900 99.200 12.7000 12.7000 0.00000 0.00000 0.00 0.000 14.695 14.685 0.015 14.801 14.685 0.118
H15MET 2015-09-21 06:15:00 25273 208 900.0 2015.0 264.00 615.0 12.6900 12.8200 99.800 99.100 12.6700 12.6800 0.00000 0.00000 0.00 0.000 14.675 14.656 0.029 14.801 14.666 0.133
H15MET 2015-09-21 06:00:00 25272 208 900.0 2015.0 264.00 600.0 12.7200 12.8500 99.900 99.100 12.7000 12.7100 0.00000 0.00000 0.00 0.000 14.704 14.685 0.015 14.830 14.695 0.133
H15MET 2015-09-21 05:45:00 25271 208 900.0 2015.0 264.00 545.0 12.7300 12.8700 99.700 98.900 12.6800 12.6900 0.00000 0.00000 0.00 0.000 14.714 14.666 0.044 14.850 14.675 0.163
H15MET 2015-09-21 05:30:00 25270 208 900.0 2015.0 264.00 530.0 12.7400 12.8600 99.500 98.700 12.6700 12.6600 0.00000 0.00000 0.00 0.000 14.724 14.656 0.074 14.840 14.647 0.193
H15MET 2015-09-21 05:15:00 25269 208 900.0 2015.0 264.00 515.0 12.7800 12.8800 99.500 98.600 12.6900 12.6700 0.00000 0.00000 0.00 0.000 14.762 14.675 0.074 14.859 14.656 0.208
H15MET 2015-09-21 05:00:00 25268 208 900.0 2015.0 264.00 500.0 12.8300 12.9300 99.100 98.400 12.6900 12.6700 0.00000 0.00000 0.00 0.000 14.811 14.675 0.133 14.908 14.656 0.239
H15MET 2015-09-21 04:45:00 25267 208 900.0 2015.0 264.00 445.0 12.8800 13.0000 98.900 98.100 12.7000 12.7000 0.00000 0.00000 0.00 0.000 14.859 14.685 0.163 14.976 14.685 0.285
H15MET 2015-09-21 04:30:00 25266 208 900.0 2015.0 264.00 430.0 12.9200 13.0300 98.700 97.900 12.7200 12.7100 0.00000 0.00000 0.00 0.000 14.898 14.704 0.194 15.006 14.695 0.315
H15MET 2015-09-21 04:15:00 25265 208 900.0 2015.0 264.00 415.0 12.9400 13.0700 98.800 97.700 12.7500 12.7200 0.00000 0.00000 0.00 0.000 14.918 14.733 0.179 15.045 14.704 0.346
H15MET 2015-09-21 04:00:00 25264 208 900.0 2015.0 264.00 400.0 13.0700 13.2300 98.900 97.800 12.9000 12.8800 0.00000 0.00000 0.00 0.000 15.045 14.879 0.165 15.203 14.859 0.334
H15MET 2015-09-21 03:45:00 25263 208 900.0 2015.0 264.00 345.0 13.1200 13.2800 98.700 97.500 12.9300 12.8900 0.00000 0.00000 0.00 0.000 15.094 14.908 0.196 15.253 14.869 0.381
H15MET 2015-09-21 03:30:00 25262 208 900.0 2015.0 264.00 330.0 13.1600 13.3300 99.000 97.600 13.0100 12.9600 0.00000 0.00000 0.00 0.000 15.134 14.986 0.151 15.303 14.937 0.367
H15MET 2015-09-21 03:15:00 25261 208 900.0 2015.0 264.00 315.0 13.1400 13.3200 99.300 97.900 13.0300 13.0000 0.00000 0.00000 0.00 0.000 15.114 15.006 0.106 15.293 14.976 0.321
H15MET 2015-09-21 03:00:00 25260 208 900.0 2015.0 264.00 300.0 13.0900 13.3300 99.200 97.800 12.9800 12.9900 0.00000 0.00000 0.00 0.000 15.065 14.957 0.121 15.303 14.967 0.337
H15MET 2015-09-21 02:45:00 25259 208 900.0 2015.0 264.00 245.0 13.1100 13.3600 99.200 97.700 12.9900 13.0100 0.00000 0.00000 0.00 0.000 15.085 14.967 0.121 15.333 14.986 0.353
H15MET 2015-09-21 02:30:00 25258 208 900.0 2015.0 264.00 230.0 13.0900 13.3200 99.400 97.900 13.0000 12.9900 0.00000 0.00000 0.00 0.000 15.065 14.976 0.090 15.293 14.967 0.321
H15MET 2015-09-21 02:15:00 25257 208 900.0 2015.0 264.00 215.0 13.0900 13.3500 99.200 97.600 12.9600 12.9800 0.00000 0.00000 0.00 0.000 15.065 14.937 0.121 15.323 14.957 0.368
H15MET 2015-09-21 02:00:00 25256 208 900.0 2015.0 264.00 200.0 13.1000 13.3900 98.700 97.000 12.8900 12.9200 0.00000 0.00000 0.00 0.000 15.075 14.869 0.196 15.363 14.898 0.461
H15MET 2015-09-21 01:45:00 25255 208 900.0 2015.0 264.00 145.0 13.2500 13.5300 98.200 96.600 12.9800 12.9900 0.00000 0.00000 0.00 0.000 15.223 14.957 0.274 15.504 14.967 0.527
H15MET 2015-09-21 01:30:00 25254 208 900.0 2015.0 264.00 130.0 13.4800 13.7900 97.800 96.100 13.1400 13.1800 0.00000 0.00000 0.00 0.000 15.453 15.114 0.340 15.768 15.154 0.615
H15MET 2015-09-21 01:15:00 25253 208 900.0 2015.0 264.00 115.0 13.7000 13.9800 98.100 96.000 13.4100 13.3600 0.00000 0.00000 0.00 0.000 15.676 15.383 0.298 15.964 15.333 0.639
H15MET 2015-09-21 01:00:00 25252 208 900.0 2015.0 264.00 100.0 13.8200 14.1000 98.400 96.600 13.5700 13.5700 0.00000 0.00000 0.00 0.000 15.799 15.544 0.253 16.089 15.544 0.547
H15MET 2015-09-21 00:45:00 25251 208 900.0 2015.0 264.00 45.0 13.9200 14.1900 98.300 96.400 13.6500 13.6200 0.00000 0.00000 0.00 0.000 15.902 15.625 0.270 16.183 15.595 0.583
H15MET 2015-09-21 00:30:00 25250 208 900.0 2015.0 264.00 30.0 14.0300 14.2700 98.500 96.500 13.7900 13.7300 0.00000 0.00000 0.00 0.000 16.016 15.768 0.240 16.267 15.707 0.569
H15MET 2015-09-21 00:15:00 25249 208 900.0 2015.0 264.00 15.0 13.9700 14.2100 98.500 96.800 13.7400 13.7000 0.00000 0.00000 0.00 0.000 15.954 15.717 0.239 16.204 15.676 0.519